<?xml version="1.0" encoding="UTF-8" standalone="no"?><gpx xmlns="http://www.topografix.com/GPX/1/1" xmlns:xsi="http://www.w3.org/2001/XMLSchema-instance" xsi:schemaLocation="http://www.topografix.com/GPX/1/1 http://www.topografix.com/GPX/1/1/gpx.xsd"><extensions><metadata><name>26/10/14 06:48</name><desc>2014-10-26 prova marcia</desc><author><name>ah_yeah</name></author><link href="www.sports-tracker.com"><text>Sports Tracker</text></link></metadata></extensions><trk><trkseg><trkpt lat="45.988265" lon="12.314371666666666"><ele>180.5</ele><time>2014-10-26T05:48:44Z</time></trkpt><trkpt lat="45.988265" lon="12.314371666666666"><ele>180.5</ele><time>2014-10-26T05:48:48Z</time></trkpt><trkpt lat="45.988245" lon="12.314496666666667"><ele>180.5</ele><time>2014-10-26T05:48:52Z</time></trkpt><trkpt lat="45.98827" lon="12.31442"><ele>180.5</ele><time>2014-10-26T05:48:59Z</time></trkpt><trkpt lat="45.988355" lon="12.31443"><ele>180.8</ele><time>2014-10-26T05:49:05Z</time></trkpt><trkpt lat="45.98842" lon="12.314475"><ele>180.9</ele><time>2014-10-26T05:49:12Z</time></trkpt><trkpt lat="45.98844" lon="12.31447"><ele>181.0</ele><time>2014-10-26T05:49:19Z</time></trkpt><trkpt lat="45.988435" lon="12.31447"><ele>181.0</ele><time>2014-10-26T05:49:23Z</time></trkpt><trkpt lat="45.98848666666667" lon="12.31444"><ele>181.6</ele><time>2014-10-26T05:49:32Z</time></trkpt><trkpt lat="45.988525" lon="12.314435"><ele>181.3</ele><time>2014-10-26T05:49:39Z</time></trkpt><trkpt lat="45.988526666666665" lon="12.31444"><ele>181.2</ele><time>2014-10-26T05:49:44Z</time></trkpt><trkpt lat="45.98857" lon="12.31446"><ele>180.0</ele><time>2014-10-26T05:49:51Z</time></trkpt><trkpt lat="45.988645" lon="12.314505"><ele>179.8</ele><time>2014-10-26T05:49:58Z</time></trkpt><trkpt lat="45.988715" lon="12.314455"><ele>180.0</ele><time>2014-10-26T05:50:02Z</time></trkpt><trkpt lat="45.98878833333333" lon="12.3144"><ele>180.0</ele><time>2014-10-26T05:50:05Z</time></trkpt><trkpt lat="45.98885" lon="12.314315"><ele>179.9</ele><time>2014-10-26T05:50:08Z</time></trkpt><trkpt lat="45.98891" lon="12.314235"><ele>179.7</ele><time>2014-10-26T05:50:11Z</time></trkpt><trkpt lat="45.98896" lon="12.314151666666667"><ele>179.5</ele><time>2014-10-26T05:50:14Z</time></trkpt><trkpt lat="45.98901" lon="12.314055"><ele>179.6</ele><time>2014-10-26T05:50:18Z</time></trkpt><trkpt lat="45.989065" lon="12.313935"><ele>179.4</ele><time>2014-10-26T05:50:22Z</time></trkpt><trkpt lat="45.98911" lon="12.313835"><ele>179.4</ele><time>2014-10-26T05:50:25Z</time></trkpt><trkpt lat="45.98914833333333" lon="12.313731666666667"><ele>179.3</ele><time>2014-10-26T05:50:28Z</time></trkpt><trkpt lat="45.989195" lon="12.313635"><ele>179.3</ele><time>2014-10-26T05:50:31Z</time></trkpt><trkpt lat="45.98923833333333" lon="12.313525"><ele>179.2</ele><time>2014-10-26T05:50:34Z</time></trkpt><trkpt lat="45.989275" lon="12.313436666666666"><ele>179.2</ele><time>2014-10-26T05:50:37Z</time></trkpt><trkpt lat="45.98932" lon="12.313328333333333"><ele>179.6</ele><time>2014-10-26T05:50:42Z</time></trkpt><trkpt lat="45.98930166666667" lon="12.313226666666667"><ele>179.6</ele><time>2014-10-26T05:50:46Z</time></trkpt><trkpt lat="45.98932" lon="12.313096666666667"><ele>179.5</ele><time>2014-10-26T05:50:50Z</time></trkpt><trkpt lat="45.989376666666665" lon="12.313015"><ele>179.8</ele><time>2014-10-26T05:50:54Z</time></trkpt><trkpt lat="45.98946333333333" lon="12.313"><ele>180.3</ele><time>2014-10-26T05:50:59Z</time></trkpt><trkpt lat="45.989545" lon="12.313025"><ele>181.0</ele><time>2014-10-26T05:51:03Z</time></trkpt><trkpt lat="45.98963" lon="12.313055"><ele>181.5</ele><time>2014-10-26T05:51:07Z</time></trkpt><trkpt lat="45.98972" lon="12.31307"><ele>182.7</ele><time>2014-10-26T05:51:12Z</time></trkpt><trkpt lat="45.989795" lon="12.313091666666667"><ele>183.3</ele><time>2014-10-26T05:51:16Z</time></trkpt><trkpt lat="45.98987" lon="12.313155"><ele>183.8</ele><time>2014-10-26T05:51:21Z</time></trkpt><trkpt lat="45.989945" lon="12.31321"><ele>184.3</ele><time>2014-10-26T05:51:26Z</time></trkpt><trkpt lat="45.99003" lon="12.313265"><ele>185.0</ele><time>2014-10-26T05:51:30Z</time></trkpt><trkpt lat="45.99011" lon="12.313255"><ele>185.6</ele><time>2014-10-26T05:51:34Z</time></trkpt><trkpt lat="45.990185" lon="12.31321"><ele>186.0</ele><time>2014-10-26T05:51:38Z</time></trkpt><trkpt lat="45.990255" lon="12.31316"><ele>186.3</ele><time>2014-10-26T05:51:42Z</time></trkpt><trkpt lat="45.990325" lon="12.31307"><ele>186.5</ele><time>2014-10-26T05:51:47Z</time></trkpt><trkpt lat="45.99036666666667" lon="12.312966666666666"><ele>186.4</ele><time>2014-10-26T05:51:51Z</time></trkpt><trkpt lat="45.990415" lon="12.312875"><ele>186.4</ele><time>2014-10-26T05:51:55Z</time></trkpt><trkpt lat="45.99048666666667" lon="12.312851666666667"><ele>186.7</ele><time>2014-10-26T05:52:00Z</time></trkpt><trkpt lat="45.990575" lon="12.312841666666667"><ele>187.1</ele><time>2014-10-26T05:52:04Z</time></trkpt><trkpt lat="45.990665" lon="12.312835"><ele>188.0</ele><time>2014-10-26T05:52:11Z</time></trkpt><trkpt lat="45.990746666666666" lon="12.31284"><ele>189.2</ele><time>2014-10-26T05:52:16Z</time></trkpt><trkpt lat="45.990825" lon="12.312835"><ele>190.6</ele><time>2014-10-26T05:52:21Z</time></trkpt><trkpt lat="45.9909" lon="12.312836666666666"><ele>192.3</ele><time>2014-10-26T05:52:27Z</time></trkpt><trkpt lat="45.990915" lon="12.312725"><ele>193.3</ele><time>2014-10-26T05:52:32Z</time></trkpt><trkpt lat="45.990875" lon="12.312623333333333"><ele>194.0</ele><time>2014-10-26T05:52:39Z</time></trkpt><trkpt lat="45.990835" lon="12.312516666666667"><ele>195.2</ele><time>2014-10-26T05:52:45Z</time></trkpt><trkpt lat="45.990755" lon="12.3125"><ele>196.5</ele><time>2014-10-26T05:52:50Z</time></trkpt><trkpt lat="45.99067" lon="12.312455"><ele>197.6</ele><time>2014-10-26T05:52:54Z</time></trkpt><trkpt lat="45.99060333333333" lon="12.312395"><ele>198.5</ele><time>2014-10-26T05:52:57Z</time></trkpt><trkpt lat="45.99055" lon="12.31232"><ele>199.7</ele><time>2014-10-26T05:53:00Z</time></trkpt><trkpt lat="45.99050666666667" lon="12.31223"><ele>200.6</ele><time>2014-10-26T05:53:03Z</time></trkpt><trkpt lat="45.990455" lon="12.312151666666667"><ele>201.9</ele><time>2014-10-26T05:53:06Z</time></trkpt><trkpt lat="45.990386666666666" lon="12.31207"><ele>203.0</ele><time>2014-10-26T05:53:09Z</time></trkpt><trkpt lat="45.99032" lon="12.311985"><ele>204.0</ele><time>2014-10-26T05:53:12Z</time></trkpt><trkpt lat="45.99025" lon="12.311895"><ele>204.5</ele><time>2014-10-26T05:53:15Z</time></trkpt><trkpt lat="45.99017" lon="12.311806666666667"><ele>204.6</ele><time>2014-10-26T05:53:18Z</time></trkpt><trkpt lat="45.9901" lon="12.31171"><ele>204.5</ele><time>2014-10-26T05:53:21Z</time></trkpt><trkpt lat="45.990015" lon="12.311625"><ele>204.1</ele><time>2014-10-26T05:53:24Z</time></trkpt><trkpt lat="45.98994666666667" lon="12.311555"><ele>203.4</ele><time>2014-10-26T05:53:27Z</time></trkpt><trkpt lat="45.989885" lon="12.311475"><ele>202.5</ele><time>2014-10-26T05:53:30Z</time></trkpt><trkpt lat="45.989815" lon="12.3114"><ele>201.8</ele><time>2014-10-26T05:53:33Z</time></trkpt><trkpt lat="45.98974" lon="12.31133"><ele>201.2</ele><time>2014-10-26T05:53:36Z</time></trkpt><trkpt lat="45.989671666666666" lon="12.311258333333333"><ele>200.4</ele><time>2014-10-26T05:53:39Z</time></trkpt><trkpt lat="45.98961" lon="12.311195"><ele>199.7</ele><time>2014-10-26T05:53:42Z</time></trkpt><trkpt lat="45.989555" lon="12.3111"><ele>199.1</ele><time>2014-10-26T05:53:45Z</time></trkpt><trkpt lat="45.98949" lon="12.311025"><ele>198.9</ele><time>2014-10-26T05:53:48Z</time></trkpt><trkpt lat="45.98942" lon="12.310946666666666"><ele>198.7</ele><time>2014-10-26T05:53:51Z</time></trkpt><trkpt lat="45.98934" lon="12.31088"><ele>198.2</ele><time>2014-10-26T05:53:54Z</time></trkpt><trkpt lat="45.98927" lon="12.310815"><ele>197.5</ele><time>2014-10-26T05:53:57Z</time></trkpt><trkpt lat="45.98920666666667" lon="12.31075"><ele>196.9</ele><time>2014-10-26T05:54:00Z</time></trkpt><trkpt lat="45.989145" lon="12.31067"><ele>196.0</ele><time>2014-10-26T05:54:03Z</time></trkpt><trkpt lat="45.989081666666664" lon="12.3106"><ele>195.3</ele><time>2014-10-26T05:54:06Z</time></trkpt><trkpt lat="45.98901333333333" lon="12.31053"><ele>194.3</ele><time>2014-10-26T05:54:09Z</time></trkpt><trkpt lat="45.98893" lon="12.310475"><ele>193.1</ele><time>2014-10-26T05:54:13Z</time></trkpt><trkpt lat="45.98884666666667" lon="12.310408333333333"><ele>192.0</ele><time>2014-10-26T05:54:17Z</time></trkpt><trkpt lat="45.98879" lon="12.310321666666667"><ele>191.2</ele><time>2014-10-26T05:54:21Z</time></trkpt><trkpt lat="45.988745" lon="12.310218333333333"><ele>191.2</ele><time>2014-10-26T05:54:26Z</time></trkpt><trkpt lat="45.988686666666666" lon="12.310115"><ele>191.0</ele><time>2014-10-26T05:54:30Z</time></trkpt><trkpt lat="45.988656666666664" lon="12.31"><ele>191.0</ele><time>2014-10-26T05:54:36Z</time></trkpt><trkpt lat="45.98861" lon="12.3099"><ele>190.3</ele><time>2014-10-26T05:54:40Z</time></trkpt><trkpt lat="45.98861" lon="12.30979"><ele>190.0</ele><time>2014-10-26T05:54:45Z</time></trkpt><trkpt lat="45.98865" lon="12.309685"><ele>189.6</ele><time>2014-10-26T05:54:50Z</time></trkpt><trkpt lat="45.988715" lon="12.30962"><ele>189.2</ele><time>2014-10-26T05:54:54Z</time></trkpt><trkpt lat="45.98878" lon="12.309535"><ele>189.0</ele><time>2014-10-26T05:54:59Z</time></trkpt><trkpt lat="45.98885" lon="12.30948"><ele>189.1</ele><time>2014-10-26T05:55:04Z</time></trkpt><trkpt lat="45.98887" lon="12.30938"><ele>190.6</ele><time>2014-10-26T05:55:10Z</time></trkpt><trkpt lat="45.98893666666667" lon="12.30943"><ele>191.4</ele><time>2014-10-26T05:55:16Z</time></trkpt><trkpt lat="45.98900166666667" lon="12.30945"><ele>191.9</ele><time>2014-10-26T05:55:23Z</time></trkpt><trkpt lat="45.989075" lon="12.309458333333334"><ele>192.2</ele><time>2014-10-26T05:55:28Z</time></trkpt><trkpt lat="45.989145" lon="12.309535"><ele>193.4</ele><time>2014-10-26T05:55:34Z</time></trkpt><trkpt lat="45.98920666666667" lon="12.30959"><ele>195.0</ele><time>2014-10-26T05:55:39Z</time></trkpt><trkpt lat="45.989275" lon="12.309655"><ele>196.6</ele><time>2014-10-26T05:55:44Z</time></trkpt><trkpt lat="45.98935" lon="12.30968"><ele>197.4</ele><time>2014-10-26T05:55:50Z</time></trkpt><trkpt lat="45.989415" lon="12.30968"><ele>199.0</ele><time>2014-10-26T05:55:57Z</time></trkpt><trkpt lat="45.989485" lon="12.309655"><ele>200.1</ele><time>2014-10-26T05:56:03Z</time></trkpt><trkpt lat="45.98949" lon="12.30966"><ele>200.5</ele><time>2014-10-26T05:56:10Z</time></trkpt><trkpt lat="45.98952" lon="12.309715"><ele>202.2</ele><time>2014-10-26T05:56:17Z</time></trkpt><trkpt lat="45.98954" lon="12.30971"><ele>203.3</ele><time>2014-10-26T05:56:24Z</time></trkpt><trkpt lat="45.989575" lon="12.309743333333333"><ele>204.6</ele><time>2014-10-26T05:56:31Z</time></trkpt><trkpt lat="45.98961" lon="12.30975"><ele>205.7</ele><time>2014-10-26T05:56:38Z</time></trkpt><trkpt lat="45.989635" lon="12.309755"><ele>207.5</ele><time>2014-10-26T05:56:45Z</time></trkpt><trkpt lat="45.9897" lon="12.30973"><ele>209.9</ele><time>2014-10-26T05:56:52Z</time></trkpt><trkpt lat="45.989765" lon="12.309675"><ele>210.9</ele><time>2014-10-26T05:56:57Z</time></trkpt><trkpt lat="45.98984166666666" lon="12.309625"><ele>211.4</ele><time>2014-10-26T05:57:01Z</time></trkpt><trkpt lat="45.989875" lon="12.309535"><ele>211.9</ele><time>2014-10-26T05:57:06Z</time></trkpt><trkpt lat="45.989911666666664" lon="12.30944"><ele>212.5</ele><time>2014-10-26T05:57:13Z</time></trkpt><trkpt lat="45.989955" lon="12.309515"><ele>213.2</ele><time>2014-10-26T05:57:20Z</time></trkpt><trkpt lat="45.990005" lon="12.309565"><ele>214.0</ele><time>2014-10-26T05:57:27Z</time></trkpt><trkpt lat="45.99003" lon="12.30955"><ele>215.0</ele><time>2014-10-26T05:57:34Z</time></trkpt><trkpt lat="45.99006" lon="12.30947"><ele>215.9</ele><time>2014-10-26T05:57:41Z</time></trkpt><trkpt lat="45.99009" lon="12.309481666666667"><ele>217.0</ele><time>2014-10-26T05:57:48Z</time></trkpt><trkpt lat="45.99012" lon="12.309475"><ele>218.8</ele><time>2014-10-26T05:57:55Z</time></trkpt><trkpt lat="45.990125" lon="12.309511666666667"><ele>220.1</ele><time>2014-10-26T05:58:02Z</time></trkpt><trkpt lat="45.99017" lon="12.309465"><ele>220.8</ele><time>2014-10-26T05:58:09Z</time></trkpt><trkpt lat="45.99019" lon="12.309525"><ele>221.9</ele><time>2014-10-26T05:58:16Z</time></trkpt><trkpt lat="45.990195" lon="12.309553333333334"><ele>222.7</ele><time>2014-10-26T05:58:23Z</time></trkpt><trkpt lat="45.990215" lon="12.309515"><ele>223.6</ele><time>2014-10-26T05:58:30Z</time></trkpt><trkpt lat="45.99024" lon="12.3095"><ele>225.5</ele><time>2014-10-26T05:58:37Z</time></trkpt><trkpt lat="45.99027" lon="12.309556666666667"><ele>228.2</ele><time>2014-10-26T05:58:44Z</time></trkpt><trkpt lat="45.990295" lon="12.309566666666667"><ele>230.2</ele><time>2014-10-26T05:58:51Z</time></trkpt><trkpt lat="45.990345" lon="12.30955"><ele>231.5</ele><time>2014-10-26T05:58:58Z</time></trkpt><trkpt lat="45.990385" lon="12.309545"><ele>233.0</ele><time>2014-10-26T05:59:05Z</time></trkpt><trkpt lat="45.990405" lon="12.309611666666667"><ele>234.7</ele><time>2014-10-26T05:59:12Z</time></trkpt><trkpt lat="45.990431666666666" lon="12.30961"><ele>236.0</ele><time>2014-10-26T05:59:19Z</time></trkpt><trkpt lat="45.990471666666664" lon="12.309595"><ele>237.2</ele><time>2014-10-26T05:59:26Z</time></trkpt><trkpt lat="45.990475" lon="12.309675"><ele>238.8</ele><time>2014-10-26T05:59:33Z</time></trkpt><trkpt lat="45.99051" lon="12.309685"><ele>240.4</ele><time>2014-10-26T05:59:40Z</time></trkpt><trkpt lat="45.990535" lon="12.309648333333334"><ele>242.1</ele><time>2014-10-26T05:59:47Z</time></trkpt><trkpt lat="45.990555" lon="12.309676666666666"><ele>243.9</ele><time>2014-10-26T05:59:54Z</time></trkpt><trkpt lat="45.99058" lon="12.309726666666666"><ele>245.7</ele><time>2014-10-26T06:00:01Z</time></trkpt><trkpt lat="45.99064" lon="12.309705"><ele>247.9</ele><time>2014-10-26T06:00:08Z</time></trkpt><trkpt lat="45.99067" lon="12.309731666666666"><ele>249.8</ele><time>2014-10-26T06:00:15Z</time></trkpt><trkpt lat="45.990635" lon="12.30979"><ele>251.9</ele><time>2014-10-26T06:00:22Z</time></trkpt><trkpt lat="45.99060166666667" lon="12.30982"><ele>253.9</ele><time>2014-10-26T06:00:29Z</time></trkpt><trkpt lat="45.99058333333333" lon="12.309858333333333"><ele>255.9</ele><time>2014-10-26T06:00:36Z</time></trkpt><trkpt lat="45.990655" lon="12.30986"><ele>257.9</ele><time>2014-10-26T06:00:43Z</time></trkpt><trkpt lat="45.99072" lon="12.309866666666666"><ele>260.0</ele><time>2014-10-26T06:00:50Z</time></trkpt><trkpt lat="45.990755" lon="12.309933333333333"><ele>260.4</ele><time>2014-10-26T06:00:57Z</time></trkpt><trkpt lat="45.99083" lon="12.309995"><ele>260.6</ele><time>2014-10-26T06:01:01Z</time></trkpt><trkpt lat="45.990901666666666" lon="12.310055"><ele>260.8</ele><time>2014-10-26T06:01:05Z</time></trkpt><trkpt lat="45.990966666666665" lon="12.3101"><ele>261.6</ele><time>2014-10-26T06:01:10Z</time></trkpt><trkpt lat="45.99105333333333" lon="12.310106666666666"><ele>262.6</ele><time>2014-10-26T06:01:16Z</time></trkpt><trkpt lat="45.99113" lon="12.310155"><ele>263.5</ele><time>2014-10-26T06:01:21Z</time></trkpt><trkpt lat="45.991191666666666" lon="12.310216666666667"><ele>264.5</ele><time>2014-10-26T06:01:25Z</time></trkpt><trkpt lat="45.991255" lon="12.3103"><ele>265.3</ele><time>2014-10-26T06:01:30Z</time></trkpt><trkpt lat="45.99133166666667" lon="12.310355"><ele>266.5</ele><time>2014-10-26T06:01:35Z</time></trkpt><trkpt lat="45.9914" lon="12.310416666666667"><ele>267.4</ele><time>2014-10-26T06:01:40Z</time></trkpt><trkpt lat="45.99147" lon="12.310475"><ele>267.9</ele><time>2014-10-26T06:01:45Z</time></trkpt><trkpt lat="45.991535" lon="12.310535"><ele>268.5</ele><time>2014-10-26T06:01:50Z</time></trkpt><trkpt lat="45.991595" lon="12.310595"><ele>269.0</ele><time>2014-10-26T06:01:57Z</time></trkpt><trkpt lat="45.991655" lon="12.310665"><ele>269.8</ele><time>2014-10-26T06:02:03Z</time></trkpt><trkpt lat="45.99172166666666" lon="12.310753333333333"><ele>270.5</ele><time>2014-10-26T06:02:07Z</time></trkpt><trkpt lat="45.991795" lon="12.310815"><ele>270.9</ele><time>2014-10-26T06:02:11Z</time></trkpt><trkpt lat="45.991861666666665" lon="12.31087"><ele>271.2</ele><time>2014-10-26T06:02:15Z</time></trkpt><trkpt lat="45.991935" lon="12.310925"><ele>271.9</ele><time>2014-10-26T06:02:19Z</time></trkpt><trkpt lat="45.99201" lon="12.31095"><ele>272.8</ele><time>2014-10-26T06:02:24Z</time></trkpt><trkpt lat="45.992075" lon="12.311005"><ele>273.4</ele><time>2014-10-26T06:02:28Z</time></trkpt><trkpt lat="45.99212166666667" lon="12.311085"><ele>274.4</ele><time>2014-10-26T06:02:34Z</time></trkpt><trkpt lat="45.99219166666666" lon="12.31113"><ele>275.2</ele><time>2014-10-26T06:02:40Z</time></trkpt><trkpt lat="45.992275" lon="12.31114"><ele>275.5</ele><time>2014-10-26T06:02:44Z</time></trkpt><trkpt lat="45.992345" lon="12.311186666666666"><ele>276.0</ele><time>2014-10-26T06:02:49Z</time></trkpt><trkpt lat="45.992345" lon="12.31125"><ele>276.3</ele><time>2014-10-26T06:02:56Z</time></trkpt><trkpt lat="45.992415" lon="12.311235"><ele>277.2</ele><time>2014-10-26T06:03:03Z</time></trkpt><trkpt lat="45.99248166666667" lon="12.311196666666667"><ele>278.1</ele><time>2014-10-26T06:03:08Z</time></trkpt><trkpt lat="45.992565" lon="12.31118"><ele>279.3</ele><time>2014-10-26T06:03:14Z</time></trkpt><trkpt lat="45.992626666666666" lon="12.311161666666667"><ele>281.2</ele><time>2014-10-26T06:03:21Z</time></trkpt><trkpt lat="45.99270666666666" lon="12.311155"><ele>283.4</ele><time>2014-10-26T06:03:26Z</time></trkpt><trkpt lat="45.992781666666666" lon="12.311145"><ele>285.3</ele><time>2014-10-26T06:03:31Z</time></trkpt><trkpt lat="45.992868333333334" lon="12.311116666666667"><ele>286.8</ele><time>2014-10-26T06:03:37Z</time></trkpt><trkpt lat="45.992905" lon="12.311125"><ele>289.1</ele><time>2014-10-26T06:03:44Z</time></trkpt><trkpt lat="45.992925" lon="12.31123"><ele>292.7</ele><time>2014-10-26T06:03:49Z</time></trkpt><trkpt lat="45.992925" lon="12.31133"><ele>296.3</ele><time>2014-10-26T06:03:56Z</time></trkpt><trkpt lat="45.992936666666665" lon="12.31142"><ele>298.9</ele><time>2014-10-26T06:04:03Z</time></trkpt><trkpt lat="45.99327" lon="12.311705"><ele>299.8</ele><time>2014-10-26T06:04:37Z</time></trkpt><trkpt lat="45.99375" lon="12.31077"><ele>343.0</ele><time>2014-10-26T06:08:06Z</time></trkpt><trkpt lat="45.993795" lon="12.310836666666667"><ele>342.1</ele><time>2014-10-26T06:08:13Z</time></trkpt><trkpt lat="45.993875" lon="12.31089"><ele>341.4</ele><time>2014-10-26T06:08:18Z</time></trkpt><trkpt lat="45.99393" lon="12.310965"><ele>340.9</ele><time>2014-10-26T06:08:22Z</time></trkpt><trkpt lat="45.994005" lon="12.311051666666666"><ele>340.3</ele><time>2014-10-26T06:08:26Z</time></trkpt><trkpt lat="45.99405" lon="12.311136666666666"><ele>339.8</ele><time>2014-10-26T06:08:29Z</time></trkpt><trkpt lat="45.9941" lon="12.31125"><ele>339.5</ele><time>2014-10-26T06:08:31Z</time></trkpt><trkpt lat="45.99417" lon="12.31137"><ele>339.1</ele><time>2014-10-26T06:08:34Z</time></trkpt><trkpt lat="45.99422833333333" lon="12.311444999999999"><ele>338.9</ele><time>2014-10-26T06:08:38Z</time></trkpt><trkpt lat="45.994275" lon="12.31153"><ele>338.6</ele><time>2014-10-26T06:08:43Z</time></trkpt><trkpt lat="45.994325" lon="12.311605"><ele>338.5</ele><time>2014-10-26T06:08:49Z</time></trkpt><trkpt lat="45.99436166666667" lon="12.311705"><ele>338.1</ele><time>2014-10-26T06:08:54Z</time></trkpt><trkpt lat="45.99441" lon="12.311795"><ele>338.0</ele><time>2014-10-26T06:09:00Z</time></trkpt><trkpt lat="45.994481666666665" lon="12.311865"><ele>337.9</ele><time>2014-10-26T06:09:07Z</time></trkpt><trkpt lat="45.994545" lon="12.311926666666666"><ele>338.5</ele><time>2014-10-26T06:09:13Z</time></trkpt><trkpt lat="45.994595" lon="12.311985"><ele>339.0</ele><time>2014-10-26T06:09:20Z</time></trkpt><trkpt lat="45.994655" lon="12.312045"><ele>339.8</ele><time>2014-10-26T06:09:27Z</time></trkpt><trkpt lat="45.99474" lon="12.31208"><ele>340.9</ele><time>2014-10-26T06:09:34Z</time></trkpt><trkpt lat="45.994785" lon="12.31213"><ele>341.6</ele><time>2014-10-26T06:09:41Z</time></trkpt><trkpt lat="45.994765" lon="12.31212"><ele>342.0</ele><time>2014-10-26T06:09:48Z</time></trkpt><trkpt lat="45.994765" lon="12.312091666666667"><ele>342.0</ele><time>2014-10-26T06:09:55Z</time></trkpt><trkpt lat="45.995216666666664" lon="12.312685"><ele>353.2</ele><time>2014-10-26T06:10:46Z</time></trkpt><trkpt lat="45.99527" lon="12.31279"><ele>353.4</ele><time>2014-10-26T06:10:49Z</time></trkpt><trkpt lat="45.995325" lon="12.312865"><ele>353.4</ele><time>2014-10-26T06:10:52Z</time></trkpt><trkpt lat="45.995365" lon="12.312961666666666"><ele>353.7</ele><time>2014-10-26T06:10:56Z</time></trkpt><trkpt lat="45.99537333333333" lon="12.31307"><ele>354.2</ele><time>2014-10-26T06:11:01Z</time></trkpt><trkpt lat="45.995405" lon="12.31318"><ele>354.4</ele><time>2014-10-26T06:11:06Z</time></trkpt><trkpt lat="45.99544" lon="12.31328"><ele>355.0</ele><time>2014-10-26T06:11:11Z</time></trkpt><trkpt lat="45.995475" lon="12.313335"><ele>355.4</ele><time>2014-10-26T06:11:18Z</time></trkpt><trkpt lat="45.99552666666666" lon="12.31335"><ele>356.3</ele><time>2014-10-26T06:11:25Z</time></trkpt><trkpt lat="45.995595" lon="12.31339"><ele>356.9</ele><time>2014-10-26T06:11:32Z</time></trkpt><trkpt lat="45.99566333333333" lon="12.313446666666668"><ele>356.9</ele><time>2014-10-26T06:11:37Z</time></trkpt><trkpt lat="45.995735" lon="12.3135"><ele>356.8</ele><time>2014-10-26T06:11:43Z</time></trkpt><trkpt lat="45.995795" lon="12.31356"><ele>357.1</ele><time>2014-10-26T06:11:48Z</time></trkpt><trkpt lat="45.99587" lon="12.313611666666667"><ele>357.5</ele><time>2014-10-26T06:11:53Z</time></trkpt><trkpt lat="45.995955" lon="12.313645"><ele>358.2</ele><time>2014-10-26T06:12:00Z</time></trkpt><trkpt lat="45.99602" lon="12.313705"><ele>358.2</ele><time>2014-10-26T06:12:05Z</time></trkpt><trkpt lat="45.996066666666664" lon="12.31376"><ele>359.0</ele><time>2014-10-26T06:12:12Z</time></trkpt><trkpt lat="45.996118333333335" lon="12.31381"><ele>360.0</ele><time>2014-10-26T06:12:19Z</time></trkpt><trkpt lat="45.99619833333333" lon="12.313845"><ele>360.7</ele><time>2014-10-26T06:12:25Z</time></trkpt><trkpt lat="45.99623" lon="12.31386"><ele>361.1</ele><time>2014-10-26T06:12:32Z</time></trkpt><trkpt lat="45.99623166666667" lon="12.31386"><ele>361.2</ele><time>2014-10-26T06:12:33Z</time></trkpt><trkpt lat="45.99628" lon="12.313966666666667"><ele>363.5</ele><time>2014-10-26T06:12:41Z</time></trkpt><trkpt lat="45.99627666666667" lon="12.314005"><ele>364.2</ele><time>2014-10-26T06:12:47Z</time></trkpt><trkpt lat="45.99633" lon="12.314061666666667"><ele>366.1</ele><time>2014-10-26T06:12:54Z</time></trkpt><trkpt lat="45.99641" lon="12.314105"><ele>368.3</ele><time>2014-10-26T06:13:00Z</time></trkpt><trkpt lat="45.996485" lon="12.314135"><ele>370.2</ele><time>2014-10-26T06:13:06Z</time></trkpt><trkpt lat="45.996545" lon="12.314165"><ele>372.4</ele><time>2014-10-26T06:13:13Z</time></trkpt><trkpt lat="45.996595" lon="12.314205"><ele>374.5</ele><time>2014-10-26T06:13:20Z</time></trkpt><trkpt lat="45.99664666666666" lon="12.314276666666666"><ele>375.6</ele><time>2014-10-26T06:13:25Z</time></trkpt><trkpt lat="45.9967" lon="12.314305"><ele>376.7</ele><time>2014-10-26T06:13:32Z</time></trkpt><trkpt lat="45.996745" lon="12.31432"><ele>378.1</ele><time>2014-10-26T06:13:39Z</time></trkpt><trkpt lat="45.99679" lon="12.314365"><ele>379.6</ele><time>2014-10-26T06:13:46Z</time></trkpt><trkpt lat="45.996825" lon="12.314435"><ele>380.7</ele><time>2014-10-26T06:13:53Z</time></trkpt><trkpt lat="45.99689" lon="12.31449"><ele>381.6</ele><time>2014-10-26T06:13:59Z</time></trkpt><trkpt lat="45.996925" lon="12.314525"><ele>382.9</ele><time>2014-10-26T06:14:06Z</time></trkpt><trkpt lat="45.99699" lon="12.31459"><ele>384.2</ele><time>2014-10-26T06:14:12Z</time></trkpt><trkpt lat="45.997051666666664" lon="12.314625"><ele>385.5</ele><time>2014-10-26T06:14:19Z</time></trkpt><trkpt lat="45.9971" lon="12.31463"><ele>386.6</ele><time>2014-10-26T06:14:26Z</time></trkpt><trkpt lat="45.99713" lon="12.314625"><ele>387.0</ele><time>2014-10-26T06:14:34Z</time></trkpt><trkpt lat="45.997125" lon="12.314681666666667"><ele>387.4</ele><time>2014-10-26T06:14:41Z</time></trkpt><trkpt lat="45.99714" lon="12.31469"><ele>387.6</ele><time>2014-10-26T06:14:45Z</time></trkpt><trkpt lat="45.9972" lon="12.31469"><ele>389.8</ele><time>2014-10-26T06:14:52Z</time></trkpt><trkpt lat="45.998466666666666" lon="12.315935"><ele>420.4</ele><time>2014-10-26T06:19:53Z</time></trkpt><trkpt lat="45.998961666666666" lon="12.3163"><ele>423.6</ele><time>2014-10-26T06:21:02Z</time></trkpt><trkpt lat="45.99994" lon="12.31705"><ele>461.0</ele><time>2014-10-26T06:22:08Z</time></trkpt><trkpt lat="46.000015" lon="12.317111666666667"><ele>461.2</ele><time>2014-10-26T06:22:12Z</time></trkpt><trkpt lat="46.000095" lon="12.31714"><ele>461.8</ele><time>2014-10-26T06:22:17Z</time></trkpt><trkpt lat="46.00018" lon="12.317131666666667"><ele>462.2</ele><time>2014-10-26T06:22:23Z</time></trkpt><trkpt lat="46.000265" lon="12.317195"><ele>462.2</ele><time>2014-10-26T06:22:27Z</time></trkpt><trkpt lat="46.000625" lon="12.317316666666667"><ele>462.2</ele><time>2014-10-26T06:22:51Z</time></trkpt><trkpt lat="46.000695" lon="12.317355"><ele>462.3</ele><time>2014-10-26T06:22:53Z</time></trkpt><trkpt lat="46.00078166666667" lon="12.31762"><ele>461.2</ele><time>2014-10-26T06:23:13Z</time></trkpt><trkpt lat="46.000775" lon="12.31776"><ele>460.9</ele><time>2014-10-26T06:23:17Z</time></trkpt><trkpt lat="46.00129666666667" lon="12.31849"><ele>457.9</ele><time>2014-10-26T06:23:57Z</time></trkpt><trkpt lat="46.001315" lon="12.318661666666667"><ele>457.7</ele><time>2014-10-26T06:24:09Z</time></trkpt><trkpt lat="46.001365" lon="12.318775"><ele>457.4</ele><time>2014-10-26T06:24:13Z</time></trkpt><trkpt lat="46.00138" lon="12.318876666666666"><ele>457.3</ele><time>2014-10-26T06:24:18Z</time></trkpt><trkpt lat="46.001435" lon="12.319015"><ele>457.1</ele><time>2014-10-26T06:24:21Z</time></trkpt><trkpt lat="46.001466666666666" lon="12.319111666666666"><ele>457.0</ele><time>2014-10-26T06:24:23Z</time></trkpt><trkpt lat="46.00150166666667" lon="12.31923"><ele>456.8</ele><time>2014-10-26T06:24:25Z</time></trkpt><trkpt lat="46.00152666666666" lon="12.31933"><ele>456.7</ele><time>2014-10-26T06:24:27Z</time></trkpt><trkpt lat="46.001556666666666" lon="12.31947"><ele>456.6</ele><time>2014-10-26T06:24:30Z</time></trkpt><trkpt lat="46.00159" lon="12.31959"><ele>456.7</ele><time>2014-10-26T06:24:33Z</time></trkpt><trkpt lat="46.001605" lon="12.319696666666667"><ele>456.7</ele><time>2014-10-26T06:24:36Z</time></trkpt><trkpt lat="46.00162" lon="12.319805"><ele>456.6</ele><time>2014-10-26T06:24:39Z</time></trkpt><trkpt lat="46.001641666666664" lon="12.319931666666667"><ele>456.3</ele><time>2014-10-26T06:24:43Z</time></trkpt><trkpt lat="46.001695" lon="12.320031666666667"><ele>455.9</ele><time>2014-10-26T06:24:47Z</time></trkpt><trkpt lat="46.001725" lon="12.32016"><ele>455.4</ele><time>2014-10-26T06:24:53Z</time></trkpt><trkpt lat="46.00176166666667" lon="12.32028"><ele>455.0</ele><time>2014-10-26T06:24:57Z</time></trkpt><trkpt lat="46.001795" lon="12.320375"><ele>454.5</ele><time>2014-10-26T06:25:00Z</time></trkpt><trkpt lat="46.00186166666667" lon="12.320466666666666"><ele>453.7</ele><time>2014-10-26T06:25:04Z</time></trkpt><trkpt lat="46.00193" lon="12.320556666666667"><ele>453.1</ele><time>2014-10-26T06:25:08Z</time></trkpt><trkpt lat="46.001975" lon="12.320635"><ele>452.8</ele><time>2014-10-26T06:25:11Z</time></trkpt><trkpt lat="46.00203" lon="12.32073"><ele>451.8</ele><time>2014-10-26T06:25:15Z</time></trkpt><trkpt lat="46.0021" lon="12.320805"><ele>451.2</ele><time>2014-10-26T06:25:20Z</time></trkpt><trkpt lat="46.00214166666667" lon="12.320895"><ele>450.6</ele><time>2014-10-26T06:25:24Z</time></trkpt><trkpt lat="46.00219" lon="12.320976666666667"><ele>450.1</ele><time>2014-10-26T06:25:28Z</time></trkpt><trkpt lat="46.002245" lon="12.321065"><ele>449.1</ele><time>2014-10-26T06:25:33Z</time></trkpt><trkpt lat="46.002285" lon="12.321156666666667"><ele>448.5</ele><time>2014-10-26T06:25:37Z</time></trkpt><trkpt lat="46.00229" lon="12.32127"><ele>447.8</ele><time>2014-10-26T06:25:43Z</time></trkpt><trkpt lat="46.00222" lon="12.321365"><ele>446.9</ele><time>2014-10-26T06:25:47Z</time></trkpt><trkpt lat="46.002201666666664" lon="12.321476666666667"><ele>446.2</ele><time>2014-10-26T06:25:50Z</time></trkpt><trkpt lat="46.002225" lon="12.32159"><ele>445.3</ele><time>2014-10-26T06:25:53Z</time></trkpt><trkpt lat="46.002265" lon="12.321676666666667"><ele>444.1</ele><time>2014-10-26T06:25:56Z</time></trkpt><trkpt lat="46.002325" lon="12.321785"><ele>442.4</ele><time>2014-10-26T06:26:00Z</time></trkpt><trkpt lat="46.002375" lon="12.32188"><ele>440.7</ele><time>2014-10-26T06:26:04Z</time></trkpt><trkpt lat="46.002445" lon="12.321954999999999"><ele>438.8</ele><time>2014-10-26T06:26:10Z</time></trkpt><trkpt lat="46.00251" lon="12.32202"><ele>437.6</ele><time>2014-10-26T06:26:14Z</time></trkpt><trkpt lat="46.00257" lon="12.322076666666666"><ele>436.7</ele><time>2014-10-26T06:26:17Z</time></trkpt><trkpt lat="46.002631666666666" lon="12.322151666666667"><ele>435.5</ele><time>2014-10-26T06:26:21Z</time></trkpt><trkpt lat="46.002696666666665" lon="12.32225"><ele>433.9</ele><time>2014-10-26T06:26:26Z</time></trkpt><trkpt lat="46.00274666666667" lon="12.322355"><ele>432.8</ele><time>2014-10-26T06:26:30Z</time></trkpt><trkpt lat="46.002795" lon="12.32245"><ele>431.4</ele><time>2014-10-26T06:26:35Z</time></trkpt><trkpt lat="46.002851666666665" lon="12.322555"><ele>429.7</ele><time>2014-10-26T06:26:40Z</time></trkpt><trkpt lat="46.002901666666666" lon="12.32265"><ele>428.4</ele><time>2014-10-26T06:26:43Z</time></trkpt><trkpt lat="46.00295" lon="12.322735"><ele>427.0</ele><time>2014-10-26T06:26:47Z</time></trkpt><trkpt lat="46.003025" lon="12.32277"><ele>426.3</ele><time>2014-10-26T06:26:53Z</time></trkpt><trkpt lat="46.003105" lon="12.322736666666668"><ele>425.5</ele><time>2014-10-26T06:26:59Z</time></trkpt><trkpt lat="46.00314" lon="12.322741666666667"><ele>424.8</ele><time>2014-10-26T06:27:06Z</time></trkpt><trkpt lat="46.003215" lon="12.32279"><ele>424.0</ele><time>2014-10-26T06:27:13Z</time></trkpt><trkpt lat="46.00329" lon="12.322845"><ele>424.0</ele><time>2014-10-26T06:27:17Z</time></trkpt><trkpt lat="46.00335666666667" lon="12.322881666666667"><ele>424.2</ele><time>2014-10-26T06:27:21Z</time></trkpt><trkpt lat="46.003445" lon="12.322905"><ele>424.8</ele><time>2014-10-26T06:27:26Z</time></trkpt><trkpt lat="46.003526666666666" lon="12.32292"><ele>425.2</ele><time>2014-10-26T06:27:31Z</time></trkpt><trkpt lat="46.003605" lon="12.322975"><ele>425.9</ele><time>2014-10-26T06:27:35Z</time></trkpt><trkpt lat="46.003681666666665" lon="12.323005"><ele>426.7</ele><time>2014-10-26T06:27:40Z</time></trkpt><trkpt lat="46.00376833333333" lon="12.323005"><ele>427.2</ele><time>2014-10-26T06:27:46Z</time></trkpt><trkpt lat="46.003841666666666" lon="12.322975"><ele>427.6</ele><time>2014-10-26T06:27:51Z</time></trkpt><trkpt lat="46.003885" lon="12.322945"><ele>427.7</ele><time>2014-10-26T06:27:58Z</time></trkpt><trkpt lat="46.003885" lon="12.322986666666667"><ele>428.0</ele><time>2014-10-26T06:28:05Z</time></trkpt><trkpt lat="46.003885" lon="12.323"><ele>428.1</ele><time>2014-10-26T06:28:07Z</time></trkpt><trkpt lat="46.003935" lon="12.322995"><ele>429.8</ele><time>2014-10-26T06:28:15Z</time></trkpt><trkpt lat="46.004015" lon="12.32303"><ele>431.2</ele><time>2014-10-26T06:28:22Z</time></trkpt><trkpt lat="46.00407666666667" lon="12.323076666666667"><ele>432.2</ele><time>2014-10-26T06:28:26Z</time></trkpt><trkpt lat="46.00413666666667" lon="12.323138333333333"><ele>433.3</ele><time>2014-10-26T06:28:33Z</time></trkpt><trkpt lat="46.004195" lon="12.3232"><ele>434.4</ele><time>2014-10-26T06:28:40Z</time></trkpt><trkpt lat="46.004216666666665" lon="12.323225"><ele>434.9</ele><time>2014-10-26T06:28:47Z</time></trkpt><trkpt lat="46.00430333333333" lon="12.3232"><ele>435.0</ele><time>2014-10-26T06:29:01Z</time></trkpt><trkpt lat="46.00443" lon="12.32325"><ele>435.2</ele><time>2014-10-26T06:29:07Z</time></trkpt><trkpt lat="46.004545" lon="12.323361666666667"><ele>435.4</ele><time>2014-10-26T06:29:16Z</time></trkpt><trkpt lat="46.004615" lon="12.323409999999999"><ele>435.8</ele><time>2014-10-26T06:29:18Z</time></trkpt><trkpt lat="46.004655" lon="12.323486666666666"><ele>437.1</ele><time>2014-10-26T06:29:25Z</time></trkpt><trkpt lat="46.00467666666667" lon="12.323593333333333"><ele>438.2</ele><time>2014-10-26T06:29:28Z</time></trkpt><trkpt lat="46.004775" lon="12.323625"><ele>438.7</ele><time>2014-10-26T06:29:31Z</time></trkpt><trkpt lat="46.00486166666666" lon="12.32363"><ele>439.3</ele><time>2014-10-26T06:29:35Z</time></trkpt><trkpt lat="46.00494" lon="12.32364"><ele>440.2</ele><time>2014-10-26T06:29:41Z</time></trkpt><trkpt lat="46.005015" lon="12.323695"><ele>441.1</ele><time>2014-10-26T06:29:46Z</time></trkpt><trkpt lat="46.00509" lon="12.323755"><ele>442.3</ele><time>2014-10-26T06:29:51Z</time></trkpt><trkpt lat="46.005161666666666" lon="12.32379"><ele>443.1</ele><time>2014-10-26T06:29:56Z</time></trkpt><trkpt lat="46.005201666666665" lon="12.32385"><ele>444.4</ele><time>2014-10-26T06:30:03Z</time></trkpt><trkpt lat="46.005266666666664" lon="12.323896666666666"><ele>445.3</ele><time>2014-10-26T06:30:08Z</time></trkpt><trkpt lat="46.00532" lon="12.323975"><ele>445.8</ele><time>2014-10-26T06:30:12Z</time></trkpt><trkpt lat="46.005375" lon="12.324066666666667"><ele>446.4</ele><time>2014-10-26T06:30:16Z</time></trkpt><trkpt lat="46.00544" lon="12.32415"><ele>447.4</ele><time>2014-10-26T06:30:20Z</time></trkpt><trkpt lat="46.00549" lon="12.324235"><ele>449.3</ele><time>2014-10-26T06:30:25Z</time></trkpt><trkpt lat="46.005536666666664" lon="12.324311666666667"><ele>450.6</ele><time>2014-10-26T06:30:30Z</time></trkpt><trkpt lat="46.005585" lon="12.324415"><ele>451.4</ele><time>2014-10-26T06:30:35Z</time></trkpt><trkpt lat="46.005635" lon="12.324455"><ele>452.2</ele><time>2014-10-26T06:30:42Z</time></trkpt><trkpt lat="46.005716666666665" lon="12.32451"><ele>453.6</ele><time>2014-10-26T06:30:49Z</time></trkpt><trkpt lat="46.005955" lon="12.32474"><ele>454.0</ele><time>2014-10-26T06:31:17Z</time></trkpt><trkpt lat="46.00599166666667" lon="12.324826666666667"><ele>454.2</ele><time>2014-10-26T06:31:20Z</time></trkpt><trkpt lat="46.006005" lon="12.324770000000001"><ele>456.2</ele><time>2014-10-26T06:31:27Z</time></trkpt><trkpt lat="46.006005" lon="12.324731666666667"><ele>458.0</ele><time>2014-10-26T06:31:34Z</time></trkpt><trkpt lat="46.00601" lon="12.324625"><ele>459.1</ele><time>2014-10-26T06:31:38Z</time></trkpt><trkpt lat="46.006015" lon="12.324515"><ele>459.9</ele><time>2014-10-26T06:31:41Z</time></trkpt><trkpt lat="46.006015" lon="12.3244"><ele>461.8</ele><time>2014-10-26T06:31:48Z</time></trkpt><trkpt lat="46.005975" lon="12.32431"><ele>463.2</ele><time>2014-10-26T06:31:54Z</time></trkpt><trkpt lat="46.005985" lon="12.324195"><ele>464.5</ele><time>2014-10-26T06:32:01Z</time></trkpt><trkpt lat="46.00597" lon="12.32413"><ele>466.2</ele><time>2014-10-26T06:32:08Z</time></trkpt><trkpt lat="46.00599" lon="12.324025"><ele>467.6</ele><time>2014-10-26T06:32:15Z</time></trkpt><trkpt lat="46.00600166666667" lon="12.323941666666666"><ele>468.8</ele><time>2014-10-26T06:32:22Z</time></trkpt><trkpt lat="46.00595" lon="12.323861666666666"><ele>469.0</ele><time>2014-10-26T06:32:29Z</time></trkpt><trkpt lat="46.005915" lon="12.323745"><ele>470.9</ele><time>2014-10-26T06:32:35Z</time></trkpt><trkpt lat="46.005876666666666" lon="12.32366"><ele>473.2</ele><time>2014-10-26T06:32:42Z</time></trkpt><trkpt lat="46.005945" lon="12.3236"><ele>474.8</ele><time>2014-10-26T06:32:47Z</time></trkpt><trkpt lat="46.00601" lon="12.32363"><ele>477.3</ele><time>2014-10-26T06:32:54Z</time></trkpt><trkpt lat="46.006055" lon="12.323635"><ele>479.7</ele><time>2014-10-26T06:33:01Z</time></trkpt><trkpt lat="46.006103333333336" lon="12.323615"><ele>481.4</ele><time>2014-10-26T06:33:08Z</time></trkpt><trkpt lat="46.0062" lon="12.323645"><ele>481.5</ele><time>2014-10-26T06:33:37Z</time></trkpt><trkpt lat="46.006165" lon="12.323706666666666"><ele>482.3</ele><time>2014-10-26T06:33:44Z</time></trkpt><trkpt lat="46.006155" lon="12.32367"><ele>482.5</ele><time>2014-10-26T06:33:51Z</time></trkpt><trkpt lat="46.006135" lon="12.323781666666667"><ele>483.8</ele><time>2014-10-26T06:33:57Z</time></trkpt><trkpt lat="46.00612" lon="12.323855"><ele>484.2</ele><time>2014-10-26T06:34:04Z</time></trkpt><trkpt lat="46.00612" lon="12.32386"><ele>484.3</ele><time>2014-10-26T06:34:08Z</time></trkpt><trkpt lat="46.006325" lon="12.32389"><ele>486.7</ele><time>2014-10-26T06:34:59Z</time></trkpt><trkpt lat="46.006295" lon="12.323785"><ele>486.7</ele><time>2014-10-26T06:35:00Z</time></trkpt><trkpt lat="46.006265" lon="12.32368"><ele>486.7</ele><time>2014-10-26T06:35:02Z</time></trkpt><trkpt lat="46.0062" lon="12.32358"><ele>486.7</ele><time>2014-10-26T06:35:06Z</time></trkpt><trkpt lat="46.00615" lon="12.323505"><ele>486.6</ele><time>2014-10-26T06:35:08Z</time></trkpt><trkpt lat="46.00606" lon="12.32338"><ele>486.6</ele><time>2014-10-26T06:35:17Z</time></trkpt><trkpt lat="46.00598" lon="12.32326"><ele>486.5</ele><time>2014-10-26T06:35:20Z</time></trkpt><trkpt lat="46.00592" lon="12.32319"><ele>486.5</ele><time>2014-10-26T06:35:24Z</time></trkpt><trkpt lat="46.005045" lon="12.321975"><ele>480.7</ele><time>2014-10-26T06:36:48Z</time></trkpt><trkpt lat="46.005" lon="12.32188"><ele>481.8</ele><time>2014-10-26T06:36:51Z</time></trkpt><trkpt lat="46.00497333333333" lon="12.321736666666666"><ele>480.8</ele><time>2014-10-26T06:36:58Z</time></trkpt><trkpt lat="46.004915" lon="12.321635"><ele>479.4</ele><time>2014-10-26T06:37:01Z</time></trkpt><trkpt lat="46.004845" lon="12.32156"><ele>478.1</ele><time>2014-10-26T06:37:04Z</time></trkpt><trkpt lat="46.00477" lon="12.321431666666667"><ele>476.7</ele><time>2014-10-26T06:37:07Z</time></trkpt><trkpt lat="46.00472" lon="12.321351666666667"><ele>475.8</ele><time>2014-10-26T06:37:09Z</time></trkpt><trkpt lat="46.00465" lon="12.321243333333333"><ele>474.6</ele><time>2014-10-26T06:37:12Z</time></trkpt><trkpt lat="46.00461" lon="12.32116"><ele>473.6</ele><time>2014-10-26T06:37:14Z</time></trkpt><trkpt lat="46.004551666666664" lon="12.32105"><ele>472.3</ele><time>2014-10-26T06:37:17Z</time></trkpt><trkpt lat="46.004505" lon="12.320955"><ele>471.1</ele><time>2014-10-26T06:37:20Z</time></trkpt><trkpt lat="46.004465" lon="12.320856666666666"><ele>469.9</ele><time>2014-10-26T06:37:23Z</time></trkpt><trkpt lat="46.00438" lon="12.32068"><ele>469.1</ele><time>2014-10-26T06:37:36Z</time></trkpt><trkpt lat="46.006095" lon="12.316695"><ele>425.4</ele><time>2014-10-26T06:39:44Z</time></trkpt><trkpt lat="46.00613666666667" lon="12.316585"><ele>425.4</ele><time>2014-10-26T06:39:48Z</time></trkpt><trkpt lat="46.005876666666666" lon="12.316915"><ele>425.5</ele><time>2014-10-26T06:39:52Z</time></trkpt><trkpt lat="46.00592" lon="12.316943333333333"><ele>425.3</ele><time>2014-10-26T06:39:59Z</time></trkpt><trkpt lat="46.006005" lon="12.31694"><ele>426.3</ele><time>2014-10-26T06:40:05Z</time></trkpt><trkpt lat="46.0061" lon="12.31698"><ele>427.1</ele><time>2014-10-26T06:40:08Z</time></trkpt><trkpt lat="46.006191666666666" lon="12.316981666666667"><ele>428.2</ele><time>2014-10-26T06:40:12Z</time></trkpt><trkpt lat="46.006265" lon="12.317001666666666"><ele>429.5</ele><time>2014-10-26T06:40:16Z</time></trkpt><trkpt lat="46.006355" lon="12.317038333333333"><ele>430.5</ele><time>2014-10-26T06:40:20Z</time></trkpt><trkpt lat="46.006455" lon="12.31705"><ele>430.7</ele><time>2014-10-26T06:40:22Z</time></trkpt><trkpt lat="46.006566666666664" lon="12.317055"><ele>431.0</ele><time>2014-10-26T06:40:24Z</time></trkpt><trkpt lat="46.00666" lon="12.317045"><ele>431.3</ele><time>2014-10-26T06:40:26Z</time></trkpt><trkpt lat="46.006735" lon="12.317015"><ele>431.6</ele><time>2014-10-26T06:40:28Z</time></trkpt><trkpt lat="46.00681" lon="12.31707"><ele>432.1</ele><time>2014-10-26T06:40:33Z</time></trkpt><trkpt lat="46.00689" lon="12.317074999999999"><ele>432.3</ele><time>2014-10-26T06:40:35Z</time></trkpt><trkpt lat="46.006975" lon="12.317076666666667"><ele>432.5</ele><time>2014-10-26T06:40:37Z</time></trkpt><trkpt lat="46.00708" lon="12.317065"><ele>432.8</ele><time>2014-10-26T06:40:40Z</time></trkpt><trkpt lat="46.00716666666667" lon="12.317076666666667"><ele>433.1</ele><time>2014-10-26T06:40:43Z</time></trkpt><trkpt lat="46.007241666666665" lon="12.317105"><ele>433.3</ele><time>2014-10-26T06:40:46Z</time></trkpt><trkpt lat="46.007311666666666" lon="12.31715"><ele>433.5</ele><time>2014-10-26T06:40:49Z</time></trkpt><trkpt lat="46.00739" lon="12.3172"><ele>433.4</ele><time>2014-10-26T06:40:53Z</time></trkpt><trkpt lat="46.007468333333335" lon="12.31725"><ele>433.7</ele><time>2014-10-26T06:40:57Z</time></trkpt><trkpt lat="46.00753" lon="12.317303333333333"><ele>433.8</ele><time>2014-10-26T06:41:00Z</time></trkpt><trkpt lat="46.0076" lon="12.317405"><ele>433.7</ele><time>2014-10-26T06:41:04Z</time></trkpt><trkpt lat="46.007645" lon="12.317491666666667"><ele>433.7</ele><time>2014-10-26T06:41:07Z</time></trkpt><trkpt lat="46.007693333333336" lon="12.317595"><ele>434.0</ele><time>2014-10-26T06:41:11Z</time></trkpt><trkpt lat="46.007755" lon="12.317675"><ele>434.2</ele><time>2014-10-26T06:41:14Z</time></trkpt><trkpt lat="46.00780666666667" lon="12.317746666666666"><ele>434.3</ele><time>2014-10-26T06:41:17Z</time></trkpt><trkpt lat="46.00788" lon="12.317845"><ele>434.7</ele><time>2014-10-26T06:41:21Z</time></trkpt><trkpt lat="46.00794" lon="12.317915"><ele>435.3</ele><time>2014-10-26T06:41:24Z</time></trkpt><trkpt lat="46.007995" lon="12.317995"><ele>435.9</ele><time>2014-10-26T06:41:27Z</time></trkpt><trkpt lat="46.00805" lon="12.318076666666666"><ele>436.4</ele><time>2014-10-26T06:41:30Z</time></trkpt><trkpt lat="46.00810666666667" lon="12.31815"><ele>436.8</ele><time>2014-10-26T06:41:33Z</time></trkpt><trkpt lat="46.008165" lon="12.318225"><ele>437.3</ele><time>2014-10-26T06:41:36Z</time></trkpt><trkpt lat="46.008215" lon="12.318305"><ele>437.8</ele><time>2014-10-26T06:41:39Z</time></trkpt><trkpt lat="46.008255" lon="12.318415"><ele>438.4</ele><time>2014-10-26T06:41:43Z</time></trkpt><trkpt lat="46.00831" lon="12.318516666666667"><ele>439.1</ele><time>2014-10-26T06:41:47Z</time></trkpt><trkpt lat="46.008365" lon="12.3186"><ele>439.5</ele><time>2014-10-26T06:41:50Z</time></trkpt><trkpt lat="46.00843" lon="12.31865"><ele>440.0</ele><time>2014-10-26T06:41:53Z</time></trkpt><trkpt lat="46.0085" lon="12.318715"><ele>440.9</ele><time>2014-10-26T06:41:57Z</time></trkpt><trkpt lat="46.00858" lon="12.318765"><ele>442.0</ele><time>2014-10-26T06:42:01Z</time></trkpt><trkpt lat="46.008665" lon="12.318811666666667"><ele>442.8</ele><time>2014-10-26T06:42:06Z</time></trkpt><trkpt lat="46.008735" lon="12.31886"><ele>443.8</ele><time>2014-10-26T06:42:11Z</time></trkpt><trkpt lat="46.008815" lon="12.318893333333333"><ele>444.7</ele><time>2014-10-26T06:42:17Z</time></trkpt><trkpt lat="46.00888666666667" lon="12.3189"><ele>445.0</ele><time>2014-10-26T06:42:23Z</time></trkpt><trkpt lat="46.00897" lon="12.31888"><ele>445.5</ele><time>2014-10-26T06:42:30Z</time></trkpt><trkpt lat="46.00902" lon="12.318876666666666"><ele>446.4</ele><time>2014-10-26T06:42:37Z</time></trkpt><trkpt lat="46.00907" lon="12.318775"><ele>447.7</ele><time>2014-10-26T06:42:44Z</time></trkpt><trkpt lat="46.00909" lon="12.31866"><ele>448.5</ele><time>2014-10-26T06:42:48Z</time></trkpt><trkpt lat="46.00913" lon="12.31855"><ele>450.8</ele><time>2014-10-26T06:42:55Z</time></trkpt><trkpt lat="46.00915" lon="12.3185"><ele>452.4</ele><time>2014-10-26T06:43:02Z</time></trkpt><trkpt lat="46.009155" lon="12.318495"><ele>452.5</ele><time>2014-10-26T06:43:06Z</time></trkpt><trkpt lat="46.00918" lon="12.31851"><ele>454.2</ele><time>2014-10-26T06:43:14Z</time></trkpt><trkpt lat="46.009155" lon="12.318529999999999"><ele>454.8</ele><time>2014-10-26T06:43:21Z</time></trkpt><trkpt lat="46.009135" lon="12.318515"><ele>455.5</ele><time>2014-10-26T06:43:28Z</time></trkpt><trkpt lat="46.009143333333334" lon="12.318485"><ele>456.7</ele><time>2014-10-26T06:43:35Z</time></trkpt><trkpt lat="46.009143333333334" lon="12.318485"><ele>457.0</ele><time>2014-10-26T06:43:39Z</time></trkpt><trkpt lat="46.00916" lon="12.31847"><ele>457.7</ele><time>2014-10-26T06:43:52Z</time></trkpt><trkpt lat="46.009165" lon="12.318465"><ele>458.6</ele><time>2014-10-26T06:43:58Z</time></trkpt><trkpt lat="46.009235" lon="12.318395"><ele>459.6</ele><time>2014-10-26T06:44:02Z</time></trkpt><trkpt lat="46.00931" lon="12.31831"><ele>460.3</ele><time>2014-10-26T06:44:05Z</time></trkpt><trkpt lat="46.009366666666665" lon="12.31824"><ele>460.5</ele><time>2014-10-26T06:44:07Z</time></trkpt><trkpt lat="46.00942166666667" lon="12.318151666666667"><ele>460.6</ele><time>2014-10-26T06:44:09Z</time></trkpt><trkpt lat="46.00947" lon="12.31804"><ele>460.7</ele><time>2014-10-26T06:44:12Z</time></trkpt><trkpt lat="46.009495" lon="12.31793"><ele>460.4</ele><time>2014-10-26T06:44:15Z</time></trkpt><trkpt lat="46.00953" lon="12.317836666666667"><ele>459.7</ele><time>2014-10-26T06:44:21Z</time></trkpt><trkpt lat="46.009571666666666" lon="12.317775"><ele>459.7</ele><time>2014-10-26T06:44:28Z</time></trkpt><trkpt lat="46.009586666666664" lon="12.317745"><ele>459.5</ele><time>2014-10-26T06:44:35Z</time></trkpt><trkpt lat="46.009535" lon="12.317755"><ele>458.6</ele><time>2014-10-26T06:44:42Z</time></trkpt><trkpt lat="46.00954" lon="12.317718333333334"><ele>457.9</ele><time>2014-10-26T06:44:49Z</time></trkpt><trkpt lat="46.00962" lon="12.317735"><ele>457.7</ele><time>2014-10-26T06:44:52Z</time></trkpt><trkpt lat="46.009681666666665" lon="12.317785"><ele>457.4</ele><time>2014-10-26T06:44:55Z</time></trkpt><trkpt lat="46.009735" lon="12.317896666666666"><ele>457.1</ele><time>2014-10-26T06:44:59Z</time></trkpt><trkpt lat="46.009795" lon="12.317975"><ele>456.9</ele><time>2014-10-26T06:45:03Z</time></trkpt><trkpt lat="46.00985" lon="12.318055"><ele>456.7</ele><time>2014-10-26T06:45:07Z</time></trkpt><trkpt lat="46.00991" lon="12.31814"><ele>456.6</ele><time>2014-10-26T06:45:12Z</time></trkpt><trkpt lat="46.00996" lon="12.318225"><ele>456.2</ele><time>2014-10-26T06:45:19Z</time></trkpt><trkpt lat="46.01001" lon="12.318315"><ele>455.7</ele><time>2014-10-26T06:45:24Z</time></trkpt><trkpt lat="46.01003" lon="12.31842"><ele>455.6</ele><time>2014-10-26T06:45:26Z</time></trkpt><trkpt lat="46.010005" lon="12.318545"><ele>455.5</ele><time>2014-10-26T06:45:29Z</time></trkpt><trkpt lat="46.00998833333333" lon="12.318665"><ele>455.6</ele><time>2014-10-26T06:45:32Z</time></trkpt><trkpt lat="46.00996" lon="12.31878"><ele>455.6</ele><time>2014-10-26T06:45:36Z</time></trkpt><trkpt lat="46.00989833333333" lon="12.31884"><ele>455.4</ele><time>2014-10-26T06:45:39Z</time></trkpt><trkpt lat="46.009815" lon="12.318875"><ele>455.0</ele><time>2014-10-26T06:45:42Z</time></trkpt><trkpt lat="46.009745" lon="12.318965"><ele>454.3</ele><time>2014-10-26T06:45:45Z</time></trkpt><trkpt lat="46.009715" lon="12.319075"><ele>453.8</ele><time>2014-10-26T06:45:48Z</time></trkpt><trkpt lat="46.00969" lon="12.319181666666667"><ele>453.4</ele><time>2014-10-26T06:45:51Z</time></trkpt><trkpt lat="46.00969" lon="12.319295"><ele>453.0</ele><time>2014-10-26T06:45:54Z</time></trkpt><trkpt lat="46.009705" lon="12.319405"><ele>452.4</ele><time>2014-10-26T06:45:58Z</time></trkpt><trkpt lat="46.009725" lon="12.31952"><ele>451.9</ele><time>2014-10-26T06:46:02Z</time></trkpt><trkpt lat="46.009695" lon="12.31962"><ele>451.4</ele><time>2014-10-26T06:46:07Z</time></trkpt><trkpt lat="46.00968" lon="12.319725"><ele>450.8</ele><time>2014-10-26T06:46:13Z</time></trkpt><trkpt lat="46.00966" lon="12.31984"><ele>451.1</ele><time>2014-10-26T06:46:20Z</time></trkpt><trkpt lat="46.009615" lon="12.319931666666667"><ele>452.6</ele><time>2014-10-26T06:46:26Z</time></trkpt><trkpt lat="46.009555" lon="12.320025"><ele>454.0</ele><time>2014-10-26T06:46:30Z</time></trkpt><trkpt lat="46.009535" lon="12.320126666666667"><ele>455.6</ele><time>2014-10-26T06:46:36Z</time></trkpt><trkpt lat="46.00958" lon="12.320161666666667"><ele>457.0</ele><time>2014-10-26T06:46:43Z</time></trkpt><trkpt lat="46.00961" lon="12.320065"><ele>457.3</ele><time>2014-10-26T06:46:46Z</time></trkpt><trkpt lat="46.009655" lon="12.319936666666667"><ele>457.8</ele><time>2014-10-26T06:46:49Z</time></trkpt><trkpt lat="46.00971" lon="12.31983"><ele>458.1</ele><time>2014-10-26T06:46:52Z</time></trkpt><trkpt lat="46.00977" lon="12.31973"><ele>458.4</ele><time>2014-10-26T06:46:55Z</time></trkpt><trkpt lat="46.009811666666664" lon="12.31963"><ele>458.4</ele><time>2014-10-26T06:46:58Z</time></trkpt><trkpt lat="46.00986" lon="12.319514999999999"><ele>458.5</ele><time>2014-10-26T06:47:01Z</time></trkpt><trkpt lat="46.009925" lon="12.319425"><ele>458.8</ele><time>2014-10-26T06:47:04Z</time></trkpt><trkpt lat="46.01" lon="12.31934"><ele>458.9</ele><time>2014-10-26T06:47:07Z</time></trkpt><trkpt lat="46.010055" lon="12.31926"><ele>459.0</ele><time>2014-10-26T06:47:10Z</time></trkpt><trkpt lat="46.010115" lon="12.31917"><ele>458.9</ele><time>2014-10-26T06:47:13Z</time></trkpt><trkpt lat="46.01019" lon="12.31911"><ele>458.7</ele><time>2014-10-26T06:47:16Z</time></trkpt><trkpt lat="46.010255" lon="12.31906"><ele>458.4</ele><time>2014-10-26T06:47:19Z</time></trkpt><trkpt lat="46.01034166666667" lon="12.31907"><ele>458.3</ele><time>2014-10-26T06:47:23Z</time></trkpt><trkpt lat="46.01042" lon="12.319075"><ele>458.8</ele><time>2014-10-26T06:47:26Z</time></trkpt><trkpt lat="46.01050166666667" lon="12.319101666666667"><ele>459.2</ele><time>2014-10-26T06:47:30Z</time></trkpt><trkpt lat="46.01057" lon="12.319141666666667"><ele>459.9</ele><time>2014-10-26T06:47:35Z</time></trkpt><trkpt lat="46.010595" lon="12.319175"><ele>461.1</ele><time>2014-10-26T06:47:42Z</time></trkpt><trkpt lat="46.010625" lon="12.319165"><ele>462.7</ele><time>2014-10-26T06:47:49Z</time></trkpt><trkpt lat="46.010665" lon="12.319271666666667"><ele>464.5</ele><time>2014-10-26T06:47:55Z</time></trkpt><trkpt lat="46.010705" lon="12.319366666666667"><ele>465.4</ele><time>2014-10-26T06:47:58Z</time></trkpt><trkpt lat="46.010756666666666" lon="12.319475"><ele>466.3</ele><time>2014-10-26T06:48:02Z</time></trkpt><trkpt lat="46.010796666666664" lon="12.319581666666666"><ele>467.4</ele><time>2014-10-26T06:48:06Z</time></trkpt><trkpt lat="46.01083" lon="12.319681666666666"><ele>468.3</ele><time>2014-10-26T06:48:10Z</time></trkpt><trkpt lat="46.01087" lon="12.319775"><ele>469.1</ele><time>2014-10-26T06:48:14Z</time></trkpt><trkpt lat="46.010925" lon="12.319843333333333"><ele>469.9</ele><time>2014-10-26T06:48:19Z</time></trkpt><trkpt lat="46.01094" lon="12.31995"><ele>471.5</ele><time>2014-10-26T06:48:26Z</time></trkpt><trkpt lat="46.010995" lon="12.320026666666667"><ele>473.2</ele><time>2014-10-26T06:48:33Z</time></trkpt><trkpt lat="46.011075" lon="12.32002"><ele>474.1</ele><time>2014-10-26T06:48:39Z</time></trkpt><trkpt lat="46.011155" lon="12.32005"><ele>475.2</ele><time>2014-10-26T06:48:46Z</time></trkpt><trkpt lat="46.01123" lon="12.320065"><ele>476.2</ele><time>2014-10-26T06:48:52Z</time></trkpt><trkpt lat="46.011305" lon="12.32008"><ele>476.7</ele><time>2014-10-26T06:48:56Z</time></trkpt><trkpt lat="46.01138" lon="12.32011"><ele>477.7</ele><time>2014-10-26T06:49:01Z</time></trkpt><trkpt lat="46.01142" lon="12.320175"><ele>477.8</ele><time>2014-10-26T06:49:08Z</time></trkpt><trkpt lat="46.011415" lon="12.320235"><ele>478.5</ele><time>2014-10-26T06:49:15Z</time></trkpt><trkpt lat="46.01139666666667" lon="12.320245"><ele>478.8</ele><time>2014-10-26T06:49:22Z</time></trkpt><trkpt lat="46.01139666666667" lon="12.320216666666667"><ele>478.8</ele><time>2014-10-26T06:49:29Z</time></trkpt><trkpt lat="46.01162" lon="12.31983"><ele>479.0</ele><time>2014-10-26T06:49:52Z</time></trkpt><trkpt lat="46.011695" lon="12.31983"><ele>479.2</ele><time>2014-10-26T06:49:53Z</time></trkpt><trkpt lat="46.01176" lon="12.319875"><ele>479.3</ele><time>2014-10-26T06:49:54Z</time></trkpt><trkpt lat="46.011845" lon="12.319956666666666"><ele>479.3</ele><time>2014-10-26T06:49:56Z</time></trkpt><trkpt lat="46.011865" lon="12.320066666666667"><ele>479.7</ele><time>2014-10-26T06:49:58Z</time></trkpt><trkpt lat="46.0119" lon="12.32019"><ele>480.3</ele><time>2014-10-26T06:50:00Z</time></trkpt><trkpt lat="46.011925" lon="12.32031"><ele>481.1</ele><time>2014-10-26T06:50:03Z</time></trkpt><trkpt lat="46.01195666666667" lon="12.32034"><ele>482.1</ele><time>2014-10-26T06:50:10Z</time></trkpt><trkpt lat="46.011955" lon="12.320225"><ele>484.0</ele><time>2014-10-26T06:50:17Z</time></trkpt><trkpt lat="46.011935" lon="12.320163333333333"><ele>484.5</ele><time>2014-10-26T06:50:24Z</time></trkpt><trkpt lat="46.01192" lon="12.320085"><ele>485.1</ele><time>2014-10-26T06:50:31Z</time></trkpt><trkpt lat="46.01191166666667" lon="12.32003"><ele>485.7</ele><time>2014-10-26T06:50:38Z</time></trkpt><trkpt lat="46.012011666666666" lon="12.319585"><ele>486.0</ele><time>2014-10-26T06:51:46Z</time></trkpt><trkpt lat="46.01206" lon="12.319463333333333"><ele>487.1</ele><time>2014-10-26T06:51:48Z</time></trkpt><trkpt lat="46.01210666666667" lon="12.319366666666667"><ele>488.6</ele><time>2014-10-26T06:51:51Z</time></trkpt><trkpt lat="46.01204666666667" lon="12.31941"><ele>490.2</ele><time>2014-10-26T06:51:58Z</time></trkpt><trkpt lat="46.012055" lon="12.319511666666667"><ele>492.1</ele><time>2014-10-26T06:52:03Z</time></trkpt><trkpt lat="46.012115" lon="12.31951"><ele>493.2</ele><time>2014-10-26T06:52:10Z</time></trkpt><trkpt lat="46.012166666666666" lon="12.319385"><ele>493.7</ele><time>2014-10-26T06:52:15Z</time></trkpt><trkpt lat="46.01218166666666" lon="12.319271666666667"><ele>494.1</ele><time>2014-10-26T06:52:18Z</time></trkpt><trkpt lat="46.01222" lon="12.31916"><ele>494.9</ele><time>2014-10-26T06:52:23Z</time></trkpt><trkpt lat="46.012238333333336" lon="12.319048333333333"><ele>496.1</ele><time>2014-10-26T06:52:27Z</time></trkpt><trkpt lat="46.012275" lon="12.318935"><ele>497.8</ele><time>2014-10-26T06:52:32Z</time></trkpt><trkpt lat="46.012323333333335" lon="12.318858333333333"><ele>498.8</ele><time>2014-10-26T06:52:36Z</time></trkpt><trkpt lat="46.012365" lon="12.318755"><ele>500.6</ele><time>2014-10-26T06:52:42Z</time></trkpt><trkpt lat="46.012345" lon="12.318655"><ele>502.4</ele><time>2014-10-26T06:52:49Z</time></trkpt><trkpt lat="46.01232666666667" lon="12.318565"><ele>504.2</ele><time>2014-10-26T06:52:55Z</time></trkpt><trkpt lat="46.012265" lon="12.318476666666667"><ele>506.4</ele><time>2014-10-26T06:53:01Z</time></trkpt><trkpt lat="46.012206666666664" lon="12.318405"><ele>509.5</ele><time>2014-10-26T06:53:08Z</time></trkpt><trkpt lat="46.012155" lon="12.318305"><ele>512.3</ele><time>2014-10-26T06:53:14Z</time></trkpt><trkpt lat="46.012135" lon="12.318205"><ele>513.8</ele><time>2014-10-26T06:53:18Z</time></trkpt><trkpt lat="46.01209" lon="12.31811"><ele>515.1</ele><time>2014-10-26T06:53:22Z</time></trkpt><trkpt lat="46.01207" lon="12.31801"><ele>516.0</ele><time>2014-10-26T06:53:25Z</time></trkpt><trkpt lat="46.012055" lon="12.317905"><ele>516.8</ele><time>2014-10-26T06:53:29Z</time></trkpt><trkpt lat="46.012075" lon="12.317805"><ele>517.4</ele><time>2014-10-26T06:53:32Z</time></trkpt><trkpt lat="46.01209" lon="12.3177"><ele>518.0</ele><time>2014-10-26T06:53:35Z</time></trkpt><trkpt lat="46.01213" lon="12.317605"><ele>518.4</ele><time>2014-10-26T06:53:39Z</time></trkpt><trkpt lat="46.01217166666667" lon="12.317493333333333"><ele>519.2</ele><time>2014-10-26T06:53:43Z</time></trkpt><trkpt lat="46.0122" lon="12.317375"><ele>520.0</ele><time>2014-10-26T06:53:47Z</time></trkpt><trkpt lat="46.012235" lon="12.317256666666667"><ele>520.5</ele><time>2014-10-26T06:53:51Z</time></trkpt><trkpt lat="46.012265" lon="12.31716"><ele>521.2</ele><time>2014-10-26T06:53:54Z</time></trkpt><trkpt lat="46.012265" lon="12.317036666666667"><ele>521.8</ele><time>2014-10-26T06:53:58Z</time></trkpt><trkpt lat="46.01229" lon="12.31693"><ele>522.4</ele><time>2014-10-26T06:54:03Z</time></trkpt><trkpt lat="46.012341666666664" lon="12.316856666666666"><ele>522.9</ele><time>2014-10-26T06:54:07Z</time></trkpt><trkpt lat="46.012391666666666" lon="12.31677"><ele>523.4</ele><time>2014-10-26T06:54:12Z</time></trkpt><trkpt lat="46.01244" lon="12.31667"><ele>523.5</ele><time>2014-10-26T06:54:16Z</time></trkpt><trkpt lat="46.012495" lon="12.316596666666667"><ele>523.6</ele><time>2014-10-26T06:54:20Z</time></trkpt><trkpt lat="46.01254" lon="12.316508333333333"><ele>524.0</ele><time>2014-10-26T06:54:26Z</time></trkpt><trkpt lat="46.012615" lon="12.31642"><ele>523.9</ele><time>2014-10-26T06:54:31Z</time></trkpt><trkpt lat="46.012675" lon="12.316331666666667"><ele>523.8</ele><time>2014-10-26T06:54:34Z</time></trkpt><trkpt lat="46.01274" lon="12.316230000000001"><ele>523.6</ele><time>2014-10-26T06:54:37Z</time></trkpt><trkpt lat="46.01278666666666" lon="12.316145"><ele>523.9</ele><time>2014-10-26T06:54:40Z</time></trkpt><trkpt lat="46.01283" lon="12.31605"><ele>524.3</ele><time>2014-10-26T06:54:44Z</time></trkpt><trkpt lat="46.01288" lon="12.315958333333333"><ele>524.7</ele><time>2014-10-26T06:54:49Z</time></trkpt><trkpt lat="46.01295" lon="12.31587"><ele>525.1</ele><time>2014-10-26T06:54:53Z</time></trkpt><trkpt lat="46.013195" lon="12.315465"><ele>525.9</ele><time>2014-10-26T06:55:15Z</time></trkpt><trkpt lat="46.01367" lon="12.315748333333334"><ele>526.0</ele><time>2014-10-26T06:55:30Z</time></trkpt><trkpt lat="46.01374" lon="12.3157"><ele>526.2</ele><time>2014-10-26T06:55:32Z</time></trkpt><trkpt lat="46.01381166666667" lon="12.315625"><ele>528.0</ele><time>2014-10-26T06:55:37Z</time></trkpt><trkpt lat="46.01387166666667" lon="12.31557"><ele>529.4</ele><time>2014-10-26T06:55:41Z</time></trkpt><trkpt lat="46.013935" lon="12.315483333333333"><ele>531.4</ele><time>2014-10-26T06:55:45Z</time></trkpt><trkpt lat="46.01399" lon="12.31541"><ele>532.8</ele><time>2014-10-26T06:55:48Z</time></trkpt><trkpt lat="46.014045" lon="12.315326666666667"><ele>534.7</ele><time>2014-10-26T06:55:52Z</time></trkpt><trkpt lat="46.014105" lon="12.315255"><ele>537.1</ele><time>2014-10-26T06:55:58Z</time></trkpt><trkpt lat="46.01414166666667" lon="12.315143333333333"><ele>539.2</ele><time>2014-10-26T06:56:04Z</time></trkpt><trkpt lat="46.014125" lon="12.31503"><ele>540.3</ele><time>2014-10-26T06:56:09Z</time></trkpt><trkpt lat="46.01411" lon="12.314925"><ele>541.5</ele><time>2014-10-26T06:56:16Z</time></trkpt><trkpt lat="46.014176666666664" lon="12.31489"><ele>542.2</ele><time>2014-10-26T06:56:23Z</time></trkpt><trkpt lat="46.014255" lon="12.314925"><ele>543.0</ele><time>2014-10-26T06:56:28Z</time></trkpt><trkpt lat="46.01433166666666" lon="12.31497"><ele>544.3</ele><time>2014-10-26T06:56:35Z</time></trkpt><trkpt lat="46.01439" lon="12.315031666666666"><ele>545.5</ele><time>2014-10-26T06:56:38Z</time></trkpt><trkpt lat="46.014475" lon="12.315076666666666"><ele>547.0</ele><time>2014-10-26T06:56:42Z</time></trkpt><trkpt lat="46.014545" lon="12.31511"><ele>548.3</ele><time>2014-10-26T06:56:47Z</time></trkpt><trkpt lat="46.01462" lon="12.31516"><ele>550.7</ele><time>2014-10-26T06:56:54Z</time></trkpt><trkpt lat="46.014685" lon="12.315225"><ele>552.5</ele><time>2014-10-26T06:57:00Z</time></trkpt><trkpt lat="46.014765" lon="12.31527"><ele>553.7</ele><time>2014-10-26T06:57:05Z</time></trkpt><trkpt lat="46.01484" lon="12.315333333333333"><ele>555.5</ele><time>2014-10-26T06:57:11Z</time></trkpt><trkpt lat="46.01493" lon="12.315365"><ele>556.6</ele><time>2014-10-26T06:57:15Z</time></trkpt><trkpt lat="46.015005" lon="12.315375"><ele>557.5</ele><time>2014-10-26T06:57:18Z</time></trkpt><trkpt lat="46.01509" lon="12.315405"><ele>558.4</ele><time>2014-10-26T06:57:22Z</time></trkpt><trkpt lat="46.015165" lon="12.31542"><ele>559.3</ele><time>2014-10-26T06:57:25Z</time></trkpt><trkpt lat="46.01524" lon="12.31542"><ele>560.1</ele><time>2014-10-26T06:57:28Z</time></trkpt><trkpt lat="46.015325" lon="12.315415"><ele>561.1</ele><time>2014-10-26T06:57:31Z</time></trkpt><trkpt lat="46.0154" lon="12.315435"><ele>561.8</ele><time>2014-10-26T06:57:34Z</time></trkpt><trkpt lat="46.01547" lon="12.315505"><ele>562.6</ele><time>2014-10-26T06:57:38Z</time></trkpt><trkpt lat="46.01553" lon="12.315565"><ele>563.1</ele><time>2014-10-26T06:57:41Z</time></trkpt><trkpt lat="46.01558166666667" lon="12.315645"><ele>563.3</ele><time>2014-10-26T06:57:44Z</time></trkpt><trkpt lat="46.015645" lon="12.315735"><ele>563.6</ele><time>2014-10-26T06:57:48Z</time></trkpt><trkpt lat="46.015715" lon="12.31582"><ele>564.0</ele><time>2014-10-26T06:57:52Z</time></trkpt><trkpt lat="46.01580166666667" lon="12.31587"><ele>564.3</ele><time>2014-10-26T06:57:55Z</time></trkpt><trkpt lat="46.01584" lon="12.31597"><ele>564.5</ele><time>2014-10-26T06:57:59Z</time></trkpt><trkpt lat="46.015861666666666" lon="12.315936666666667"><ele>565.1</ele><time>2014-10-26T06:58:06Z</time></trkpt><trkpt lat="46.01595" lon="12.315975"><ele>565.7</ele><time>2014-10-26T06:58:10Z</time></trkpt><trkpt lat="46.016015" lon="12.31607"><ele>566.0</ele><time>2014-10-26T06:58:14Z</time></trkpt><trkpt lat="46.01608" lon="12.31616"><ele>565.9</ele><time>2014-10-26T06:58:18Z</time></trkpt><trkpt lat="46.016146666666664" lon="12.31625"><ele>566.1</ele><time>2014-10-26T06:58:22Z</time></trkpt><trkpt lat="46.01618" lon="12.316378333333333"><ele>566.0</ele><time>2014-10-26T06:58:26Z</time></trkpt><trkpt lat="46.01618" lon="12.316485"><ele>565.8</ele><time>2014-10-26T06:58:29Z</time></trkpt><trkpt lat="46.016191666666664" lon="12.316603333333333"><ele>565.8</ele><time>2014-10-26T06:58:32Z</time></trkpt><trkpt lat="46.016191666666664" lon="12.316716666666666"><ele>565.9</ele><time>2014-10-26T06:58:35Z</time></trkpt><trkpt lat="46.01623" lon="12.316845"><ele>565.8</ele><time>2014-10-26T06:58:39Z</time></trkpt><trkpt lat="46.016315" lon="12.3169"><ele>565.5</ele><time>2014-10-26T06:58:42Z</time></trkpt><trkpt lat="46.01639" lon="12.316941666666667"><ele>565.4</ele><time>2014-10-26T06:58:45Z</time></trkpt><trkpt lat="46.016455" lon="12.316985"><ele>565.3</ele><time>2014-10-26T06:58:48Z</time></trkpt><trkpt lat="46.016545" lon="12.317005"><ele>564.9</ele><time>2014-10-26T06:58:51Z</time></trkpt><trkpt lat="46.016641666666665" lon="12.317"><ele>564.8</ele><time>2014-10-26T06:58:54Z</time></trkpt><trkpt lat="46.01672" lon="12.31699"><ele>564.7</ele><time>2014-10-26T06:58:57Z</time></trkpt><trkpt lat="46.01679" lon="12.317016666666667"><ele>564.2</ele><time>2014-10-26T06:59:03Z</time></trkpt><trkpt lat="46.016868333333335" lon="12.31699"><ele>564.3</ele><time>2014-10-26T06:59:10Z</time></trkpt><trkpt lat="46.01696" lon="12.317006666666666"><ele>564.8</ele><time>2014-10-26T06:59:14Z</time></trkpt><trkpt lat="46.01705" lon="12.317005"><ele>565.3</ele><time>2014-10-26T06:59:18Z</time></trkpt><trkpt lat="46.01712" lon="12.31699"><ele>565.5</ele><time>2014-10-26T06:59:22Z</time></trkpt><trkpt lat="46.017195" lon="12.31696"><ele>565.6</ele><time>2014-10-26T06:59:27Z</time></trkpt><trkpt lat="46.01728" lon="12.316945"><ele>566.0</ele><time>2014-10-26T06:59:32Z</time></trkpt><trkpt lat="46.01736" lon="12.316921666666667"><ele>566.2</ele><time>2014-10-26T06:59:37Z</time></trkpt><trkpt lat="46.017445" lon="12.316885"><ele>566.4</ele><time>2014-10-26T06:59:41Z</time></trkpt><trkpt lat="46.01752" lon="12.316865"><ele>567.1</ele><time>2014-10-26T06:59:45Z</time></trkpt><trkpt lat="46.01761" lon="12.316851666666667"><ele>567.5</ele><time>2014-10-26T06:59:49Z</time></trkpt><trkpt lat="46.017695" lon="12.31686"><ele>568.3</ele><time>2014-10-26T06:59:54Z</time></trkpt><trkpt lat="46.01777666666667" lon="12.31688"><ele>569.1</ele><time>2014-10-26T06:59:58Z</time></trkpt><trkpt lat="46.017865" lon="12.31693"><ele>569.8</ele><time>2014-10-26T07:00:02Z</time></trkpt><trkpt lat="46.017935" lon="12.316983333333333"><ele>570.1</ele><time>2014-10-26T07:00:05Z</time></trkpt><trkpt lat="46.01802" lon="12.317038333333333"><ele>570.2</ele><time>2014-10-26T07:00:09Z</time></trkpt><trkpt lat="46.018085" lon="12.317145"><ele>570.5</ele><time>2014-10-26T07:00:13Z</time></trkpt><trkpt lat="46.01815" lon="12.31722"><ele>571.5</ele><time>2014-10-26T07:00:17Z</time></trkpt><trkpt lat="46.018215" lon="12.317296666666667"><ele>572.4</ele><time>2014-10-26T07:00:22Z</time></trkpt><trkpt lat="46.01829" lon="12.317351666666667"><ele>572.9</ele><time>2014-10-26T07:00:27Z</time></trkpt><trkpt lat="46.018355" lon="12.317405"><ele>573.5</ele><time>2014-10-26T07:00:32Z</time></trkpt><trkpt lat="46.018405" lon="12.31748"><ele>573.9</ele><time>2014-10-26T07:00:37Z</time></trkpt><trkpt lat="46.018526666666666" lon="12.317551666666667"><ele>573.9</ele><time>2014-10-26T07:00:57Z</time></trkpt><trkpt lat="46.018525" lon="12.317515"><ele>573.6</ele><time>2014-10-26T07:01:04Z</time></trkpt><trkpt lat="46.018585" lon="12.317605"><ele>572.8</ele><time>2014-10-26T07:01:08Z</time></trkpt><trkpt lat="46.01864" lon="12.3177"><ele>571.3</ele><time>2014-10-26T07:01:14Z</time></trkpt><trkpt lat="46.01870666666667" lon="12.317765"><ele>570.9</ele><time>2014-10-26T07:01:18Z</time></trkpt><trkpt lat="46.01875" lon="12.317866666666667"><ele>571.1</ele><time>2014-10-26T07:01:22Z</time></trkpt><trkpt lat="46.01876" lon="12.31798"><ele>571.2</ele><time>2014-10-26T07:01:26Z</time></trkpt><trkpt lat="46.01879" lon="12.318085"><ele>571.1</ele><time>2014-10-26T07:01:32Z</time></trkpt><trkpt lat="46.01880666666667" lon="12.318193333333333"><ele>571.1</ele><time>2014-10-26T07:01:37Z</time></trkpt><trkpt lat="46.018965" lon="12.31934"><ele>563.8</ele><time>2014-10-26T07:02:40Z</time></trkpt><trkpt lat="46.018921666666664" lon="12.31944"><ele>563.7</ele><time>2014-10-26T07:02:42Z</time></trkpt><trkpt lat="46.01885166666667" lon="12.31951"><ele>563.9</ele><time>2014-10-26T07:02:45Z</time></trkpt><trkpt lat="46.01882" lon="12.319615"><ele>564.4</ele><time>2014-10-26T07:02:48Z</time></trkpt><trkpt lat="46.018805" lon="12.319725"><ele>564.9</ele><time>2014-10-26T07:02:51Z</time></trkpt><trkpt lat="46.018785" lon="12.319836666666667"><ele>565.6</ele><time>2014-10-26T07:02:54Z</time></trkpt><trkpt lat="46.01876166666667" lon="12.31995"><ele>565.5</ele><time>2014-10-26T07:02:57Z</time></trkpt><trkpt lat="46.018725" lon="12.320055"><ele>565.5</ele><time>2014-10-26T07:03:00Z</time></trkpt><trkpt lat="46.01874" lon="12.320185"><ele>565.8</ele><time>2014-10-26T07:03:04Z</time></trkpt><trkpt lat="46.018785" lon="12.3203"><ele>565.7</ele><time>2014-10-26T07:03:08Z</time></trkpt><trkpt lat="46.01885" lon="12.320375"><ele>565.8</ele><time>2014-10-26T07:03:13Z</time></trkpt><trkpt lat="46.01892333333333" lon="12.3204"><ele>566.9</ele><time>2014-10-26T07:03:18Z</time></trkpt><trkpt lat="46.019" lon="12.320445"><ele>567.8</ele><time>2014-10-26T07:03:22Z</time></trkpt><trkpt lat="46.019085" lon="12.320491666666667"><ele>568.6</ele><time>2014-10-26T07:03:26Z</time></trkpt><trkpt lat="46.019155" lon="12.320575"><ele>569.1</ele><time>2014-10-26T07:03:29Z</time></trkpt><trkpt lat="46.01921" lon="12.32067"><ele>569.8</ele><time>2014-10-26T07:03:33Z</time></trkpt><trkpt lat="46.01927" lon="12.32076"><ele>569.7</ele><time>2014-10-26T07:03:37Z</time></trkpt><trkpt lat="46.019345" lon="12.320845"><ele>569.9</ele><time>2014-10-26T07:03:41Z</time></trkpt><trkpt lat="46.01941" lon="12.320911666666667"><ele>570.5</ele><time>2014-10-26T07:03:46Z</time></trkpt><trkpt lat="46.01948" lon="12.320971666666667"><ele>571.1</ele><time>2014-10-26T07:03:49Z</time></trkpt><trkpt lat="46.01955" lon="12.321035"><ele>571.9</ele><time>2014-10-26T07:03:54Z</time></trkpt><trkpt lat="46.01961333333333" lon="12.3211"><ele>572.4</ele><time>2014-10-26T07:03:57Z</time></trkpt><trkpt lat="46.019685" lon="12.321186666666666"><ele>573.1</ele><time>2014-10-26T07:04:03Z</time></trkpt><trkpt lat="46.0199" lon="12.321795"><ele>573.3</ele><time>2014-10-26T07:04:44Z</time></trkpt><trkpt lat="46.019978333333334" lon="12.321875"><ele>573.3</ele><time>2014-10-26T07:04:47Z</time></trkpt><trkpt lat="46.020035" lon="12.32198"><ele>573.3</ele><time>2014-10-26T07:04:50Z</time></trkpt><trkpt lat="46.020095" lon="12.3221"><ele>573.4</ele><time>2014-10-26T07:04:53Z</time></trkpt><trkpt lat="46.02014166666667" lon="12.322189999999999"><ele>573.4</ele><time>2014-10-26T07:04:55Z</time></trkpt><trkpt lat="46.02019166666667" lon="12.322265"><ele>573.3</ele><time>2014-10-26T07:04:57Z</time></trkpt><trkpt lat="46.02027" lon="12.32234"><ele>573.3</ele><time>2014-10-26T07:05:00Z</time></trkpt><trkpt lat="46.020345" lon="12.322406666666666"><ele>572.9</ele><time>2014-10-26T07:05:04Z</time></trkpt><trkpt lat="46.020271666666666" lon="12.322375"><ele>572.2</ele><time>2014-10-26T07:05:09Z</time></trkpt><trkpt lat="46.02024" lon="12.32248"><ele>571.9</ele><time>2014-10-26T07:05:13Z</time></trkpt><trkpt lat="46.02028" lon="12.322575"><ele>572.1</ele><time>2014-10-26T07:05:18Z</time></trkpt><trkpt lat="46.02034666666667" lon="12.322606666666667"><ele>573.4</ele><time>2014-10-26T07:05:23Z</time></trkpt><trkpt lat="46.02042" lon="12.32265"><ele>574.9</ele><time>2014-10-26T07:05:27Z</time></trkpt><trkpt lat="46.02047666666667" lon="12.32273"><ele>576.6</ele><time>2014-10-26T07:05:32Z</time></trkpt><trkpt lat="46.02054666666667" lon="12.322785"><ele>578.2</ele><time>2014-10-26T07:05:37Z</time></trkpt><trkpt lat="46.020615" lon="12.322865"><ele>579.9</ele><time>2014-10-26T07:05:42Z</time></trkpt><trkpt lat="46.020646666666664" lon="12.322975"><ele>581.2</ele><time>2014-10-26T07:05:47Z</time></trkpt><trkpt lat="46.02065" lon="12.323081666666667"><ele>582.0</ele><time>2014-10-26T07:05:51Z</time></trkpt><trkpt lat="46.020653333333335" lon="12.323191666666666"><ele>582.6</ele><time>2014-10-26T07:05:56Z</time></trkpt><trkpt lat="46.020715" lon="12.323265"><ele>582.8</ele><time>2014-10-26T07:06:01Z</time></trkpt><trkpt lat="46.020755" lon="12.323325"><ele>582.6</ele><time>2014-10-26T07:06:08Z</time></trkpt><trkpt lat="46.020785" lon="12.323351666666667"><ele>582.6</ele><time>2014-10-26T07:06:15Z</time></trkpt><trkpt lat="46.02079" lon="12.323375"><ele>582.6</ele><time>2014-10-26T07:06:22Z</time></trkpt><trkpt lat="46.020786666666666" lon="12.323375"><ele>582.6</ele><time>2014-10-26T07:06:23Z</time></trkpt><trkpt lat="46.020765" lon="12.32334"><ele>582.5</ele><time>2014-10-26T07:06:34Z</time></trkpt><trkpt lat="46.020745" lon="12.323311666666667"><ele>582.5</ele><time>2014-10-26T07:06:41Z</time></trkpt><trkpt lat="46.020736666666664" lon="12.323315000000001"><ele>582.5</ele><time>2014-10-26T07:06:45Z</time></trkpt><trkpt lat="46.020736666666664" lon="12.323345"><ele>582.6</ele><time>2014-10-26T07:06:54Z</time></trkpt><trkpt lat="46.020736666666664" lon="12.323346666666666"><ele>582.6</ele><time>2014-10-26T07:06:55Z</time></trkpt><trkpt lat="46.020761666666665" lon="12.32337"><ele>582.8</ele><time>2014-10-26T07:07:10Z</time></trkpt><trkpt lat="46.020765" lon="12.32337"><ele>582.8</ele><time>2014-10-26T07:07:11Z</time></trkpt><trkpt lat="46.020785" lon="12.323385"><ele>583.1</ele><time>2014-10-26T07:07:20Z</time></trkpt><trkpt lat="46.020785" lon="12.323385"><ele>583.1</ele><time>2014-10-26T07:07:21Z</time></trkpt><trkpt lat="46.02078" lon="12.32336"><ele>583.3</ele><time>2014-10-26T07:07:35Z</time></trkpt><trkpt lat="46.020775" lon="12.323355"><ele>583.3</ele><time>2014-10-26T07:07:36Z</time></trkpt><trkpt lat="46.02077" lon="12.323326666666667"><ele>583.4</ele><time>2014-10-26T07:07:44Z</time></trkpt><trkpt lat="46.02077" lon="12.323326666666667"><ele>583.4</ele><time>2014-10-26T07:07:45Z</time></trkpt><trkpt lat="46.02077" lon="12.3233"><ele>583.5</ele><time>2014-10-26T07:07:58Z</time></trkpt><trkpt lat="46.020765" lon="12.323275"><ele>583.6</ele><time>2014-10-26T07:08:05Z</time></trkpt><trkpt lat="46.020765" lon="12.323275"><ele>583.6</ele><time>2014-10-26T07:08:06Z</time></trkpt><trkpt lat="46.020786666666666" lon="12.323295"><ele>583.8</ele><time>2014-10-26T07:08:19Z</time></trkpt><trkpt lat="46.02082" lon="12.323321666666667"><ele>583.7</ele><time>2014-10-26T07:08:26Z</time></trkpt><trkpt lat="46.02082333333333" lon="12.323336666666666"><ele>583.7</ele><time>2014-10-26T07:08:30Z</time></trkpt><trkpt lat="46.02082" lon="12.32335"><ele>583.5</ele><time>2014-10-26T07:08:38Z</time></trkpt><trkpt lat="46.020815" lon="12.32335"><ele>583.5</ele><time>2014-10-26T07:08:39Z</time></trkpt><trkpt lat="46.020801666666664" lon="12.323295"><ele>583.3</ele><time>2014-10-26T07:08:47Z</time></trkpt><trkpt lat="46.020785" lon="12.323205"><ele>583.1</ele><time>2014-10-26T07:08:54Z</time></trkpt><trkpt lat="46.02075" lon="12.323115"><ele>582.9</ele><time>2014-10-26T07:09:01Z</time></trkpt><trkpt lat="46.02073" lon="12.32302"><ele>582.7</ele><time>2014-10-26T07:09:08Z</time></trkpt><trkpt lat="46.020705" lon="12.322915"><ele>582.4</ele><time>2014-10-26T07:09:15Z</time></trkpt><trkpt lat="46.020671666666665" lon="12.322785"><ele>582.1</ele><time>2014-10-26T07:09:18Z</time></trkpt><trkpt lat="46.020645" lon="12.322675"><ele>581.9</ele><time>2014-10-26T07:09:21Z</time></trkpt><trkpt lat="46.020615" lon="12.32256"><ele>581.4</ele><time>2014-10-26T07:09:24Z</time></trkpt><trkpt lat="46.02059" lon="12.322445"><ele>580.8</ele><time>2014-10-26T07:09:27Z</time></trkpt><trkpt lat="46.020561666666666" lon="12.322323333333333"><ele>580.3</ele><time>2014-10-26T07:09:31Z</time></trkpt><trkpt lat="46.02054" lon="12.32222"><ele>580.0</ele><time>2014-10-26T07:09:35Z</time></trkpt><trkpt lat="46.02052" lon="12.32212"><ele>579.9</ele><time>2014-10-26T07:09:39Z</time></trkpt><trkpt lat="46.020498333333336" lon="12.322"><ele>579.7</ele><time>2014-10-26T07:09:44Z</time></trkpt><trkpt lat="46.02121" lon="12.3227"><ele>626.0</ele><time>2014-10-26T07:11:37Z</time></trkpt><trkpt lat="46.02125" lon="12.322795"><ele>626.0</ele><time>2014-10-26T07:11:43Z</time></trkpt><trkpt lat="46.021285" lon="12.322885"><ele>627.0</ele><time>2014-10-26T07:11:48Z</time></trkpt><trkpt lat="46.02133" lon="12.322945"><ele>627.5</ele><time>2014-10-26T07:11:55Z</time></trkpt><trkpt lat="46.021375" lon="12.323015"><ele>628.2</ele><time>2014-10-26T07:12:02Z</time></trkpt><trkpt lat="46.02142" lon="12.323105"><ele>628.4</ele><time>2014-10-26T07:12:08Z</time></trkpt><trkpt lat="46.021445" lon="12.323205"><ele>628.2</ele><time>2014-10-26T07:12:13Z</time></trkpt><trkpt lat="46.021456666666666" lon="12.323308333333333"><ele>627.8</ele><time>2014-10-26T07:12:19Z</time></trkpt><trkpt lat="46.021483333333336" lon="12.3233"><ele>627.6</ele><time>2014-10-26T07:12:26Z</time></trkpt><trkpt lat="46.02149166666667" lon="12.32326"><ele>627.8</ele><time>2014-10-26T07:12:33Z</time></trkpt><trkpt lat="46.02151" lon="12.323165"><ele>627.9</ele><time>2014-10-26T07:12:40Z</time></trkpt><trkpt lat="46.02151" lon="12.323075"><ele>628.5</ele><time>2014-10-26T07:12:47Z</time></trkpt><trkpt lat="46.02153" lon="12.32303"><ele>629.5</ele><time>2014-10-26T07:12:54Z</time></trkpt><trkpt lat="46.02155166666667" lon="12.322985"><ele>629.9</ele><time>2014-10-26T07:13:01Z</time></trkpt><trkpt lat="46.021575" lon="12.32288"><ele>630.7</ele><time>2014-10-26T07:13:08Z</time></trkpt><trkpt lat="46.021546666666666" lon="12.322815"><ele>632.1</ele><time>2014-10-26T07:13:15Z</time></trkpt><trkpt lat="46.02152" lon="12.322765"><ele>634.5</ele><time>2014-10-26T07:13:22Z</time></trkpt><trkpt lat="46.02151" lon="12.322703333333333"><ele>636.4</ele><time>2014-10-26T07:13:29Z</time></trkpt><trkpt lat="46.02152" lon="12.32264"><ele>638.2</ele><time>2014-10-26T07:13:36Z</time></trkpt><trkpt lat="46.02154" lon="12.322571666666667"><ele>640.3</ele><time>2014-10-26T07:13:43Z</time></trkpt><trkpt lat="46.021545" lon="12.3225"><ele>642.3</ele><time>2014-10-26T07:13:50Z</time></trkpt><trkpt lat="46.02156166666666" lon="12.322426666666667"><ele>643.2</ele><time>2014-10-26T07:13:57Z</time></trkpt><trkpt lat="46.02157166666667" lon="12.32234"><ele>644.1</ele><time>2014-10-26T07:14:04Z</time></trkpt><trkpt lat="46.021565" lon="12.32226"><ele>645.0</ele><time>2014-10-26T07:14:11Z</time></trkpt><trkpt lat="46.021495" lon="12.322228333333333"><ele>646.6</ele><time>2014-10-26T07:14:16Z</time></trkpt><trkpt lat="46.021455" lon="12.32214"><ele>648.4</ele><time>2014-10-26T07:14:23Z</time></trkpt><trkpt lat="46.02145" lon="12.322046666666667"><ele>650.0</ele><time>2014-10-26T07:14:30Z</time></trkpt><trkpt lat="46.02144" lon="12.32199"><ele>652.6</ele><time>2014-10-26T07:14:37Z</time></trkpt><trkpt lat="46.02145" lon="12.321935"><ele>653.8</ele><time>2014-10-26T07:14:44Z</time></trkpt><trkpt lat="46.021456666666666" lon="12.321876666666666"><ele>656.8</ele><time>2014-10-26T07:14:51Z</time></trkpt><trkpt lat="46.021455" lon="12.321846666666668"><ele>657.1</ele><time>2014-10-26T07:14:58Z</time></trkpt><trkpt lat="46.021456666666666" lon="12.32177"><ele>658.3</ele><time>2014-10-26T07:15:06Z</time></trkpt><trkpt lat="46.021476666666665" lon="12.321658333333334"><ele>660.2</ele><time>2014-10-26T07:15:13Z</time></trkpt><trkpt lat="46.021455" lon="12.321621666666667"><ele>661.6</ele><time>2014-10-26T07:15:20Z</time></trkpt><trkpt lat="46.02146" lon="12.32155"><ele>663.5</ele><time>2014-10-26T07:15:27Z</time></trkpt><trkpt lat="46.021455" lon="12.32151"><ele>665.9</ele><time>2014-10-26T07:15:34Z</time></trkpt><trkpt lat="46.02153" lon="12.321526666666667"><ele>667.7</ele><time>2014-10-26T07:15:40Z</time></trkpt><trkpt lat="46.02161" lon="12.321565"><ele>670.0</ele><time>2014-10-26T07:15:45Z</time></trkpt><trkpt lat="46.02166" lon="12.321595"><ele>672.0</ele><time>2014-10-26T07:15:52Z</time></trkpt><trkpt lat="46.021355" lon="12.320625"><ele>698.3</ele><time>2014-10-26T07:18:09Z</time></trkpt><trkpt lat="46.02189666666666" lon="12.319285"><ele>748.3</ele><time>2014-10-26T07:21:18Z</time></trkpt><trkpt lat="46.021863333333336" lon="12.319375"><ele>748.3</ele><time>2014-10-26T07:21:25Z</time></trkpt><trkpt lat="46.02843" lon="12.32608"><ele>740.2</ele><time>2014-10-26T07:30:33Z</time></trkpt><trkpt lat="46.028385" lon="12.326215"><ele>740.1</ele><time>2014-10-26T07:30:35Z</time></trkpt><trkpt lat="46.028371666666665" lon="12.326345"><ele>739.9</ele><time>2014-10-26T07:30:37Z</time></trkpt><trkpt lat="46.02841" lon="12.326586666666667"><ele>739.8</ele><time>2014-10-26T07:30:43Z</time></trkpt><trkpt lat="46.028425" lon="12.3267"><ele>739.4</ele><time>2014-10-26T07:30:46Z</time></trkpt><trkpt lat="46.028416666666665" lon="12.326846666666667"><ele>738.7</ele><time>2014-10-26T07:30:49Z</time></trkpt><trkpt lat="46.028395" lon="12.326986666666667"><ele>737.9</ele><time>2014-10-26T07:30:52Z</time></trkpt><trkpt lat="46.028441666666666" lon="12.327069999999999"><ele>736.9</ele><time>2014-10-26T07:30:57Z</time></trkpt><trkpt lat="46.02849" lon="12.327176666666666"><ele>736.4</ele><time>2014-10-26T07:31:02Z</time></trkpt><trkpt lat="46.02851" lon="12.327305"><ele>736.4</ele><time>2014-10-26T07:31:05Z</time></trkpt><trkpt lat="46.02853666666667" lon="12.327438333333333"><ele>736.1</ele><time>2014-10-26T07:31:09Z</time></trkpt><trkpt lat="46.02857" lon="12.327556666666666"><ele>735.8</ele><time>2014-10-26T07:31:13Z</time></trkpt><trkpt lat="46.02859" lon="12.327675"><ele>735.4</ele><time>2014-10-26T07:31:17Z</time></trkpt><trkpt lat="46.028595" lon="12.327781666666667"><ele>733.3</ele><time>2014-10-26T07:31:24Z</time></trkpt><trkpt lat="46.02854" lon="12.327865"><ele>731.5</ele><time>2014-10-26T07:31:29Z</time></trkpt><trkpt lat="46.02849" lon="12.327946666666667"><ele>730.1</ele><time>2014-10-26T07:31:34Z</time></trkpt><trkpt lat="46.028785" lon="12.329625"><ele>694.3</ele><time>2014-10-26T07:34:28Z</time></trkpt><trkpt lat="46.028308333333335" lon="12.333175"><ele>653.8</ele><time>2014-10-26T07:36:02Z</time></trkpt><trkpt lat="46.028265" lon="12.333295"><ele>653.8</ele><time>2014-10-26T07:36:05Z</time></trkpt><trkpt lat="46.028235" lon="12.3334"><ele>653.8</ele><time>2014-10-26T07:36:10Z</time></trkpt><trkpt lat="46.028135" lon="12.334615"><ele>639.0</ele><time>2014-10-26T07:36:48Z</time></trkpt><trkpt lat="46.02813" lon="12.334761666666667"><ele>638.8</ele><time>2014-10-26T07:36:51Z</time></trkpt><trkpt lat="46.02813" lon="12.334901666666667"><ele>638.4</ele><time>2014-10-26T07:36:54Z</time></trkpt><trkpt lat="46.02812" lon="12.33505"><ele>637.9</ele><time>2014-10-26T07:36:57Z</time></trkpt><trkpt lat="46.02811" lon="12.3352"><ele>637.2</ele><time>2014-10-26T07:37:00Z</time></trkpt><trkpt lat="46.02771" lon="12.33798"><ele>613.0</ele><time>2014-10-26T07:38:58Z</time></trkpt><trkpt lat="46.027715" lon="12.338035"><ele>612.7</ele><time>2014-10-26T07:39:07Z</time></trkpt><trkpt lat="46.027675" lon="12.33815"><ele>613.3</ele><time>2014-10-26T07:39:12Z</time></trkpt><trkpt lat="46.02761666666667" lon="12.33824"><ele>614.5</ele><time>2014-10-26T07:39:16Z</time></trkpt><trkpt lat="46.02756" lon="12.338376666666667"><ele>615.4</ele><time>2014-10-26T07:39:20Z</time></trkpt><trkpt lat="46.027525" lon="12.338476666666667"><ele>616.4</ele><time>2014-10-26T07:39:24Z</time></trkpt><trkpt lat="46.02747" lon="12.338556666666667"><ele>617.0</ele><time>2014-10-26T07:39:27Z</time></trkpt><trkpt lat="46.02743" lon="12.33865"><ele>617.4</ele><time>2014-10-26T07:39:31Z</time></trkpt><trkpt lat="46.02737" lon="12.338745"><ele>617.8</ele><time>2014-10-26T07:39:36Z</time></trkpt><trkpt lat="46.027315" lon="12.338825"><ele>618.1</ele><time>2014-10-26T07:39:40Z</time></trkpt><trkpt lat="46.02726" lon="12.33891"><ele>618.8</ele><time>2014-10-26T07:39:45Z</time></trkpt><trkpt lat="46.027186666666665" lon="12.33893"><ele>620.2</ele><time>2014-10-26T07:39:50Z</time></trkpt><trkpt lat="46.027136666666664" lon="12.33902"><ele>621.5</ele><time>2014-10-26T07:39:56Z</time></trkpt><trkpt lat="46.027165" lon="12.339125"><ele>622.4</ele><time>2014-10-26T07:40:00Z</time></trkpt><trkpt lat="46.027145" lon="12.33923"><ele>623.4</ele><time>2014-10-26T07:40:06Z</time></trkpt><trkpt lat="46.027145" lon="12.339335"><ele>624.9</ele><time>2014-10-26T07:40:10Z</time></trkpt><trkpt lat="46.02718" lon="12.339435"><ele>627.3</ele><time>2014-10-26T07:40:17Z</time></trkpt><trkpt lat="46.02725" lon="12.339466666666667"><ele>628.8</ele><time>2014-10-26T07:40:23Z</time></trkpt><trkpt lat="46.02732" lon="12.33946"><ele>630.6</ele><time>2014-10-26T07:40:30Z</time></trkpt><trkpt lat="46.02739166666667" lon="12.3395"><ele>631.8</ele><time>2014-10-26T07:40:36Z</time></trkpt><trkpt lat="46.02747" lon="12.339565"><ele>632.8</ele><time>2014-10-26T07:40:41Z</time></trkpt><trkpt lat="46.02749" lon="12.339681666666667"><ele>633.9</ele><time>2014-10-26T07:40:47Z</time></trkpt><trkpt lat="46.02746" lon="12.339786666666667"><ele>635.1</ele><time>2014-10-26T07:40:52Z</time></trkpt><trkpt lat="46.02741666666667" lon="12.339895"><ele>636.3</ele><time>2014-10-26T07:40:56Z</time></trkpt><trkpt lat="46.02735" lon="12.339958333333334"><ele>637.3</ele><time>2014-10-26T07:41:01Z</time></trkpt><trkpt lat="46.027265" lon="12.339995"><ele>639.1</ele><time>2014-10-26T07:41:06Z</time></trkpt><trkpt lat="46.02719" lon="12.340045"><ele>641.3</ele><time>2014-10-26T07:41:12Z</time></trkpt><trkpt lat="46.02711166666667" lon="12.340056666666667"><ele>642.9</ele><time>2014-10-26T07:41:17Z</time></trkpt><trkpt lat="46.02705" lon="12.34012"><ele>644.5</ele><time>2014-10-26T07:41:22Z</time></trkpt><trkpt lat="46.02698" lon="12.340160000000001"><ele>647.6</ele><time>2014-10-26T07:41:29Z</time></trkpt><trkpt lat="46.02692" lon="12.340235"><ele>649.3</ele><time>2014-10-26T07:41:34Z</time></trkpt><trkpt lat="46.026845" lon="12.34027"><ele>650.9</ele><time>2014-10-26T07:41:39Z</time></trkpt><trkpt lat="46.026805" lon="12.34037"><ele>653.1</ele><time>2014-10-26T07:41:46Z</time></trkpt><trkpt lat="46.026801666666664" lon="12.340491666666667"><ele>655.7</ele><time>2014-10-26T07:41:53Z</time></trkpt><trkpt lat="46.026786666666666" lon="12.34061"><ele>657.4</ele><time>2014-10-26T07:41:59Z</time></trkpt><trkpt lat="46.026785" lon="12.340715"><ele>658.5</ele><time>2014-10-26T07:42:06Z</time></trkpt><trkpt lat="46.02673" lon="12.340786666666666"><ele>660.3</ele><time>2014-10-26T07:42:12Z</time></trkpt><trkpt lat="46.02665666666667" lon="12.34083"><ele>661.7</ele><time>2014-10-26T07:42:17Z</time></trkpt><trkpt lat="46.02657166666667" lon="12.34088"><ele>663.1</ele><time>2014-10-26T07:42:22Z</time></trkpt><trkpt lat="46.026493333333335" lon="12.34094"><ele>664.9</ele><time>2014-10-26T07:42:27Z</time></trkpt><trkpt lat="46.026435" lon="12.341015"><ele>665.9</ele><time>2014-10-26T07:42:32Z</time></trkpt><trkpt lat="46.026375" lon="12.341105"><ele>666.8</ele><time>2014-10-26T07:42:37Z</time></trkpt><trkpt lat="46.02633" lon="12.341186666666667"><ele>667.1</ele><time>2014-10-26T07:42:42Z</time></trkpt><trkpt lat="46.026275" lon="12.341256666666666"><ele>668.0</ele><time>2014-10-26T07:42:47Z</time></trkpt><trkpt lat="46.026226666666666" lon="12.34136"><ele>669.0</ele><time>2014-10-26T07:42:53Z</time></trkpt><trkpt lat="46.026175" lon="12.341445"><ele>670.8</ele><time>2014-10-26T07:42:59Z</time></trkpt><trkpt lat="46.026155" lon="12.341555"><ele>672.4</ele><time>2014-10-26T07:43:05Z</time></trkpt><trkpt lat="46.026111666666665" lon="12.341663333333333"><ele>673.9</ele><time>2014-10-26T07:43:10Z</time></trkpt><trkpt lat="46.02607166666667" lon="12.341758333333333"><ele>675.1</ele><time>2014-10-26T07:43:16Z</time></trkpt><trkpt lat="46.02602" lon="12.341856666666667"><ele>676.0</ele><time>2014-10-26T07:43:21Z</time></trkpt><trkpt lat="46.02595" lon="12.34192"><ele>677.4</ele><time>2014-10-26T07:43:26Z</time></trkpt><trkpt lat="46.0259" lon="12.342005"><ele>678.9</ele><time>2014-10-26T07:43:31Z</time></trkpt><trkpt lat="46.025835" lon="12.34208"><ele>680.6</ele><time>2014-10-26T07:43:36Z</time></trkpt><trkpt lat="46.0258" lon="12.34219"><ele>682.6</ele><time>2014-10-26T07:43:41Z</time></trkpt><trkpt lat="46.02577" lon="12.342285"><ele>683.7</ele><time>2014-10-26T07:43:45Z</time></trkpt><trkpt lat="46.02574833333333" lon="12.342385"><ele>684.7</ele><time>2014-10-26T07:43:49Z</time></trkpt><trkpt lat="46.025705" lon="12.34249"><ele>685.8</ele><time>2014-10-26T07:43:53Z</time></trkpt><trkpt lat="46.025661666666664" lon="12.342591666666667"><ele>686.7</ele><time>2014-10-26T07:43:58Z</time></trkpt><trkpt lat="46.025596666666665" lon="12.34268"><ele>687.7</ele><time>2014-10-26T07:44:02Z</time></trkpt><trkpt lat="46.025526666666664" lon="12.342765"><ele>688.5</ele><time>2014-10-26T07:44:06Z</time></trkpt><trkpt lat="46.025485" lon="12.34285"><ele>688.9</ele><time>2014-10-26T07:44:09Z</time></trkpt><trkpt lat="46.02543333333333" lon="12.342945"><ele>689.5</ele><time>2014-10-26T07:44:14Z</time></trkpt><trkpt lat="46.02539" lon="12.343035"><ele>690.5</ele><time>2014-10-26T07:44:19Z</time></trkpt><trkpt lat="46.025395" lon="12.343161666666667"><ele>691.3</ele><time>2014-10-26T07:44:23Z</time></trkpt><trkpt lat="46.025371666666665" lon="12.343276666666666"><ele>692.3</ele><time>2014-10-26T07:44:29Z</time></trkpt><trkpt lat="46.025455" lon="12.343325"><ele>692.6</ele><time>2014-10-26T07:44:35Z</time></trkpt><trkpt lat="46.025515" lon="12.343355"><ele>693.1</ele><time>2014-10-26T07:44:42Z</time></trkpt><trkpt lat="46.02559" lon="12.34337"><ele>693.1</ele><time>2014-10-26T07:44:47Z</time></trkpt><trkpt lat="46.025663333333334" lon="12.343361666666667"><ele>692.8</ele><time>2014-10-26T07:44:52Z</time></trkpt><trkpt lat="46.025745" lon="12.34337"><ele>693.0</ele><time>2014-10-26T07:44:56Z</time></trkpt><trkpt lat="46.02581333333333" lon="12.3434"><ele>693.4</ele><time>2014-10-26T07:45:02Z</time></trkpt><trkpt lat="46.025875" lon="12.343445"><ele>694.2</ele><time>2014-10-26T07:45:09Z</time></trkpt><trkpt lat="46.0259" lon="12.343491666666667"><ele>695.0</ele><time>2014-10-26T07:45:16Z</time></trkpt><trkpt lat="46.02588" lon="12.343543333333333"><ele>695.4</ele><time>2014-10-26T07:45:23Z</time></trkpt><trkpt lat="46.02599166666667" lon="12.344316666666666"><ele>695.0</ele><time>2014-10-26T07:46:03Z</time></trkpt><trkpt lat="46.025925" lon="12.34423"><ele>694.8</ele><time>2014-10-26T07:46:08Z</time></trkpt><trkpt lat="46.025845" lon="12.34421"><ele>695.3</ele><time>2014-10-26T07:46:12Z</time></trkpt><trkpt lat="46.025785" lon="12.344261666666666"><ele>696.0</ele><time>2014-10-26T07:46:15Z</time></trkpt><trkpt lat="46.025715" lon="12.34435"><ele>697.3</ele><time>2014-10-26T07:46:19Z</time></trkpt><trkpt lat="46.02564" lon="12.344396666666666"><ele>698.3</ele><time>2014-10-26T07:46:22Z</time></trkpt><trkpt lat="46.025565" lon="12.344415"><ele>699.8</ele><time>2014-10-26T07:46:26Z</time></trkpt><trkpt lat="46.025495" lon="12.34437"><ele>701.0</ele><time>2014-10-26T07:46:29Z</time></trkpt><trkpt lat="46.02542166666667" lon="12.344335"><ele>702.4</ele><time>2014-10-26T07:46:33Z</time></trkpt><trkpt lat="46.025346666666664" lon="12.344295"><ele>704.2</ele><time>2014-10-26T07:46:38Z</time></trkpt><trkpt lat="46.025295" lon="12.344255"><ele>706.3</ele><time>2014-10-26T07:46:45Z</time></trkpt><trkpt lat="46.025315" lon="12.34422"><ele>707.4</ele><time>2014-10-26T07:46:52Z</time></trkpt><trkpt lat="46.023865" lon="12.34658"><ele>727.2</ele><time>2014-10-26T07:49:02Z</time></trkpt><trkpt lat="46.023806666666665" lon="12.346511666666666"><ele>727.0</ele><time>2014-10-26T07:49:06Z</time></trkpt><trkpt lat="46.023775" lon="12.346401666666667"><ele>726.8</ele><time>2014-10-26T07:49:09Z</time></trkpt><trkpt lat="46.023756666666664" lon="12.346285"><ele>726.7</ele><time>2014-10-26T07:49:12Z</time></trkpt><trkpt lat="46.02376" lon="12.34614"><ele>726.4</ele><time>2014-10-26T07:49:17Z</time></trkpt><trkpt lat="46.02376" lon="12.34601"><ele>726.1</ele><time>2014-10-26T07:49:20Z</time></trkpt><trkpt lat="46.02373166666667" lon="12.345884999999999"><ele>725.6</ele><time>2014-10-26T07:49:22Z</time></trkpt><trkpt lat="46.023705" lon="12.345761666666666"><ele>725.0</ele><time>2014-10-26T07:49:24Z</time></trkpt><trkpt lat="46.023675" lon="12.34562"><ele>724.1</ele><time>2014-10-26T07:49:27Z</time></trkpt><trkpt lat="46.023605" lon="12.34552"><ele>723.1</ele><time>2014-10-26T07:49:30Z</time></trkpt><trkpt lat="46.02353" lon="12.345495"><ele>722.4</ele><time>2014-10-26T07:49:33Z</time></trkpt><trkpt lat="46.02345" lon="12.34553"><ele>721.5</ele><time>2014-10-26T07:49:38Z</time></trkpt><trkpt lat="46.02341" lon="12.345635"><ele>720.9</ele><time>2014-10-26T07:49:43Z</time></trkpt><trkpt lat="46.02335" lon="12.345738333333333"><ele>719.8</ele><time>2014-10-26T07:49:47Z</time></trkpt><trkpt lat="46.02330666666667" lon="12.345826666666667"><ele>719.0</ele><time>2014-10-26T07:49:49Z</time></trkpt><trkpt lat="46.02325166666667" lon="12.345928333333333"><ele>718.4</ele><time>2014-10-26T07:49:51Z</time></trkpt><trkpt lat="46.02318" lon="12.34604"><ele>712.4</ele><time>2014-10-26T07:49:53Z</time></trkpt><trkpt lat="46.02312" lon="12.34616"><ele>710.3</ele><time>2014-10-26T07:49:55Z</time></trkpt><trkpt lat="46.02307666666667" lon="12.346273333333333"><ele>710.1</ele><time>2014-10-26T07:49:57Z</time></trkpt><trkpt lat="46.02303666666667" lon="12.346405"><ele>709.8</ele><time>2014-10-26T07:50:00Z</time></trkpt><trkpt lat="46.02301" lon="12.346531666666667"><ele>709.4</ele><time>2014-10-26T07:50:03Z</time></trkpt><trkpt lat="46.02298166666667" lon="12.346635"><ele>708.9</ele><time>2014-10-26T07:50:06Z</time></trkpt><trkpt lat="46.022956666666666" lon="12.34675"><ele>708.5</ele><time>2014-10-26T07:50:09Z</time></trkpt><trkpt lat="46.022931666666665" lon="12.34687"><ele>708.0</ele><time>2014-10-26T07:50:12Z</time></trkpt><trkpt lat="46.022905" lon="12.346975"><ele>707.9</ele><time>2014-10-26T07:50:15Z</time></trkpt><trkpt lat="46.02283166666667" lon="12.34703"><ele>706.9</ele><time>2014-10-26T07:50:19Z</time></trkpt><trkpt lat="46.02279" lon="12.34691"><ele>705.2</ele><time>2014-10-26T07:50:24Z</time></trkpt><trkpt lat="46.022785" lon="12.34676"><ele>703.8</ele><time>2014-10-26T07:50:27Z</time></trkpt><trkpt lat="46.022778333333335" lon="12.346646666666667"><ele>702.4</ele><time>2014-10-26T07:50:30Z</time></trkpt><trkpt lat="46.02270333333333" lon="12.346615"><ele>699.8</ele><time>2014-10-26T07:50:35Z</time></trkpt><trkpt lat="46.022645" lon="12.34668"><ele>696.4</ele><time>2014-10-26T07:50:40Z</time></trkpt><trkpt lat="46.02258" lon="12.34674"><ele>694.3</ele><time>2014-10-26T07:50:43Z</time></trkpt><trkpt lat="46.02253" lon="12.346835"><ele>691.5</ele><time>2014-10-26T07:50:47Z</time></trkpt><trkpt lat="46.022483333333334" lon="12.346955"><ele>688.6</ele><time>2014-10-26T07:50:51Z</time></trkpt><trkpt lat="46.022425" lon="12.347035"><ele>686.5</ele><time>2014-10-26T07:50:54Z</time></trkpt><trkpt lat="46.022385" lon="12.34712"><ele>685.1</ele><time>2014-10-26T07:50:56Z</time></trkpt><trkpt lat="46.022326666666665" lon="12.34724"><ele>682.9</ele><time>2014-10-26T07:50:59Z</time></trkpt><trkpt lat="46.0223" lon="12.347336666666667"><ele>681.3</ele><time>2014-10-26T07:51:01Z</time></trkpt><trkpt lat="46.022261666666665" lon="12.347465"><ele>679.0</ele><time>2014-10-26T07:51:04Z</time></trkpt><trkpt lat="46.02222" lon="12.34758"><ele>677.0</ele><time>2014-10-26T07:51:07Z</time></trkpt><trkpt lat="46.022173333333335" lon="12.34769"><ele>675.2</ele><time>2014-10-26T07:51:10Z</time></trkpt><trkpt lat="46.02214" lon="12.347785"><ele>673.3</ele><time>2014-10-26T07:51:13Z</time></trkpt><trkpt lat="46.02211" lon="12.347885"><ele>671.4</ele><time>2014-10-26T07:51:16Z</time></trkpt><trkpt lat="46.022065" lon="12.34797"><ele>669.4</ele><time>2014-10-26T07:51:19Z</time></trkpt><trkpt lat="46.022005" lon="12.348075"><ele>667.1</ele><time>2014-10-26T07:51:23Z</time></trkpt><trkpt lat="46.021951666666666" lon="12.348175"><ele>665.5</ele><time>2014-10-26T07:51:26Z</time></trkpt><trkpt lat="46.0219" lon="12.34828"><ele>664.2</ele><time>2014-10-26T07:51:29Z</time></trkpt><trkpt lat="46.021856666666665" lon="12.348405"><ele>662.9</ele><time>2014-10-26T07:51:32Z</time></trkpt><trkpt lat="46.021816666666666" lon="12.348503333333333"><ele>662.6</ele><time>2014-10-26T07:51:35Z</time></trkpt><trkpt lat="46.02178" lon="12.348605"><ele>662.3</ele><time>2014-10-26T07:51:38Z</time></trkpt><trkpt lat="46.02128" lon="12.349515"><ele>602.8</ele><time>2014-10-26T07:52:21Z</time></trkpt><trkpt lat="46.02073" lon="12.3412"><ele>546.3</ele><time>2014-10-26T07:58:45Z</time></trkpt><trkpt lat="46.020875" lon="12.341228333333333"><ele>546.4</ele><time>2014-10-26T07:58:47Z</time></trkpt><trkpt lat="46.020955" lon="12.341235"><ele>546.3</ele><time>2014-10-26T07:58:50Z</time></trkpt><trkpt lat="46.02095166666667" lon="12.34076"><ele>544.7</ele><time>2014-10-26T07:59:12Z</time></trkpt><trkpt lat="46.02092" lon="12.340655"><ele>543.2</ele><time>2014-10-26T07:59:14Z</time></trkpt><trkpt lat="46.020871666666665" lon="12.340565"><ele>541.7</ele><time>2014-10-26T07:59:16Z</time></trkpt><trkpt lat="46.020765" lon="12.338881666666667"><ele>503.5</ele><time>2014-10-26T08:06:18Z</time></trkpt><trkpt lat="46.02069" lon="12.33878"><ele>503.4</ele><time>2014-10-26T08:06:21Z</time></trkpt><trkpt lat="46.02063666666667" lon="12.338695"><ele>503.2</ele><time>2014-10-26T08:06:23Z</time></trkpt><trkpt lat="46.020575" lon="12.338625"><ele>502.9</ele><time>2014-10-26T08:06:26Z</time></trkpt><trkpt lat="46.02052" lon="12.338558333333333"><ele>502.4</ele><time>2014-10-26T08:06:29Z</time></trkpt><trkpt lat="46.02045" lon="12.338495"><ele>501.6</ele><time>2014-10-26T08:06:32Z</time></trkpt><trkpt lat="46.020345" lon="12.33848"><ele>500.4</ele><time>2014-10-26T08:06:36Z</time></trkpt><trkpt lat="46.02025166666667" lon="12.338545"><ele>499.8</ele><time>2014-10-26T08:06:39Z</time></trkpt><trkpt lat="46.02018" lon="12.338576666666667"><ele>499.6</ele><time>2014-10-26T08:06:41Z</time></trkpt><trkpt lat="46.02011" lon="12.3386"><ele>499.5</ele><time>2014-10-26T08:06:42Z</time></trkpt><trkpt lat="46.02" lon="12.338595"><ele>499.3</ele><time>2014-10-26T08:06:44Z</time></trkpt><trkpt lat="46.019905" lon="12.33859"><ele>499.0</ele><time>2014-10-26T08:06:47Z</time></trkpt><trkpt lat="46.019835" lon="12.338575"><ele>498.8</ele><time>2014-10-26T08:06:51Z</time></trkpt><trkpt lat="46.01976" lon="12.338601666666667"><ele>498.7</ele><time>2014-10-26T08:06:56Z</time></trkpt><trkpt lat="46.01969" lon="12.33862"><ele>498.7</ele><time>2014-10-26T08:07:02Z</time></trkpt><trkpt lat="46.01876" lon="12.337326666666666"><ele>442.7</ele><time>2014-10-26T08:08:14Z</time></trkpt><trkpt lat="46.018655" lon="12.3374"><ele>442.6</ele><time>2014-10-26T08:08:17Z</time></trkpt><trkpt lat="46.01856" lon="12.33745"><ele>443.2</ele><time>2014-10-26T08:08:19Z</time></trkpt><trkpt lat="46.01846666666667" lon="12.33749"><ele>444.2</ele><time>2014-10-26T08:08:22Z</time></trkpt><trkpt lat="46.018386666666665" lon="12.33751"><ele>445.3</ele><time>2014-10-26T08:08:25Z</time></trkpt><trkpt lat="46.01829" lon="12.33754"><ele>447.0</ele><time>2014-10-26T08:08:33Z</time></trkpt><trkpt lat="46.01819" lon="12.337533333333333"><ele>447.9</ele><time>2014-10-26T08:08:36Z</time></trkpt><trkpt lat="46.018075" lon="12.337445"><ele>449.1</ele><time>2014-10-26T08:08:37Z</time></trkpt><trkpt lat="46.017995" lon="12.337375"><ele>449.7</ele><time>2014-10-26T08:08:40Z</time></trkpt><trkpt lat="46.017915" lon="12.337308333333333"><ele>450.0</ele><time>2014-10-26T08:08:43Z</time></trkpt><trkpt lat="46.017825" lon="12.337275"><ele>450.2</ele><time>2014-10-26T08:08:47Z</time></trkpt><trkpt lat="46.01774" lon="12.33726"><ele>450.3</ele><time>2014-10-26T08:08:51Z</time></trkpt><trkpt lat="46.017655" lon="12.337265"><ele>450.0</ele><time>2014-10-26T08:08:55Z</time></trkpt><trkpt lat="46.017565" lon="12.337266666666666"><ele>449.5</ele><time>2014-10-26T08:08:58Z</time></trkpt><trkpt lat="46.01746" lon="12.337246666666667"><ele>448.9</ele><time>2014-10-26T08:09:01Z</time></trkpt><trkpt lat="46.01738" lon="12.337225"><ele>448.4</ele><time>2014-10-26T08:09:03Z</time></trkpt><trkpt lat="46.017275" lon="12.3372"><ele>447.8</ele><time>2014-10-26T08:09:06Z</time></trkpt><trkpt lat="46.017185" lon="12.337165"><ele>447.1</ele><time>2014-10-26T08:09:09Z</time></trkpt><trkpt lat="46.017093333333335" lon="12.33714"><ele>446.7</ele><time>2014-10-26T08:09:12Z</time></trkpt><trkpt lat="46.017005" lon="12.337115"><ele>446.4</ele><time>2014-10-26T08:09:15Z</time></trkpt><trkpt lat="46.016925" lon="12.337106666666667"><ele>446.4</ele><time>2014-10-26T08:09:17Z</time></trkpt><trkpt lat="46.01685" lon="12.337105"><ele>446.7</ele><time>2014-10-26T08:09:19Z</time></trkpt><trkpt lat="46.016816666666664" lon="12.337"><ele>447.7</ele><time>2014-10-26T08:09:24Z</time></trkpt><trkpt lat="46.01684" lon="12.33688"><ele>447.9</ele><time>2014-10-26T08:09:27Z</time></trkpt><trkpt lat="46.016845" lon="12.336765"><ele>448.0</ele><time>2014-10-26T08:09:30Z</time></trkpt><trkpt lat="46.01682666666667" lon="12.336636666666667"><ele>447.8</ele><time>2014-10-26T08:09:33Z</time></trkpt><trkpt lat="46.01680666666667" lon="12.336535"><ele>447.7</ele><time>2014-10-26T08:09:37Z</time></trkpt><trkpt lat="46.01680666666667" lon="12.336415"><ele>447.6</ele><time>2014-10-26T08:09:40Z</time></trkpt><trkpt lat="46.01682666666667" lon="12.336296666666666"><ele>447.6</ele><time>2014-10-26T08:09:43Z</time></trkpt><trkpt lat="46.016875" lon="12.336205"><ele>447.6</ele><time>2014-10-26T08:09:46Z</time></trkpt><trkpt lat="46.01691666666667" lon="12.336111666666667"><ele>447.7</ele><time>2014-10-26T08:09:50Z</time></trkpt><trkpt lat="46.01699166666667" lon="12.336071666666667"><ele>447.1</ele><time>2014-10-26T08:09:54Z</time></trkpt><trkpt lat="46.01706" lon="12.336035"><ele>446.8</ele><time>2014-10-26T08:09:57Z</time></trkpt><trkpt lat="46.01712" lon="12.335965"><ele>447.0</ele><time>2014-10-26T08:10:00Z</time></trkpt><trkpt lat="46.017178333333334" lon="12.335866666666666"><ele>447.2</ele><time>2014-10-26T08:10:03Z</time></trkpt><trkpt lat="46.01723" lon="12.335776666666666"><ele>447.0</ele><time>2014-10-26T08:10:06Z</time></trkpt><trkpt lat="46.01728" lon="12.33567"><ele>447.0</ele><time>2014-10-26T08:10:09Z</time></trkpt><trkpt lat="46.017316666666666" lon="12.335545"><ele>447.1</ele><time>2014-10-26T08:10:12Z</time></trkpt><trkpt lat="46.017295" lon="12.335405"><ele>447.5</ele><time>2014-10-26T08:10:15Z</time></trkpt><trkpt lat="46.017246666666665" lon="12.335316666666667"><ele>447.7</ele><time>2014-10-26T08:10:17Z</time></trkpt><trkpt lat="46.017176666666664" lon="12.335281666666667"><ele>447.7</ele><time>2014-10-26T08:10:19Z</time></trkpt><trkpt lat="46.01708" lon="12.335241666666667"><ele>447.6</ele><time>2014-10-26T08:10:22Z</time></trkpt><trkpt lat="46.016985" lon="12.3352"><ele>447.4</ele><time>2014-10-26T08:10:25Z</time></trkpt><trkpt lat="46.016915" lon="12.335148333333333"><ele>446.9</ele><time>2014-10-26T08:10:27Z</time></trkpt><trkpt lat="46.01683" lon="12.335075"><ele>446.1</ele><time>2014-10-26T08:10:30Z</time></trkpt><trkpt lat="46.01676" lon="12.335"><ele>445.8</ele><time>2014-10-26T08:10:33Z</time></trkpt><trkpt lat="46.016725" lon="12.3349"><ele>445.6</ele><time>2014-10-26T08:10:36Z</time></trkpt><trkpt lat="46.01671" lon="12.334785"><ele>445.3</ele><time>2014-10-26T08:10:39Z</time></trkpt><trkpt lat="46.016705" lon="12.334665"><ele>444.7</ele><time>2014-10-26T08:10:42Z</time></trkpt><trkpt lat="46.01670166666667" lon="12.334555"><ele>444.1</ele><time>2014-10-26T08:10:45Z</time></trkpt><trkpt lat="46.0167" lon="12.33441"><ele>443.7</ele><time>2014-10-26T08:10:48Z</time></trkpt><trkpt lat="46.01669" lon="12.334285"><ele>443.1</ele><time>2014-10-26T08:10:51Z</time></trkpt><trkpt lat="46.01669" lon="12.33415"><ele>442.2</ele><time>2014-10-26T08:10:56Z</time></trkpt><trkpt lat="46.016675" lon="12.33404"><ele>441.5</ele><time>2014-10-26T08:10:58Z</time></trkpt><trkpt lat="46.016675" lon="12.333925"><ele>440.9</ele><time>2014-10-26T08:11:01Z</time></trkpt><trkpt lat="46.016685" lon="12.333788333333333"><ele>440.4</ele><time>2014-10-26T08:11:05Z</time></trkpt><trkpt lat="46.01667" lon="12.333655"><ele>439.8</ele><time>2014-10-26T08:11:09Z</time></trkpt><trkpt lat="46.01665" lon="12.333536666666667"><ele>439.3</ele><time>2014-10-26T08:11:12Z</time></trkpt><trkpt lat="46.016635" lon="12.3334"><ele>438.9</ele><time>2014-10-26T08:11:15Z</time></trkpt><trkpt lat="46.01662" lon="12.333275"><ele>438.5</ele><time>2014-10-26T08:11:18Z</time></trkpt><trkpt lat="46.0166" lon="12.333151666666666"><ele>438.1</ele><time>2014-10-26T08:11:21Z</time></trkpt><trkpt lat="46.016545" lon="12.33306"><ele>437.4</ele><time>2014-10-26T08:11:25Z</time></trkpt><trkpt lat="46.0165" lon="12.332975"><ele>437.0</ele><time>2014-10-26T08:11:27Z</time></trkpt><trkpt lat="46.016416666666665" lon="12.33291"><ele>436.6</ele><time>2014-10-26T08:11:30Z</time></trkpt><trkpt lat="46.016325" lon="12.332885"><ele>436.0</ele><time>2014-10-26T08:11:33Z</time></trkpt><trkpt lat="46.016245" lon="12.332905"><ele>435.4</ele><time>2014-10-26T08:11:36Z</time></trkpt><trkpt lat="46.016165" lon="12.332931666666667"><ele>435.0</ele><time>2014-10-26T08:11:39Z</time></trkpt><trkpt lat="46.016085" lon="12.332961666666666"><ele>434.7</ele><time>2014-10-26T08:11:42Z</time></trkpt><trkpt lat="46.015991666666665" lon="12.33298"><ele>434.2</ele><time>2014-10-26T08:11:45Z</time></trkpt><trkpt lat="46.015915" lon="12.333"><ele>433.7</ele><time>2014-10-26T08:11:48Z</time></trkpt><trkpt lat="46.01583" lon="12.33303"><ele>433.2</ele><time>2014-10-26T08:11:51Z</time></trkpt><trkpt lat="46.015755" lon="12.333045"><ele>432.8</ele><time>2014-10-26T08:11:53Z</time></trkpt><trkpt lat="46.015665" lon="12.33305"><ele>432.1</ele><time>2014-10-26T08:11:56Z</time></trkpt><trkpt lat="46.01558" lon="12.333051666666666"><ele>431.5</ele><time>2014-10-26T08:11:59Z</time></trkpt><trkpt lat="46.01548" lon="12.33306"><ele>430.8</ele><time>2014-10-26T08:12:03Z</time></trkpt><trkpt lat="46.01539666666667" lon="12.33308"><ele>430.5</ele><time>2014-10-26T08:12:06Z</time></trkpt><trkpt lat="46.0153" lon="12.333111666666667"><ele>430.3</ele><time>2014-10-26T08:12:10Z</time></trkpt><trkpt lat="46.01520166666667" lon="12.33314"><ele>429.8</ele><time>2014-10-26T08:12:13Z</time></trkpt><trkpt lat="46.0151" lon="12.333145"><ele>429.1</ele><time>2014-10-26T08:12:16Z</time></trkpt><trkpt lat="46.01502" lon="12.333155"><ele>428.2</ele><time>2014-10-26T08:12:19Z</time></trkpt><trkpt lat="46.01494" lon="12.333186666666666"><ele>427.3</ele><time>2014-10-26T08:12:22Z</time></trkpt><trkpt lat="46.01486" lon="12.333265"><ele>426.6</ele><time>2014-10-26T08:12:25Z</time></trkpt><trkpt lat="46.01478" lon="12.333345"><ele>425.8</ele><time>2014-10-26T08:12:28Z</time></trkpt><trkpt lat="46.014715" lon="12.333415"><ele>425.0</ele><time>2014-10-26T08:12:31Z</time></trkpt><trkpt lat="46.01466166666667" lon="12.333485"><ele>423.9</ele><time>2014-10-26T08:12:35Z</time></trkpt><trkpt lat="46.014615" lon="12.333575"><ele>423.2</ele><time>2014-10-26T08:12:39Z</time></trkpt><trkpt lat="46.014565" lon="12.333655"><ele>422.6</ele><time>2014-10-26T08:12:43Z</time></trkpt><trkpt lat="46.01450166666667" lon="12.333675"><ele>420.7</ele><time>2014-10-26T08:12:50Z</time></trkpt><trkpt lat="46.01447" lon="12.333775"><ele>418.6</ele><time>2014-10-26T08:12:56Z</time></trkpt><trkpt lat="46.014395" lon="12.333795"><ele>417.1</ele><time>2014-10-26T08:13:01Z</time></trkpt><trkpt lat="46.014315" lon="12.33377"><ele>416.5</ele><time>2014-10-26T08:13:03Z</time></trkpt><trkpt lat="46.014235" lon="12.333728333333333"><ele>415.6</ele><time>2014-10-26T08:13:07Z</time></trkpt><trkpt lat="46.01416" lon="12.333656666666666"><ele>415.1</ele><time>2014-10-26T08:13:11Z</time></trkpt><trkpt lat="46.014071666666666" lon="12.333595"><ele>414.9</ele><time>2014-10-26T08:13:14Z</time></trkpt><trkpt lat="46.014015" lon="12.33353"><ele>415.5</ele><time>2014-10-26T08:13:18Z</time></trkpt><trkpt lat="46.01394" lon="12.33344"><ele>417.5</ele><time>2014-10-26T08:13:23Z</time></trkpt><trkpt lat="46.01388" lon="12.333355"><ele>420.8</ele><time>2014-10-26T08:13:29Z</time></trkpt><trkpt lat="46.01389" lon="12.333265"><ele>425.3</ele><time>2014-10-26T08:13:36Z</time></trkpt><trkpt lat="46.01382666666667" lon="12.3332"><ele>428.4</ele><time>2014-10-26T08:13:41Z</time></trkpt><trkpt lat="46.01377" lon="12.33313"><ele>430.8</ele><time>2014-10-26T08:13:48Z</time></trkpt><trkpt lat="46.013756666666666" lon="12.33311"><ele>432.0</ele><time>2014-10-26T08:13:55Z</time></trkpt><trkpt lat="46.01324666666667" lon="12.332025"><ele>425.9</ele><time>2014-10-26T08:15:27Z</time></trkpt><trkpt lat="46.01307" lon="12.331635"><ele>425.9</ele><time>2014-10-26T08:15:50Z</time></trkpt><trkpt lat="46.013035" lon="12.33151"><ele>425.8</ele><time>2014-10-26T08:15:53Z</time></trkpt><trkpt lat="46.012785" lon="12.331141666666667"><ele>425.7</ele><time>2014-10-26T08:16:11Z</time></trkpt><trkpt lat="46.012725" lon="12.331045"><ele>425.4</ele><time>2014-10-26T08:16:15Z</time></trkpt><trkpt lat="46.01267" lon="12.330965"><ele>425.2</ele><time>2014-10-26T08:16:18Z</time></trkpt><trkpt lat="46.012605" lon="12.3309"><ele>425.1</ele><time>2014-10-26T08:16:21Z</time></trkpt><trkpt lat="46.012195" lon="12.330485"><ele>424.0</ele><time>2014-10-26T08:16:42Z</time></trkpt><trkpt lat="46.01209" lon="12.330381666666666"><ele>421.9</ele><time>2014-10-26T08:16:44Z</time></trkpt><trkpt lat="46.011975" lon="12.33029"><ele>419.9</ele><time>2014-10-26T08:16:46Z</time></trkpt><trkpt lat="46.011865" lon="12.330201666666667"><ele>418.2</ele><time>2014-10-26T08:16:48Z</time></trkpt><trkpt lat="46.008885" lon="12.33022"><ele>341.7</ele><time>2014-10-26T08:18:23Z</time></trkpt><trkpt lat="46.008815" lon="12.330275"><ele>341.5</ele><time>2014-10-26T08:18:26Z</time></trkpt><trkpt lat="46.00874" lon="12.330318333333333"><ele>340.9</ele><time>2014-10-26T08:18:30Z</time></trkpt><trkpt lat="46.00862333333333" lon="12.330565"><ele>340.6</ele><time>2014-10-26T08:18:45Z</time></trkpt><trkpt lat="46.008545" lon="12.330645"><ele>339.3</ele><time>2014-10-26T08:18:49Z</time></trkpt><trkpt lat="46.008295" lon="12.33124"><ele>338.7</ele><time>2014-10-26T08:19:13Z</time></trkpt><trkpt lat="46.0082" lon="12.331303333333333"><ele>336.4</ele><time>2014-10-26T08:19:16Z</time></trkpt><trkpt lat="46.00813" lon="12.33125"><ele>335.4</ele><time>2014-10-26T08:19:22Z</time></trkpt><trkpt lat="46.00752166666667" lon="12.330245"><ele>288.4</ele><time>2014-10-26T08:20:37Z</time></trkpt><trkpt lat="46.007445" lon="12.330311666666667"><ele>288.3</ele><time>2014-10-26T08:20:43Z</time></trkpt><trkpt lat="46.007365" lon="12.33031"><ele>288.4</ele><time>2014-10-26T08:20:49Z</time></trkpt><trkpt lat="46.00732" lon="12.33022"><ele>288.4</ele><time>2014-10-26T08:20:54Z</time></trkpt><trkpt lat="46.00728" lon="12.330135"><ele>288.5</ele><time>2014-10-26T08:20:58Z</time></trkpt><trkpt lat="46.00721" lon="12.330061666666667"><ele>288.5</ele><time>2014-10-26T08:21:04Z</time></trkpt><trkpt lat="46.00714" lon="12.33003"><ele>288.6</ele><time>2014-10-26T08:21:10Z</time></trkpt><trkpt lat="46.007065" lon="12.33007"><ele>288.7</ele><time>2014-10-26T08:21:18Z</time></trkpt><trkpt lat="46.006995" lon="12.330095"><ele>288.7</ele><time>2014-10-26T08:21:25Z</time></trkpt><trkpt lat="46.0069" lon="12.330105"><ele>288.6</ele><time>2014-10-26T08:21:31Z</time></trkpt><trkpt lat="46.006815" lon="12.330115"><ele>288.7</ele><time>2014-10-26T08:21:35Z</time></trkpt><trkpt lat="46.006735" lon="12.330155"><ele>288.8</ele><time>2014-10-26T08:21:40Z</time></trkpt><trkpt lat="46.00667" lon="12.330201666666667"><ele>289.0</ele><time>2014-10-26T08:21:50Z</time></trkpt><trkpt lat="46.006635" lon="12.330255"><ele>289.3</ele><time>2014-10-26T08:21:58Z</time></trkpt><trkpt lat="46.00659" lon="12.330316666666667"><ele>291.1</ele><time>2014-10-26T08:22:07Z</time></trkpt><trkpt lat="46.005755" lon="12.33028"><ele>290.9</ele><time>2014-10-26T08:22:37Z</time></trkpt><trkpt lat="46.00577" lon="12.33016"><ele>290.5</ele><time>2014-10-26T08:22:46Z</time></trkpt><trkpt lat="46.005831666666666" lon="12.3301"><ele>290.4</ele><time>2014-10-26T08:22:52Z</time></trkpt><trkpt lat="46.00605" lon="12.329515"><ele>291.1</ele><time>2014-10-26T08:23:13Z</time></trkpt><trkpt lat="46.00598" lon="12.329428333333333"><ele>291.8</ele><time>2014-10-26T08:23:17Z</time></trkpt><trkpt lat="46.005961666666664" lon="12.32943"><ele>295.6</ele><time>2014-10-26T08:23:25Z</time></trkpt><trkpt lat="46.00597166666667" lon="12.32945"><ele>297.6</ele><time>2014-10-26T08:23:31Z</time></trkpt><trkpt lat="46.006195" lon="12.329411666666667"><ele>297.1</ele><time>2014-10-26T08:23:59Z</time></trkpt><trkpt lat="46.006265" lon="12.32938"><ele>296.8</ele><time>2014-10-26T08:24:01Z</time></trkpt><trkpt lat="46.00635" lon="12.329385"><ele>296.8</ele><time>2014-10-26T08:24:05Z</time></trkpt><trkpt lat="46.00637" lon="12.329005"><ele>344.0</ele><time>2014-10-26T08:24:57Z</time></trkpt><trkpt lat="46.0061" lon="12.328716666666667"><ele>344.0</ele><time>2014-10-26T08:25:21Z</time></trkpt><trkpt lat="46.0059" lon="12.328345"><ele>343.8</ele><time>2014-10-26T08:25:42Z</time></trkpt><trkpt lat="46.005845" lon="12.328256666666666"><ele>343.6</ele><time>2014-10-26T08:25:45Z</time></trkpt><trkpt lat="46.00580166666666" lon="12.32813"><ele>343.9</ele><time>2014-10-26T08:25:52Z</time></trkpt><trkpt lat="46.005786666666665" lon="12.32806"><ele>343.9</ele><time>2014-10-26T08:25:59Z</time></trkpt><trkpt lat="46.00578" lon="12.32799"><ele>343.9</ele><time>2014-10-26T08:26:06Z</time></trkpt><trkpt lat="46.005765" lon="12.32788"><ele>344.3</ele><time>2014-10-26T08:26:11Z</time></trkpt><trkpt lat="46.00576" lon="12.327776666666667"><ele>345.9</ele><time>2014-10-26T08:26:16Z</time></trkpt><trkpt lat="46.005745" lon="12.32767"><ele>347.8</ele><time>2014-10-26T08:26:22Z</time></trkpt><trkpt lat="46.005715" lon="12.32756"><ele>349.9</ele><time>2014-10-26T08:26:27Z</time></trkpt><trkpt lat="46.00566166666667" lon="12.327465"><ele>351.6</ele><time>2014-10-26T08:26:31Z</time></trkpt><trkpt lat="46.00561666666667" lon="12.32737"><ele>353.6</ele><time>2014-10-26T08:26:36Z</time></trkpt><trkpt lat="46.005575" lon="12.32726"><ele>355.4</ele><time>2014-10-26T08:26:42Z</time></trkpt><trkpt lat="46.00554" lon="12.32715"><ele>356.7</ele><time>2014-10-26T08:26:47Z</time></trkpt><trkpt lat="46.00549" lon="12.327069999999999"><ele>358.1</ele><time>2014-10-26T08:26:52Z</time></trkpt><trkpt lat="46.005446666666664" lon="12.326975000000001"><ele>360.3</ele><time>2014-10-26T08:26:59Z</time></trkpt><trkpt lat="46.005428333333334" lon="12.326861666666666"><ele>362.3</ele><time>2014-10-26T08:27:06Z</time></trkpt><trkpt lat="46.005381666666665" lon="12.326785"><ele>364.3</ele><time>2014-10-26T08:27:13Z</time></trkpt><trkpt lat="46.00493" lon="12.32649"><ele>364.7</ele><time>2014-10-26T08:27:45Z</time></trkpt><trkpt lat="46.00487666666667" lon="12.326485"><ele>364.8</ele><time>2014-10-26T08:27:52Z</time></trkpt><trkpt lat="46.004815" lon="12.3264"><ele>365.0</ele><time>2014-10-26T08:28:00Z</time></trkpt><trkpt lat="46.00474666666667" lon="12.32633"><ele>365.1</ele><time>2014-10-26T08:28:05Z</time></trkpt><trkpt lat="46.004695" lon="12.32628"><ele>365.2</ele><time>2014-10-26T08:28:12Z</time></trkpt><trkpt lat="46.00471666666667" lon="12.326256666666666"><ele>365.2</ele><time>2014-10-26T08:28:19Z</time></trkpt><trkpt lat="46.004731666666665" lon="12.32605"><ele>365.7</ele><time>2014-10-26T08:28:49Z</time></trkpt><trkpt lat="46.004745" lon="12.325935"><ele>367.6</ele><time>2014-10-26T08:28:53Z</time></trkpt><trkpt lat="46.00478" lon="12.32582"><ele>370.1</ele><time>2014-10-26T08:28:57Z</time></trkpt><trkpt lat="46.004765" lon="12.325711666666667"><ele>373.6</ele><time>2014-10-26T08:29:03Z</time></trkpt><trkpt lat="46.004751666666664" lon="12.325605"><ele>376.7</ele><time>2014-10-26T08:29:09Z</time></trkpt><trkpt lat="46.004756666666665" lon="12.325535"><ele>379.4</ele><time>2014-10-26T08:29:16Z</time></trkpt><trkpt lat="46.004745" lon="12.325511666666667"><ele>381.7</ele><time>2014-10-26T08:29:23Z</time></trkpt><trkpt lat="46.00361" lon="12.32461"><ele>369.6</ele><time>2014-10-26T08:31:17Z</time></trkpt><trkpt lat="46.00328" lon="12.324515"><ele>370.1</ele><time>2014-10-26T08:31:28Z</time></trkpt><trkpt lat="46.001435" lon="12.324055"><ele>350.5</ele><time>2014-10-26T08:32:41Z</time></trkpt><trkpt lat="46.00133" lon="12.32442"><ele>351.2</ele><time>2014-10-26T08:32:44Z</time></trkpt><trkpt lat="46.001255" lon="12.324525"><ele>351.8</ele><time>2014-10-26T08:32:46Z</time></trkpt><trkpt lat="46.001165" lon="12.324556666666666"><ele>352.5</ele><time>2014-10-26T08:32:49Z</time></trkpt><trkpt lat="46.001075" lon="12.32461"><ele>353.4</ele><time>2014-10-26T08:32:52Z</time></trkpt><trkpt lat="46.001" lon="12.3247"><ele>355.8</ele><time>2014-10-26T08:32:55Z</time></trkpt><trkpt lat="46.00094" lon="12.32476"><ele>355.8</ele><time>2014-10-26T08:32:58Z</time></trkpt><trkpt lat="46.000875" lon="12.324815"><ele>356.0</ele><time>2014-10-26T08:33:01Z</time></trkpt><trkpt lat="46.00081" lon="12.32492"><ele>356.2</ele><time>2014-10-26T08:33:04Z</time></trkpt><trkpt lat="46.000765" lon="12.325045"><ele>356.3</ele><time>2014-10-26T08:33:07Z</time></trkpt><trkpt lat="46.000735" lon="12.325175"><ele>356.1</ele><time>2014-10-26T08:33:10Z</time></trkpt><trkpt lat="46.00074" lon="12.32532"><ele>355.6</ele><time>2014-10-26T08:33:13Z</time></trkpt><trkpt lat="46.000735" lon="12.325475"><ele>355.4</ele><time>2014-10-26T08:33:16Z</time></trkpt><trkpt lat="46.000721666666664" lon="12.32558"><ele>356.1</ele><time>2014-10-26T08:33:18Z</time></trkpt><trkpt lat="46.000726666666665" lon="12.325725"><ele>356.1</ele><time>2014-10-26T08:33:21Z</time></trkpt><trkpt lat="46.00074" lon="12.32586"><ele>355.9</ele><time>2014-10-26T08:33:24Z</time></trkpt><trkpt lat="46.00075" lon="12.325981666666667"><ele>355.5</ele><time>2014-10-26T08:33:27Z</time></trkpt><trkpt lat="46.00075" lon="12.326095"><ele>354.9</ele><time>2014-10-26T08:33:30Z</time></trkpt><trkpt lat="46.00074" lon="12.3262"><ele>354.3</ele><time>2014-10-26T08:33:34Z</time></trkpt><trkpt lat="46.000715" lon="12.326331666666666"><ele>353.9</ele><time>2014-10-26T08:33:37Z</time></trkpt><trkpt lat="46.00068666666667" lon="12.326445"><ele>353.7</ele><time>2014-10-26T08:33:40Z</time></trkpt><trkpt lat="46.000655" lon="12.32656"><ele>353.6</ele><time>2014-10-26T08:33:43Z</time></trkpt><trkpt lat="46.000635" lon="12.326695"><ele>353.3</ele><time>2014-10-26T08:33:47Z</time></trkpt><trkpt lat="46.000571666666666" lon="12.326785"><ele>353.1</ele><time>2014-10-26T08:33:50Z</time></trkpt><trkpt lat="46.000485" lon="12.32685"><ele>352.9</ele><time>2014-10-26T08:33:52Z</time></trkpt><trkpt lat="46.000415" lon="12.3269"><ele>352.5</ele><time>2014-10-26T08:33:54Z</time></trkpt><trkpt lat="46.000326666666666" lon="12.326891666666667"><ele>351.9</ele><time>2014-10-26T08:33:57Z</time></trkpt><trkpt lat="46.00026" lon="12.3268"><ele>351.1</ele><time>2014-10-26T08:34:00Z</time></trkpt><trkpt lat="46.000215" lon="12.326701666666667"><ele>350.5</ele><time>2014-10-26T08:34:03Z</time></trkpt><trkpt lat="46.000165" lon="12.32663"><ele>350.1</ele><time>2014-10-26T08:34:05Z</time></trkpt><trkpt lat="46.00011" lon="12.326545"><ele>349.4</ele><time>2014-10-26T08:34:08Z</time></trkpt><trkpt lat="46.000053333333334" lon="12.326445"><ele>349.0</ele><time>2014-10-26T08:34:11Z</time></trkpt><trkpt lat="46.00000166666667" lon="12.32632"><ele>348.7</ele><time>2014-10-26T08:34:14Z</time></trkpt><trkpt lat="45.999985" lon="12.326185"><ele>348.3</ele><time>2014-10-26T08:34:18Z</time></trkpt><trkpt lat="45.999985" lon="12.32606"><ele>348.1</ele><time>2014-10-26T08:34:21Z</time></trkpt><trkpt lat="45.999995" lon="12.325915"><ele>347.7</ele><time>2014-10-26T08:34:24Z</time></trkpt><trkpt lat="45.999995" lon="12.325795"><ele>347.5</ele><time>2014-10-26T08:34:27Z</time></trkpt><trkpt lat="45.99993" lon="12.32572"><ele>347.3</ele><time>2014-10-26T08:34:33Z</time></trkpt><trkpt lat="45.999845" lon="12.325751666666667"><ele>346.9</ele><time>2014-10-26T08:34:36Z</time></trkpt><trkpt lat="45.99975" lon="12.325785"><ele>346.4</ele><time>2014-10-26T08:34:39Z</time></trkpt><trkpt lat="45.99967" lon="12.32583"><ele>345.9</ele><time>2014-10-26T08:34:42Z</time></trkpt><trkpt lat="45.99959" lon="12.325825"><ele>345.1</ele><time>2014-10-26T08:34:46Z</time></trkpt><trkpt lat="45.99957166666667" lon="12.325693333333334"><ele>344.4</ele><time>2014-10-26T08:34:50Z</time></trkpt><trkpt lat="45.999565" lon="12.325576666666667"><ele>343.7</ele><time>2014-10-26T08:34:53Z</time></trkpt><trkpt lat="45.99956" lon="12.325428333333333"><ele>343.0</ele><time>2014-10-26T08:34:56Z</time></trkpt><trkpt lat="45.999545" lon="12.325315"><ele>342.5</ele><time>2014-10-26T08:34:58Z</time></trkpt><trkpt lat="45.999545" lon="12.325196666666667"><ele>340.3</ele><time>2014-10-26T08:35:00Z</time></trkpt><trkpt lat="45.99953166666667" lon="12.325095"><ele>338.0</ele><time>2014-10-26T08:35:02Z</time></trkpt><trkpt lat="45.999515" lon="12.324958333333333"><ele>337.7</ele><time>2014-10-26T08:35:05Z</time></trkpt><trkpt lat="45.99948666666667" lon="12.32484"><ele>337.7</ele><time>2014-10-26T08:35:08Z</time></trkpt><trkpt lat="45.99946" lon="12.324721666666667"><ele>337.7</ele><time>2014-10-26T08:35:11Z</time></trkpt><trkpt lat="45.99942" lon="12.324615"><ele>337.7</ele><time>2014-10-26T08:35:14Z</time></trkpt><trkpt lat="45.99939" lon="12.324506666666666"><ele>337.8</ele><time>2014-10-26T08:35:17Z</time></trkpt><trkpt lat="45.99946666666666" lon="12.324555"><ele>338.0</ele><time>2014-10-26T08:35:31Z</time></trkpt><trkpt lat="45.999495" lon="12.324311666666667"><ele>338.0</ele><time>2014-10-26T08:35:43Z</time></trkpt><trkpt lat="45.999445" lon="12.3244"><ele>337.1</ele><time>2014-10-26T08:35:47Z</time></trkpt><trkpt lat="45.99939" lon="12.324475"><ele>335.4</ele><time>2014-10-26T08:35:55Z</time></trkpt><trkpt lat="45.999325" lon="12.32452"><ele>334.0</ele><time>2014-10-26T08:36:00Z</time></trkpt><trkpt lat="45.99924" lon="12.324535000000001"><ele>333.3</ele><time>2014-10-26T08:36:04Z</time></trkpt><trkpt lat="45.99915333333333" lon="12.32455"><ele>332.5</ele><time>2014-10-26T08:36:07Z</time></trkpt><trkpt lat="45.999071666666666" lon="12.324515"><ele>331.4</ele><time>2014-10-26T08:36:13Z</time></trkpt><trkpt lat="45.99899666666666" lon="12.324505"><ele>330.0</ele><time>2014-10-26T08:36:18Z</time></trkpt><trkpt lat="45.998915" lon="12.32453"><ele>329.4</ele><time>2014-10-26T08:36:22Z</time></trkpt><trkpt lat="45.99884" lon="12.324521666666667"><ele>329.2</ele><time>2014-10-26T08:36:25Z</time></trkpt><trkpt lat="45.998765" lon="12.324565"><ele>328.9</ele><time>2014-10-26T08:36:28Z</time></trkpt><trkpt lat="45.99869" lon="12.32461"><ele>328.2</ele><time>2014-10-26T08:36:32Z</time></trkpt><trkpt lat="45.99861" lon="12.324665"><ele>327.3</ele><time>2014-10-26T08:36:36Z</time></trkpt><trkpt lat="45.99853" lon="12.324705"><ele>326.9</ele><time>2014-10-26T08:36:41Z</time></trkpt><trkpt lat="45.998455" lon="12.32474"><ele>326.9</ele><time>2014-10-26T08:36:44Z</time></trkpt><trkpt lat="45.99837" lon="12.32476"><ele>327.0</ele><time>2014-10-26T08:36:47Z</time></trkpt><trkpt lat="45.998266666666666" lon="12.324766666666667"><ele>327.5</ele><time>2014-10-26T08:36:50Z</time></trkpt><trkpt lat="45.998195" lon="12.324775"><ele>328.2</ele><time>2014-10-26T08:36:52Z</time></trkpt><trkpt lat="45.998105" lon="12.32479"><ele>328.4</ele><time>2014-10-26T08:36:56Z</time></trkpt><trkpt lat="45.99804" lon="12.324845"><ele>328.3</ele><time>2014-10-26T08:36:59Z</time></trkpt><trkpt lat="45.99798" lon="12.324921666666667"><ele>327.8</ele><time>2014-10-26T08:37:02Z</time></trkpt><trkpt lat="45.997925" lon="12.324996666666667"><ele>327.4</ele><time>2014-10-26T08:37:05Z</time></trkpt><trkpt lat="45.99789" lon="12.325095"><ele>326.8</ele><time>2014-10-26T08:37:08Z</time></trkpt><trkpt lat="45.99787166666667" lon="12.325215"><ele>326.3</ele><time>2014-10-26T08:37:11Z</time></trkpt><trkpt lat="45.997855" lon="12.32534"><ele>323.4</ele><time>2014-10-26T08:37:14Z</time></trkpt><trkpt lat="45.99785" lon="12.325481666666667"><ele>323.0</ele><time>2014-10-26T08:37:17Z</time></trkpt><trkpt lat="45.997845" lon="12.325605"><ele>322.9</ele><time>2014-10-26T08:37:20Z</time></trkpt><trkpt lat="45.99781" lon="12.32571"><ele>322.6</ele><time>2014-10-26T08:37:23Z</time></trkpt><trkpt lat="45.997765" lon="12.325808333333333"><ele>322.3</ele><time>2014-10-26T08:37:27Z</time></trkpt><trkpt lat="45.997715" lon="12.32592"><ele>322.2</ele><time>2014-10-26T08:37:30Z</time></trkpt><trkpt lat="45.99766" lon="12.326005"><ele>322.0</ele><time>2014-10-26T08:37:33Z</time></trkpt><trkpt lat="45.99757" lon="12.32608"><ele>321.5</ele><time>2014-10-26T08:37:36Z</time></trkpt><trkpt lat="45.99748666666667" lon="12.326091666666667"><ele>321.0</ele><time>2014-10-26T08:37:39Z</time></trkpt><trkpt lat="45.997405" lon="12.326085"><ele>320.8</ele><time>2014-10-26T08:37:42Z</time></trkpt><trkpt lat="45.99734" lon="12.326046666666667"><ele>320.6</ele><time>2014-10-26T08:37:45Z</time></trkpt><trkpt lat="45.997256666666665" lon="12.326015"><ele>320.6</ele><time>2014-10-26T08:37:50Z</time></trkpt><trkpt lat="45.997186666666664" lon="12.325975"><ele>320.8</ele><time>2014-10-26T08:37:54Z</time></trkpt><trkpt lat="45.997125" lon="12.325891666666667"><ele>320.9</ele><time>2014-10-26T08:37:58Z</time></trkpt><trkpt lat="45.997045" lon="12.32587"><ele>321.7</ele><time>2014-10-26T08:38:05Z</time></trkpt><trkpt lat="45.997015" lon="12.325785"><ele>324.7</ele><time>2014-10-26T08:38:13Z</time></trkpt><trkpt lat="45.996946666666666" lon="12.32571"><ele>325.5</ele><time>2014-10-26T08:38:16Z</time></trkpt><trkpt lat="45.9969" lon="12.325614999999999"><ele>325.6</ele><time>2014-10-26T08:38:20Z</time></trkpt><trkpt lat="45.99686" lon="12.325521666666667"><ele>325.6</ele><time>2014-10-26T08:38:24Z</time></trkpt><trkpt lat="45.996808333333334" lon="12.325425"><ele>325.6</ele><time>2014-10-26T08:38:28Z</time></trkpt><trkpt lat="45.99675" lon="12.32533"><ele>325.2</ele><time>2014-10-26T08:38:32Z</time></trkpt><trkpt lat="45.996695" lon="12.325235"><ele>324.8</ele><time>2014-10-26T08:38:36Z</time></trkpt><trkpt lat="45.99646166666667" lon="12.32539"><ele>321.7</ele><time>2014-10-26T08:39:21Z</time></trkpt><trkpt lat="45.996505" lon="12.325525"><ele>321.6</ele><time>2014-10-26T08:39:26Z</time></trkpt><trkpt lat="45.99646" lon="12.325605"><ele>321.2</ele><time>2014-10-26T08:39:30Z</time></trkpt><trkpt lat="45.99638" lon="12.325651666666667"><ele>321.3</ele><time>2014-10-26T08:39:34Z</time></trkpt><trkpt lat="45.9963" lon="12.32571"><ele>321.6</ele><time>2014-10-26T08:39:38Z</time></trkpt><trkpt lat="45.996225" lon="12.325715"><ele>321.3</ele><time>2014-10-26T08:39:43Z</time></trkpt><trkpt lat="45.996145" lon="12.325755000000001"><ele>321.2</ele><time>2014-10-26T08:39:49Z</time></trkpt><trkpt lat="45.99607" lon="12.325805"><ele>321.3</ele><time>2014-10-26T08:39:53Z</time></trkpt><trkpt lat="45.995995" lon="12.325815"><ele>321.1</ele><time>2014-10-26T08:39:56Z</time></trkpt><trkpt lat="45.995925" lon="12.325848333333333"><ele>321.3</ele><time>2014-10-26T08:40:03Z</time></trkpt><trkpt lat="45.99585166666667" lon="12.325876666666666"><ele>321.1</ele><time>2014-10-26T08:40:07Z</time></trkpt><trkpt lat="45.995765" lon="12.325895"><ele>320.0</ele><time>2014-10-26T08:40:13Z</time></trkpt><trkpt lat="45.99568" lon="12.325901666666667"><ele>318.3</ele><time>2014-10-26T08:40:19Z</time></trkpt><trkpt lat="45.9956" lon="12.325943333333333"><ele>317.1</ele><time>2014-10-26T08:40:25Z</time></trkpt><trkpt lat="45.995545" lon="12.326"><ele>316.0</ele><time>2014-10-26T08:40:32Z</time></trkpt><trkpt lat="45.99523" lon="12.325995"><ele>302.3</ele><time>2014-10-26T08:41:19Z</time></trkpt><trkpt lat="45.99526" lon="12.3261"><ele>302.0</ele><time>2014-10-26T08:41:20Z</time></trkpt><trkpt lat="45.995225" lon="12.32621"><ele>302.1</ele><time>2014-10-26T08:41:23Z</time></trkpt><trkpt lat="45.99516" lon="12.326275"><ele>302.6</ele><time>2014-10-26T08:41:28Z</time></trkpt><trkpt lat="45.9951" lon="12.326331666666666"><ele>303.3</ele><time>2014-10-26T08:41:31Z</time></trkpt><trkpt lat="45.99503" lon="12.326335"><ele>303.7</ele><time>2014-10-26T08:41:36Z</time></trkpt><trkpt lat="45.99495" lon="12.326358333333333"><ele>303.9</ele><time>2014-10-26T08:41:42Z</time></trkpt><trkpt lat="45.99487666666667" lon="12.326345"><ele>303.6</ele><time>2014-10-26T08:41:47Z</time></trkpt><trkpt lat="45.994816666666665" lon="12.32629"><ele>302.3</ele><time>2014-10-26T08:41:52Z</time></trkpt><trkpt lat="45.994785" lon="12.326195"><ele>300.6</ele><time>2014-10-26T08:41:56Z</time></trkpt><trkpt lat="45.994753333333335" lon="12.326071666666667"><ele>298.9</ele><time>2014-10-26T08:42:01Z</time></trkpt><trkpt lat="45.994785" lon="12.32597"><ele>297.4</ele><time>2014-10-26T08:42:05Z</time></trkpt><trkpt lat="45.99487" lon="12.32589"><ele>295.7</ele><time>2014-10-26T08:42:09Z</time></trkpt><trkpt lat="45.99493" lon="12.325836666666667"><ele>294.4</ele><time>2014-10-26T08:42:12Z</time></trkpt><trkpt lat="45.99499" lon="12.32574"><ele>292.6</ele><time>2014-10-26T08:42:16Z</time></trkpt><trkpt lat="45.995" lon="12.32563"><ele>291.0</ele><time>2014-10-26T08:42:20Z</time></trkpt><trkpt lat="45.994975" lon="12.325526666666667"><ele>288.8</ele><time>2014-10-26T08:42:25Z</time></trkpt><trkpt lat="45.99496" lon="12.325405"><ele>286.5</ele><time>2014-10-26T08:42:30Z</time></trkpt><trkpt lat="45.994955" lon="12.325295"><ele>285.1</ele><time>2014-10-26T08:42:35Z</time></trkpt><trkpt lat="45.994995" lon="12.325161666666666"><ele>284.5</ele><time>2014-10-26T08:42:39Z</time></trkpt><trkpt lat="45.995025" lon="12.325045"><ele>284.1</ele><time>2014-10-26T08:42:42Z</time></trkpt><trkpt lat="45.99502666666667" lon="12.324896666666667"><ele>283.6</ele><time>2014-10-26T08:42:46Z</time></trkpt><trkpt lat="45.99502" lon="12.324766666666667"><ele>283.2</ele><time>2014-10-26T08:42:49Z</time></trkpt><trkpt lat="45.994991666666664" lon="12.324645"><ele>282.7</ele><time>2014-10-26T08:42:52Z</time></trkpt><trkpt lat="45.994965" lon="12.324515"><ele>281.5</ele><time>2014-10-26T08:42:56Z</time></trkpt><trkpt lat="45.99493" lon="12.3244"><ele>280.4</ele><time>2014-10-26T08:42:59Z</time></trkpt><trkpt lat="45.99489" lon="12.324285"><ele>279.2</ele><time>2014-10-26T08:43:03Z</time></trkpt><trkpt lat="45.994855" lon="12.324165"><ele>278.3</ele><time>2014-10-26T08:43:06Z</time></trkpt><trkpt lat="45.99482166666667" lon="12.324055"><ele>277.4</ele><time>2014-10-26T08:43:09Z</time></trkpt><trkpt lat="45.994805" lon="12.32395"><ele>276.6</ele><time>2014-10-26T08:43:12Z</time></trkpt><trkpt lat="45.994795" lon="12.323835"><ele>275.9</ele><time>2014-10-26T08:43:16Z</time></trkpt><trkpt lat="45.99486" lon="12.32381"><ele>274.3</ele><time>2014-10-26T08:43:23Z</time></trkpt><trkpt lat="45.99494" lon="12.323825"><ele>273.8</ele><time>2014-10-26T08:43:27Z</time></trkpt><trkpt lat="45.99503" lon="12.323815"><ele>273.5</ele><time>2014-10-26T08:43:31Z</time></trkpt><trkpt lat="45.995115" lon="12.32378"><ele>273.3</ele><time>2014-10-26T08:43:35Z</time></trkpt><trkpt lat="45.995205" lon="12.323755"><ele>272.7</ele><time>2014-10-26T08:43:39Z</time></trkpt><trkpt lat="45.99528" lon="12.323746666666667"><ele>272.0</ele><time>2014-10-26T08:43:43Z</time></trkpt><trkpt lat="45.995351666666664" lon="12.32374"><ele>271.4</ele><time>2014-10-26T08:43:46Z</time></trkpt><trkpt lat="45.99543833333333" lon="12.323741666666667"><ele>270.7</ele><time>2014-10-26T08:43:51Z</time></trkpt><trkpt lat="45.99552166666667" lon="12.32376"><ele>270.5</ele><time>2014-10-26T08:43:56Z</time></trkpt><trkpt lat="45.995605" lon="12.323741666666667"><ele>269.8</ele><time>2014-10-26T08:44:01Z</time></trkpt><trkpt lat="45.995675" lon="12.323705"><ele>269.0</ele><time>2014-10-26T08:44:06Z</time></trkpt><trkpt lat="45.995738333333335" lon="12.32367"><ele>268.6</ele><time>2014-10-26T08:44:11Z</time></trkpt><trkpt lat="45.995821666666664" lon="12.32362"><ele>268.0</ele><time>2014-10-26T08:44:17Z</time></trkpt><trkpt lat="45.9959" lon="12.323566666666666"><ele>267.8</ele><time>2014-10-26T08:44:21Z</time></trkpt><trkpt lat="45.995963333333336" lon="12.32351"><ele>267.4</ele><time>2014-10-26T08:44:24Z</time></trkpt><trkpt lat="45.996045" lon="12.323465"><ele>267.1</ele><time>2014-10-26T08:44:28Z</time></trkpt><trkpt lat="45.99614" lon="12.32343"><ele>267.0</ele><time>2014-10-26T08:44:32Z</time></trkpt><trkpt lat="45.996215" lon="12.323401666666667"><ele>267.0</ele><time>2014-10-26T08:44:35Z</time></trkpt><trkpt lat="45.996295" lon="12.32336"><ele>267.1</ele><time>2014-10-26T08:44:39Z</time></trkpt><trkpt lat="45.996375" lon="12.323301666666667"><ele>267.3</ele><time>2014-10-26T08:44:44Z</time></trkpt><trkpt lat="45.996446666666664" lon="12.323255"><ele>267.4</ele><time>2014-10-26T08:44:47Z</time></trkpt><trkpt lat="45.99653166666667" lon="12.3232"><ele>267.5</ele><time>2014-10-26T08:44:50Z</time></trkpt><trkpt lat="45.996595" lon="12.323111666666666"><ele>267.4</ele><time>2014-10-26T08:44:53Z</time></trkpt><trkpt lat="45.996645" lon="12.323031666666667"><ele>267.5</ele><time>2014-10-26T08:44:56Z</time></trkpt><trkpt lat="45.99669" lon="12.322905"><ele>267.5</ele><time>2014-10-26T08:45:00Z</time></trkpt><trkpt lat="45.996715" lon="12.322785"><ele>267.4</ele><time>2014-10-26T08:45:03Z</time></trkpt><trkpt lat="45.996735" lon="12.32267"><ele>267.3</ele><time>2014-10-26T08:45:06Z</time></trkpt><trkpt lat="45.996766666666666" lon="12.322565"><ele>267.2</ele><time>2014-10-26T08:45:09Z</time></trkpt><trkpt lat="45.996811666666666" lon="12.32244"><ele>267.0</ele><time>2014-10-26T08:45:13Z</time></trkpt><trkpt lat="45.996855" lon="12.322336666666667"><ele>266.8</ele><time>2014-10-26T08:45:16Z</time></trkpt><trkpt lat="45.99691" lon="12.322225"><ele>266.8</ele><time>2014-10-26T08:45:20Z</time></trkpt><trkpt lat="45.99696" lon="12.32215"><ele>267.1</ele><time>2014-10-26T08:45:23Z</time></trkpt><trkpt lat="45.99701666666667" lon="12.322076666666666"><ele>267.6</ele><time>2014-10-26T08:45:26Z</time></trkpt><trkpt lat="45.997075" lon="12.322"><ele>267.9</ele><time>2014-10-26T08:45:29Z</time></trkpt><trkpt lat="45.99713" lon="12.321921666666666"><ele>268.1</ele><time>2014-10-26T08:45:32Z</time></trkpt><trkpt lat="45.997188333333334" lon="12.321835"><ele>268.5</ele><time>2014-10-26T08:45:35Z</time></trkpt><trkpt lat="45.99725166666666" lon="12.321745"><ele>268.7</ele><time>2014-10-26T08:45:38Z</time></trkpt><trkpt lat="45.997301666666665" lon="12.321623333333333"><ele>268.8</ele><time>2014-10-26T08:45:41Z</time></trkpt><trkpt lat="45.997335" lon="12.321531666666667"><ele>268.7</ele><time>2014-10-26T08:45:44Z</time></trkpt><trkpt lat="45.99738" lon="12.321425"><ele>269.0</ele><time>2014-10-26T08:45:49Z</time></trkpt><trkpt lat="45.99742" lon="12.321335"><ele>269.3</ele><time>2014-10-26T08:45:51Z</time></trkpt><trkpt lat="45.99746" lon="12.321235"><ele>269.9</ele><time>2014-10-26T08:45:55Z</time></trkpt><trkpt lat="45.997445" lon="12.321125"><ele>270.8</ele><time>2014-10-26T08:46:01Z</time></trkpt><trkpt lat="45.997385" lon="12.32106"><ele>271.1</ele><time>2014-10-26T08:46:04Z</time></trkpt><trkpt lat="45.99733166666667" lon="12.32099"><ele>271.0</ele><time>2014-10-26T08:46:06Z</time></trkpt><trkpt lat="45.99727" lon="12.320936666666666"><ele>271.0</ele><time>2014-10-26T08:46:08Z</time></trkpt><trkpt lat="45.99717" lon="12.320895"><ele>271.0</ele><time>2014-10-26T08:46:11Z</time></trkpt><trkpt lat="45.99708" lon="12.32086"><ele>270.9</ele><time>2014-10-26T08:46:14Z</time></trkpt><trkpt lat="45.997005" lon="12.320781666666667"><ele>270.8</ele><time>2014-10-26T08:46:17Z</time></trkpt><trkpt lat="45.996925" lon="12.320705"><ele>270.8</ele><time>2014-10-26T08:46:20Z</time></trkpt><trkpt lat="45.99684" lon="12.32067"><ele>270.9</ele><time>2014-10-26T08:46:23Z</time></trkpt><trkpt lat="45.996775" lon="12.320621666666666"><ele>271.0</ele><time>2014-10-26T08:46:26Z</time></trkpt><trkpt lat="45.996715" lon="12.320555"><ele>271.1</ele><time>2014-10-26T08:46:29Z</time></trkpt><trkpt lat="45.99665666666667" lon="12.320476666666666"><ele>271.2</ele><time>2014-10-26T08:46:32Z</time></trkpt><trkpt lat="45.996581666666664" lon="12.320385"><ele>271.2</ele><time>2014-10-26T08:46:36Z</time></trkpt><trkpt lat="45.996525" lon="12.32031"><ele>271.0</ele><time>2014-10-26T08:46:39Z</time></trkpt><trkpt lat="45.996465" lon="12.320225"><ele>270.9</ele><time>2014-10-26T08:46:42Z</time></trkpt><trkpt lat="45.996405" lon="12.320125"><ele>270.8</ele><time>2014-10-26T08:46:45Z</time></trkpt><trkpt lat="45.99635833333333" lon="12.32003"><ele>270.8</ele><time>2014-10-26T08:46:48Z</time></trkpt><trkpt lat="45.996315" lon="12.319935"><ele>271.0</ele><time>2014-10-26T08:46:51Z</time></trkpt><trkpt lat="45.99627" lon="12.319841666666667"><ele>271.1</ele><time>2014-10-26T08:46:54Z</time></trkpt><trkpt lat="45.99622166666666" lon="12.319755"><ele>271.1</ele><time>2014-10-26T08:46:57Z</time></trkpt><trkpt lat="45.99617166666667" lon="12.31968"><ele>271.1</ele><time>2014-10-26T08:47:00Z</time></trkpt><trkpt lat="45.99613" lon="12.31959"><ele>270.9</ele><time>2014-10-26T08:47:04Z</time></trkpt><trkpt lat="45.996085" lon="12.319505"><ele>271.1</ele><time>2014-10-26T08:47:08Z</time></trkpt><trkpt lat="45.99601" lon="12.319461666666667"><ele>271.2</ele><time>2014-10-26T08:47:12Z</time></trkpt><trkpt lat="45.99592" lon="12.319425"><ele>271.1</ele><time>2014-10-26T08:47:16Z</time></trkpt><trkpt lat="45.99585" lon="12.319406666666668"><ele>271.2</ele><time>2014-10-26T08:47:19Z</time></trkpt><trkpt lat="45.99576166666667" lon="12.319391666666666"><ele>271.1</ele><time>2014-10-26T08:47:22Z</time></trkpt><trkpt lat="45.99568" lon="12.319375"><ele>271.2</ele><time>2014-10-26T08:47:25Z</time></trkpt><trkpt lat="45.995605" lon="12.31936"><ele>271.2</ele><time>2014-10-26T08:47:28Z</time></trkpt><trkpt lat="45.99552" lon="12.31932"><ele>271.4</ele><time>2014-10-26T08:47:32Z</time></trkpt><trkpt lat="45.995441666666665" lon="12.31927"><ele>271.2</ele><time>2014-10-26T08:47:36Z</time></trkpt><trkpt lat="45.995375" lon="12.31921"><ele>271.0</ele><time>2014-10-26T08:47:40Z</time></trkpt><trkpt lat="45.99531" lon="12.31914"><ele>271.4</ele><time>2014-10-26T08:47:46Z</time></trkpt><trkpt lat="45.99527666666667" lon="12.319185"><ele>271.5</ele><time>2014-10-26T08:47:53Z</time></trkpt><trkpt lat="45.995225" lon="12.319245"><ele>271.0</ele><time>2014-10-26T08:48:00Z</time></trkpt><trkpt lat="45.99516" lon="12.31925"><ele>270.6</ele><time>2014-10-26T08:48:07Z</time></trkpt><trkpt lat="45.995095" lon="12.319196666666667"><ele>269.0</ele><time>2014-10-26T08:48:11Z</time></trkpt><trkpt lat="45.99501" lon="12.319165"><ele>267.8</ele><time>2014-10-26T08:48:14Z</time></trkpt><trkpt lat="45.994915" lon="12.319135"><ele>266.2</ele><time>2014-10-26T08:48:17Z</time></trkpt><trkpt lat="45.99482" lon="12.319115"><ele>264.7</ele><time>2014-10-26T08:48:20Z</time></trkpt><trkpt lat="45.99474166666667" lon="12.319061666666666"><ele>261.8</ele><time>2014-10-26T08:48:26Z</time></trkpt><trkpt lat="45.994675" lon="12.31902"><ele>259.8</ele><time>2014-10-26T08:48:30Z</time></trkpt><trkpt lat="45.99460666666667" lon="12.318991666666667"><ele>258.2</ele><time>2014-10-26T08:48:34Z</time></trkpt><trkpt lat="45.99458" lon="12.319035"><ele>255.5</ele><time>2014-10-26T08:48:41Z</time></trkpt><trkpt lat="45.994635" lon="12.319136666666667"><ele>253.0</ele><time>2014-10-26T08:48:47Z</time></trkpt><trkpt lat="45.994675" lon="12.31923"><ele>250.9</ele><time>2014-10-26T08:48:53Z</time></trkpt><trkpt lat="45.994675" lon="12.319315"><ele>247.3</ele><time>2014-10-26T08:49:00Z</time></trkpt><trkpt lat="45.994681666666665" lon="12.319426666666667"><ele>245.0</ele><time>2014-10-26T08:49:05Z</time></trkpt><trkpt lat="45.994705" lon="12.3195"><ele>244.0</ele><time>2014-10-26T08:49:12Z</time></trkpt><trkpt lat="45.99469666666667" lon="12.319523333333333"><ele>243.8</ele><time>2014-10-26T08:49:19Z</time></trkpt><trkpt lat="45.99469833333333" lon="12.319601666666667"><ele>244.1</ele><time>2014-10-26T08:49:26Z</time></trkpt><trkpt lat="45.994705" lon="12.319615"><ele>244.7</ele><time>2014-10-26T08:49:33Z</time></trkpt><trkpt lat="45.994725" lon="12.319691666666667"><ele>245.6</ele><time>2014-10-26T08:49:40Z</time></trkpt><trkpt lat="45.99474" lon="12.319815"><ele>246.3</ele><time>2014-10-26T08:49:44Z</time></trkpt><trkpt lat="45.994705" lon="12.31992"><ele>247.6</ele><time>2014-10-26T08:49:49Z</time></trkpt><trkpt lat="45.99462" lon="12.31992"><ele>248.2</ele><time>2014-10-26T08:49:55Z</time></trkpt><trkpt lat="45.99455" lon="12.319945"><ele>248.3</ele><time>2014-10-26T08:50:01Z</time></trkpt><trkpt lat="45.994565" lon="12.32006"><ele>247.6</ele><time>2014-10-26T08:50:06Z</time></trkpt><trkpt lat="45.994546666666665" lon="12.320175"><ele>246.4</ele><time>2014-10-26T08:50:10Z</time></trkpt><trkpt lat="45.994481666666665" lon="12.320261666666667"><ele>245.4</ele><time>2014-10-26T08:50:14Z</time></trkpt><trkpt lat="45.994461666666666" lon="12.32036"><ele>243.4</ele><time>2014-10-26T08:50:21Z</time></trkpt><trkpt lat="45.994435" lon="12.32038"><ele>241.4</ele><time>2014-10-26T08:50:28Z</time></trkpt><trkpt lat="45.994415000000004" lon="12.320391666666668"><ele>239.0</ele><time>2014-10-26T08:50:35Z</time></trkpt><trkpt lat="45.99441" lon="12.320525"><ele>237.2</ele><time>2014-10-26T08:50:41Z</time></trkpt><trkpt lat="45.994366666666664" lon="12.320616666666666"><ele>235.6</ele><time>2014-10-26T08:50:46Z</time></trkpt><trkpt lat="45.994303333333335" lon="12.320655"><ele>233.0</ele><time>2014-10-26T08:50:53Z</time></trkpt><trkpt lat="45.994355" lon="12.320695"><ele>230.0</ele><time>2014-10-26T08:51:00Z</time></trkpt><trkpt lat="45.994371666666666" lon="12.320791666666667"><ele>227.2</ele><time>2014-10-26T08:51:07Z</time></trkpt><trkpt lat="45.99437" lon="12.320876666666667"><ele>224.7</ele><time>2014-10-26T08:51:14Z</time></trkpt><trkpt lat="45.994335" lon="12.320976666666667"><ele>223.1</ele><time>2014-10-26T08:51:21Z</time></trkpt><trkpt lat="45.994325" lon="12.321095"><ele>223.1</ele><time>2014-10-26T08:51:26Z</time></trkpt><trkpt lat="45.99427" lon="12.321175"><ele>223.5</ele><time>2014-10-26T08:51:32Z</time></trkpt><trkpt lat="45.9942" lon="12.32122"><ele>223.9</ele><time>2014-10-26T08:51:36Z</time></trkpt><trkpt lat="45.99413" lon="12.321261666666667"><ele>223.9</ele><time>2014-10-26T08:51:42Z</time></trkpt><trkpt lat="45.994065" lon="12.32129"><ele>224.1</ele><time>2014-10-26T08:51:49Z</time></trkpt><trkpt lat="45.993991666666666" lon="12.321315"><ele>224.1</ele><time>2014-10-26T08:51:56Z</time></trkpt><trkpt lat="45.99391" lon="12.321301666666667"><ele>224.3</ele><time>2014-10-26T08:52:02Z</time></trkpt><trkpt lat="45.993856666666666" lon="12.321275"><ele>224.1</ele><time>2014-10-26T08:52:09Z</time></trkpt><trkpt lat="45.99379" lon="12.32121"><ele>222.3</ele><time>2014-10-26T08:52:16Z</time></trkpt><trkpt lat="45.99371" lon="12.321175"><ele>219.9</ele><time>2014-10-26T08:52:21Z</time></trkpt><trkpt lat="45.99364" lon="12.32114"><ele>217.5</ele><time>2014-10-26T08:52:26Z</time></trkpt><trkpt lat="45.993585" lon="12.321051666666667"><ele>215.2</ele><time>2014-10-26T08:52:31Z</time></trkpt><trkpt lat="45.99356" lon="12.320931666666667"><ele>213.3</ele><time>2014-10-26T08:52:36Z</time></trkpt><trkpt lat="45.99353" lon="12.320835"><ele>212.3</ele><time>2014-10-26T08:52:39Z</time></trkpt><trkpt lat="45.9935" lon="12.320741666666667"><ele>211.5</ele><time>2014-10-26T08:52:42Z</time></trkpt><trkpt lat="45.993430000000004" lon="12.32066"><ele>210.3</ele><time>2014-10-26T08:52:45Z</time></trkpt><trkpt lat="45.993385" lon="12.320581666666667"><ele>209.3</ele><time>2014-10-26T08:52:49Z</time></trkpt><trkpt lat="45.99331" lon="12.320575"><ele>207.5</ele><time>2014-10-26T08:52:53Z</time></trkpt><trkpt lat="45.99323166666667" lon="12.32054"><ele>205.4</ele><time>2014-10-26T08:52:57Z</time></trkpt><trkpt lat="45.993135" lon="12.32054"><ele>203.9</ele><time>2014-10-26T08:53:02Z</time></trkpt><trkpt lat="45.993105" lon="12.320536666666667"><ele>203.1</ele><time>2014-10-26T08:53:09Z</time></trkpt><trkpt lat="45.99289" lon="12.321355"><ele>239.2</ele><time>2014-10-26T08:55:05Z</time></trkpt><trkpt lat="45.992865" lon="12.321301666666667"><ele>238.5</ele><time>2014-10-26T08:55:12Z</time></trkpt><trkpt lat="45.992775" lon="12.321295"><ele>236.7</ele><time>2014-10-26T08:55:22Z</time></trkpt><trkpt lat="45.992735" lon="12.321205"><ele>234.2</ele><time>2014-10-26T08:55:27Z</time></trkpt><trkpt lat="45.992685" lon="12.321101666666667"><ele>231.3</ele><time>2014-10-26T08:55:32Z</time></trkpt><trkpt lat="45.992628333333336" lon="12.321025"><ele>229.9</ele><time>2014-10-26T08:55:35Z</time></trkpt><trkpt lat="45.992555" lon="12.320936666666666"><ele>227.8</ele><time>2014-10-26T08:55:40Z</time></trkpt><trkpt lat="45.992495" lon="12.320861666666667"><ele>226.8</ele><time>2014-10-26T08:55:43Z</time></trkpt><trkpt lat="45.992415" lon="12.320816666666667"><ele>225.4</ele><time>2014-10-26T08:55:47Z</time></trkpt><trkpt lat="45.99234666666667" lon="12.320756666666666"><ele>223.0</ele><time>2014-10-26T08:55:54Z</time></trkpt><trkpt lat="45.99229166666667" lon="12.32067"><ele>220.5</ele><time>2014-10-26T08:56:01Z</time></trkpt><trkpt lat="45.992245" lon="12.32057"><ele>218.9</ele><time>2014-10-26T08:56:05Z</time></trkpt><trkpt lat="45.992178333333335" lon="12.320491666666667"><ele>217.7</ele><time>2014-10-26T08:56:09Z</time></trkpt><trkpt lat="45.99210333333333" lon="12.32044"><ele>216.4</ele><time>2014-10-26T08:56:13Z</time></trkpt><trkpt lat="45.99203" lon="12.320435"><ele>215.3</ele><time>2014-10-26T08:56:17Z</time></trkpt><trkpt lat="45.99196166666667" lon="12.32044"><ele>213.6</ele><time>2014-10-26T08:56:24Z</time></trkpt><trkpt lat="45.991895" lon="12.320475"><ele>212.5</ele><time>2014-10-26T08:56:28Z</time></trkpt><trkpt lat="45.991795" lon="12.32048"><ele>210.9</ele><time>2014-10-26T08:56:32Z</time></trkpt><trkpt lat="45.991715" lon="12.320466666666666"><ele>209.6</ele><time>2014-10-26T08:56:35Z</time></trkpt><trkpt lat="45.991641666666666" lon="12.320465"><ele>208.3</ele><time>2014-10-26T08:56:38Z</time></trkpt><trkpt lat="45.991555" lon="12.320496666666667"><ele>206.8</ele><time>2014-10-26T08:56:42Z</time></trkpt><trkpt lat="45.99147" lon="12.320536666666667"><ele>205.0</ele><time>2014-10-26T08:56:46Z</time></trkpt><trkpt lat="45.991395" lon="12.320603333333333"><ele>203.9</ele><time>2014-10-26T08:56:49Z</time></trkpt><trkpt lat="45.991375" lon="12.320711666666666"><ele>202.7</ele><time>2014-10-26T08:56:52Z</time></trkpt><trkpt lat="45.99137" lon="12.32083"><ele>201.5</ele><time>2014-10-26T08:56:56Z</time></trkpt><trkpt lat="45.99137" lon="12.32094"><ele>200.3</ele><time>2014-10-26T08:57:01Z</time></trkpt><trkpt lat="45.991395" lon="12.32102"><ele>199.6</ele><time>2014-10-26T08:57:08Z</time></trkpt><trkpt lat="45.991435" lon="12.321065"><ele>198.2</ele><time>2014-10-26T08:57:15Z</time></trkpt><trkpt lat="45.991495" lon="12.32114"><ele>197.4</ele><time>2014-10-26T08:57:20Z</time></trkpt><trkpt lat="45.991515" lon="12.32123"><ele>196.8</ele><time>2014-10-26T08:57:27Z</time></trkpt><trkpt lat="45.991455" lon="12.321241666666667"><ele>196.4</ele><time>2014-10-26T08:57:34Z</time></trkpt><trkpt lat="45.991475" lon="12.321251666666667"><ele>196.1</ele><time>2014-10-26T08:57:41Z</time></trkpt><trkpt lat="45.99145" lon="12.321141666666666"><ele>195.5</ele><time>2014-10-26T08:57:48Z</time></trkpt><trkpt lat="45.991375" lon="12.321075"><ele>195.1</ele><time>2014-10-26T08:57:52Z</time></trkpt><trkpt lat="45.99131166666667" lon="12.320976666666667"><ele>194.5</ele><time>2014-10-26T08:57:56Z</time></trkpt><trkpt lat="45.99124" lon="12.320901666666666"><ele>193.4</ele><time>2014-10-26T08:58:01Z</time></trkpt><trkpt lat="45.991175" lon="12.320845"><ele>193.1</ele><time>2014-10-26T08:58:04Z</time></trkpt><trkpt lat="45.9911" lon="12.320841666666666"><ele>192.4</ele><time>2014-10-26T08:58:08Z</time></trkpt><trkpt lat="45.991035" lon="12.3209"><ele>191.0</ele><time>2014-10-26T08:58:13Z</time></trkpt><trkpt lat="45.991005" lon="12.320951666666666"><ele>189.9</ele><time>2014-10-26T08:58:20Z</time></trkpt><trkpt lat="45.99098" lon="12.321053333333333"><ele>188.6</ele><time>2014-10-26T08:58:25Z</time></trkpt><trkpt lat="45.99092666666667" lon="12.321141666666666"><ele>187.7</ele><time>2014-10-26T08:58:31Z</time></trkpt><trkpt lat="45.99087" lon="12.32121"><ele>187.4</ele><time>2014-10-26T08:58:37Z</time></trkpt><trkpt lat="45.9908" lon="12.321303333333333"><ele>187.1</ele><time>2014-10-26T08:58:41Z</time></trkpt><trkpt lat="45.990746666666666" lon="12.321385"><ele>186.9</ele><time>2014-10-26T08:58:44Z</time></trkpt><trkpt lat="45.990685" lon="12.321465"><ele>186.4</ele><time>2014-10-26T08:58:47Z</time></trkpt><trkpt lat="45.990615" lon="12.321535"><ele>186.0</ele><time>2014-10-26T08:58:50Z</time></trkpt><trkpt lat="45.99055" lon="12.32159"><ele>185.5</ele><time>2014-10-26T08:58:53Z</time></trkpt><trkpt lat="45.99048" lon="12.321665"><ele>184.7</ele><time>2014-10-26T08:58:57Z</time></trkpt><trkpt lat="45.99044" lon="12.32173"><ele>183.4</ele><time>2014-10-26T08:59:04Z</time></trkpt><trkpt lat="45.99035666666666" lon="12.321715"><ele>182.4</ele><time>2014-10-26T08:59:11Z</time></trkpt><trkpt lat="45.99028166666667" lon="12.321718333333333"><ele>182.0</ele><time>2014-10-26T08:59:16Z</time></trkpt><trkpt lat="45.990205" lon="12.321726666666667"><ele>181.8</ele><time>2014-10-26T08:59:20Z</time></trkpt><trkpt lat="45.99013166666667" lon="12.321655"><ele>181.2</ele><time>2014-10-26T08:59:25Z</time></trkpt><trkpt lat="45.99010666666667" lon="12.32154"><ele>180.8</ele><time>2014-10-26T08:59:28Z</time></trkpt><trkpt lat="45.99010166666667" lon="12.32141"><ele>180.4</ele><time>2014-10-26T08:59:31Z</time></trkpt><trkpt lat="45.990091666666665" lon="12.321275"><ele>180.0</ele><time>2014-10-26T08:59:34Z</time></trkpt><trkpt lat="45.99007666666667" lon="12.32116"><ele>179.8</ele><time>2014-10-26T08:59:37Z</time></trkpt><trkpt lat="45.990065" lon="12.321051666666667"><ele>179.6</ele><time>2014-10-26T08:59:40Z</time></trkpt><trkpt lat="45.990046666666665" lon="12.320935"><ele>179.4</ele><time>2014-10-26T08:59:43Z</time></trkpt><trkpt lat="45.99003" lon="12.32082"><ele>179.1</ele><time>2014-10-26T08:59:46Z</time></trkpt><trkpt lat="45.99001" lon="12.320705"><ele>178.8</ele><time>2014-10-26T08:59:49Z</time></trkpt><trkpt lat="45.99" lon="12.320601666666667"><ele>178.8</ele><time>2014-10-26T08:59:52Z</time></trkpt><trkpt lat="45.990295" lon="12.318406666666666"><ele>170.3</ele><time>2014-10-26T09:01:11Z</time></trkpt><trkpt lat="45.99037" lon="12.318381666666667"><ele>170.7</ele><time>2014-10-26T09:01:13Z</time></trkpt><trkpt lat="45.990445" lon="12.318375"><ele>171.0</ele><time>2014-10-26T09:01:15Z</time></trkpt><trkpt lat="45.99054" lon="12.31832"><ele>171.7</ele><time>2014-10-26T09:01:18Z</time></trkpt><trkpt lat="45.99062" lon="12.318196666666667"><ele>172.6</ele><time>2014-10-26T09:01:21Z</time></trkpt><trkpt lat="45.990671666666664" lon="12.318115"><ele>173.2</ele><time>2014-10-26T09:01:23Z</time></trkpt><trkpt lat="45.990735" lon="12.31802"><ele>174.1</ele><time>2014-10-26T09:01:26Z</time></trkpt><trkpt lat="45.990755" lon="12.317895"><ele>175.4</ele><time>2014-10-26T09:01:29Z</time></trkpt><trkpt lat="45.99078" lon="12.317765"><ele>176.2</ele><time>2014-10-26T09:01:32Z</time></trkpt><trkpt lat="45.990811666666666" lon="12.31764"><ele>177.1</ele><time>2014-10-26T09:01:36Z</time></trkpt><trkpt lat="45.99088" lon="12.317525"><ele>177.5</ele><time>2014-10-26T09:01:40Z</time></trkpt><trkpt lat="45.99093" lon="12.31743"><ele>177.8</ele><time>2014-10-26T09:01:43Z</time></trkpt><trkpt lat="45.99099" lon="12.31733"><ele>178.0</ele><time>2014-10-26T09:01:46Z</time></trkpt><trkpt lat="45.991025" lon="12.317226666666667"><ele>178.2</ele><time>2014-10-26T09:01:49Z</time></trkpt><trkpt lat="45.991038333333336" lon="12.31709"><ele>178.3</ele><time>2014-10-26T09:01:53Z</time></trkpt><trkpt lat="45.991035" lon="12.316976666666667"><ele>178.4</ele><time>2014-10-26T09:01:56Z</time></trkpt><trkpt lat="45.991015" lon="12.316853333333333"><ele>178.1</ele><time>2014-10-26T09:01:59Z</time></trkpt><trkpt lat="45.99099" lon="12.316745"><ele>177.8</ele><time>2014-10-26T09:02:02Z</time></trkpt><trkpt lat="45.991" lon="12.316615"><ele>177.5</ele><time>2014-10-26T09:02:06Z</time></trkpt><trkpt lat="45.99098" lon="12.316495"><ele>177.1</ele><time>2014-10-26T09:02:09Z</time></trkpt><trkpt lat="45.990925" lon="12.316378333333333"><ele>176.6</ele><time>2014-10-26T09:02:12Z</time></trkpt><trkpt lat="45.99088" lon="12.3163"><ele>176.3</ele><time>2014-10-26T09:02:14Z</time></trkpt><trkpt lat="45.99083" lon="12.316185"><ele>175.8</ele><time>2014-10-26T09:02:17Z</time></trkpt><trkpt lat="45.99075666666667" lon="12.316089999999999"><ele>175.2</ele><time>2014-10-26T09:02:20Z</time></trkpt><trkpt lat="45.990705" lon="12.31597"><ele>174.6</ele><time>2014-10-26T09:02:23Z</time></trkpt><trkpt lat="45.990665" lon="12.31586"><ele>174.2</ele><time>2014-10-26T09:02:26Z</time></trkpt><trkpt lat="45.99062166666667" lon="12.315746666666668"><ele>173.6</ele><time>2014-10-26T09:02:30Z</time></trkpt><trkpt lat="45.990565" lon="12.315631666666667"><ele>173.2</ele><time>2014-10-26T09:02:34Z</time></trkpt><trkpt lat="45.99053" lon="12.315535"><ele>172.9</ele><time>2014-10-26T09:02:37Z</time></trkpt><trkpt lat="45.99051" lon="12.31542"><ele>172.5</ele><time>2014-10-26T09:02:40Z</time></trkpt><trkpt lat="45.99049" lon="12.315305"><ele>172.0</ele><time>2014-10-26T09:02:44Z</time></trkpt><trkpt lat="45.99046666666667" lon="12.3152"><ele>171.6</ele><time>2014-10-26T09:02:47Z</time></trkpt><trkpt lat="45.990446666666664" lon="12.31509"><ele>171.1</ele><time>2014-10-26T09:02:50Z</time></trkpt><trkpt lat="45.99043" lon="12.314985"><ele>170.9</ele><time>2014-10-26T09:02:53Z</time></trkpt><trkpt lat="45.99041" lon="12.314866666666667"><ele>170.6</ele><time>2014-10-26T09:02:56Z</time></trkpt><trkpt lat="45.990375" lon="12.314745"><ele>170.3</ele><time>2014-10-26T09:02:59Z</time></trkpt><trkpt lat="45.99035" lon="12.314631666666667"><ele>169.9</ele><time>2014-10-26T09:03:02Z</time></trkpt><trkpt lat="45.99032666666667" lon="12.314511666666666"><ele>170.0</ele><time>2014-10-26T09:03:05Z</time></trkpt><trkpt lat="45.990278333333336" lon="12.314401666666667"><ele>170.3</ele><time>2014-10-26T09:03:08Z</time></trkpt><trkpt lat="45.990235" lon="12.314306666666667"><ele>170.3</ele><time>2014-10-26T09:03:11Z</time></trkpt><trkpt lat="45.99017" lon="12.31423"><ele>170.5</ele><time>2014-10-26T09:03:14Z</time></trkpt><trkpt lat="45.99011" lon="12.314165"><ele>170.8</ele><time>2014-10-26T09:03:17Z</time></trkpt><trkpt lat="45.99003" lon="12.314095"><ele>171.1</ele><time>2014-10-26T09:03:21Z</time></trkpt><trkpt lat="45.989959999999996" lon="12.31404"><ele>171.2</ele><time>2014-10-26T09:03:24Z</time></trkpt><trkpt lat="45.989895" lon="12.313966666666667"><ele>171.5</ele><time>2014-10-26T09:03:27Z</time></trkpt><trkpt lat="45.989826666666666" lon="12.313891666666667"><ele>171.8</ele><time>2014-10-26T09:03:31Z</time></trkpt><trkpt lat="45.98975166666666" lon="12.313815"><ele>172.0</ele><time>2014-10-26T09:03:35Z</time></trkpt><trkpt lat="45.989686666666664" lon="12.313741666666667"><ele>172.1</ele><time>2014-10-26T09:03:38Z</time></trkpt><trkpt lat="45.98961666666667" lon="12.31368"><ele>172.1</ele><time>2014-10-26T09:03:41Z</time></trkpt><trkpt lat="45.989536666666666" lon="12.313615"><ele>172.0</ele><time>2014-10-26T09:03:44Z</time></trkpt><trkpt lat="45.98947166666667" lon="12.313565"><ele>171.5</ele><time>2014-10-26T09:03:47Z</time></trkpt><trkpt lat="45.9894" lon="12.31349"><ele>171.6</ele><time>2014-10-26T09:03:51Z</time></trkpt><trkpt lat="45.98932666666666" lon="12.31347"><ele>171.7</ele><time>2014-10-26T09:03:55Z</time></trkpt><trkpt lat="45.989305" lon="12.313575"><ele>171.3</ele><time>2014-10-26T09:04:01Z</time></trkpt><trkpt lat="45.98925666666667" lon="12.313681666666668"><ele>171.0</ele><time>2014-10-26T09:04:06Z</time></trkpt><trkpt lat="45.989201666666666" lon="12.313776666666667"><ele>171.1</ele><time>2014-10-26T09:04:10Z</time></trkpt><trkpt lat="45.989151666666665" lon="12.31386"><ele>171.3</ele><time>2014-10-26T09:04:13Z</time></trkpt><trkpt lat="45.989115" lon="12.313955"><ele>171.6</ele><time>2014-10-26T09:04:16Z</time></trkpt><trkpt lat="45.98907666666667" lon="12.31405"><ele>171.8</ele><time>2014-10-26T09:04:19Z</time></trkpt><trkpt lat="45.98904" lon="12.31414"><ele>172.2</ele><time>2014-10-26T09:04:22Z</time></trkpt><trkpt lat="45.98899" lon="12.314245"><ele>172.4</ele><time>2014-10-26T09:04:26Z</time></trkpt><trkpt lat="45.988935" lon="12.314331666666666"><ele>172.2</ele><time>2014-10-26T09:04:30Z</time></trkpt><trkpt lat="45.98887" lon="12.31441"><ele>172.1</ele><time>2014-10-26T09:04:34Z</time></trkpt><trkpt lat="45.988805" lon="12.314465"><ele>171.7</ele><time>2014-10-26T09:04:39Z</time></trkpt><trkpt lat="45.98874" lon="12.31452"><ele>170.6</ele><time>2014-10-26T09:04:46Z</time></trkpt></trkseg></trk></gpx>